<?xml version='1.0' encoding='UTF-8'?>
<gpx version="1.1" creator="https://www.komoot.de" xmlns="http://www.topografix.com/GPX/1/1" xmlns:xsi="http://www.w3.org/2001/XMLSchema-instance" xsi:schemaLocation="http://www.topografix.com/GPX/1/1 http://www.topografix.com/GPX/1/1/gpx.xsd">
  <metadata>
    <name>53_700Ruehrberg</name>
    <author>
      <link href="https://www.komoot.de">
        <text>komoot</text>
        <type>text/html</type>
      </link>
    </author>
  </metadata>
  <trk>
    <name>53_700Ruehrberg</name>
    <trkseg>
      <trkpt lat="47.541521" lon="7.870517">
        <ele>339.022574</ele>
        <time>2021-11-13T14:54:27.835Z</time>
      </trkpt>
      <trkpt lat="47.541521" lon="7.870517">
        <ele>339.022574</ele>
        <time>2021-11-13T14:54:27.859Z</time>
      </trkpt>
      <trkpt lat="47.541606" lon="7.870424">
        <ele>339.022574</ele>
        <time>2021-11-13T14:54:29.598Z</time>
      </trkpt>
      <trkpt lat="47.541910" lon="7.870106">
        <ele>339.022574</ele>
        <time>2021-11-13T14:54:35.459Z</time>
      </trkpt>
      <trkpt lat="47.542014" lon="7.870126">
        <ele>339.022574</ele>
        <time>2021-11-13T14:54:37.055Z</time>
      </trkpt>
      <trkpt lat="47.542118" lon="7.870135">
        <ele>339.022574</ele>
        <time>2021-11-13T14:54:38.718Z</time>
      </trkpt>
      <trkpt lat="47.542181" lon="7.870131">
        <ele>339.022574</ele>
        <time>2021-11-13T14:54:39.605Z</time>
      </trkpt>
      <trkpt lat="47.542317" lon="7.870012">
        <ele>339.012286</ele>
        <time>2021-11-13T14:54:41.857Z</time>
      </trkpt>
      <trkpt lat="47.542348" lon="7.869983">
        <ele>338.968231</ele>
        <time>2021-11-13T14:54:42.316Z</time>
      </trkpt>
      <trkpt lat="47.542329" lon="7.869820">
        <ele>338.834061</ele>
        <time>2021-11-13T14:54:44.007Z</time>
      </trkpt>
      <trkpt lat="47.542372" lon="7.869746">
        <ele>338.754863</ele>
        <time>2021-11-13T14:54:44.839Z</time>
      </trkpt>
      <trkpt lat="47.542657" lon="7.869354">
        <ele>338.287562</ele>
        <time>2021-11-13T14:54:49.703Z</time>
      </trkpt>
      <trkpt lat="47.542696" lon="7.869257">
        <ele>338.195985</ele>
        <time>2021-11-13T14:54:50.638Z</time>
      </trkpt>
      <trkpt lat="47.542722" lon="7.869201">
        <ele>338.140856</ele>
        <time>2021-11-13T14:54:51.229Z</time>
      </trkpt>
      <trkpt lat="47.543049" lon="7.868759">
        <ele>337.608958</ele>
        <time>2021-11-13T14:54:56.142Z</time>
      </trkpt>
      <trkpt lat="47.543105" lon="7.868711">
        <ele>337.531217</ele>
        <time>2021-11-13T14:54:56.880Z</time>
      </trkpt>
      <trkpt lat="47.543201" lon="7.868657">
        <ele>337.407830</ele>
        <time>2021-11-13T14:54:57.959Z</time>
      </trkpt>
      <trkpt lat="47.543657" lon="7.868359">
        <ele>336.816356</ele>
        <time>2021-11-13T14:55:03.754Z</time>
      </trkpt>
      <trkpt lat="47.543801" lon="7.868269">
        <ele>336.655063</ele>
        <time>2021-11-13T14:55:06.234Z</time>
      </trkpt>
      <trkpt lat="47.544214" lon="7.867988">
        <ele>336.186042</ele>
        <time>2021-11-13T14:55:13.850Z</time>
      </trkpt>
      <trkpt lat="47.544246" lon="7.867967">
        <ele>336.149923</ele>
        <time>2021-11-13T14:55:14.447Z</time>
      </trkpt>
      <trkpt lat="47.544410" lon="7.867825">
        <ele>335.953886</ele>
        <time>2021-11-13T14:55:17.700Z</time>
      </trkpt>
      <trkpt lat="47.544469" lon="7.867776">
        <ele>335.884082</ele>
        <time>2021-11-13T14:55:18.722Z</time>
      </trkpt>
      <trkpt lat="47.544568" lon="7.867693">
        <ele>335.766687</ele>
        <time>2021-11-13T14:55:20.649Z</time>
      </trkpt>
      <trkpt lat="47.545003" lon="7.867278">
        <ele>335.232732</ele>
        <time>2021-11-13T14:55:29.497Z</time>
      </trkpt>
      <trkpt lat="47.545160" lon="7.866985">
        <ele>335.048256</ele>
        <time>2021-11-13T14:55:34.148Z</time>
      </trkpt>
      <trkpt lat="47.545240" lon="7.866887">
        <ele>335.188154</ele>
        <time>2021-11-13T14:55:36.421Z</time>
      </trkpt>
      <trkpt lat="47.546096" lon="7.866147">
        <ele>336.523800</ele>
        <time>2021-11-13T14:56:01.491Z</time>
      </trkpt>
      <trkpt lat="47.546327" lon="7.865959">
        <ele>336.878993</ele>
        <time>2021-11-13T14:56:09.228Z</time>
      </trkpt>
      <trkpt lat="47.546510" lon="7.865766">
        <ele>337.181724</ele>
        <time>2021-11-13T14:56:16.330Z</time>
      </trkpt>
      <trkpt lat="47.546819" lon="7.865489">
        <ele>337.762243</ele>
        <time>2021-11-13T14:56:26.561Z</time>
      </trkpt>
      <trkpt lat="47.546889" lon="7.865225">
        <ele>338.121366</ele>
        <time>2021-11-13T14:56:31.752Z</time>
      </trkpt>
      <trkpt lat="47.546894" lon="7.864837">
        <ele>338.612714</ele>
        <time>2021-11-13T14:56:39.172Z</time>
      </trkpt>
      <trkpt lat="47.546885" lon="7.864500">
        <ele>339.039734</ele>
        <time>2021-11-13T14:56:45.960Z</time>
      </trkpt>
      <trkpt lat="47.546877" lon="7.864345">
        <ele>339.236557</ele>
        <time>2021-11-13T14:56:48.854Z</time>
      </trkpt>
      <trkpt lat="47.546592" lon="7.863006">
        <ele>340.848138</ele>
        <time>2021-11-13T14:57:14.863Z</time>
      </trkpt>
      <trkpt lat="47.546526" lon="7.861665">
        <ele>341.212036</ele>
        <time>2021-11-13T14:57:35.595Z</time>
      </trkpt>
      <trkpt lat="47.546487" lon="7.859119">
        <ele>341.209887</ele>
        <time>2021-11-13T14:58:08.230Z</time>
      </trkpt>
      <trkpt lat="47.546537" lon="7.857497">
        <ele>340.862719</ele>
        <time>2021-11-13T14:58:29.242Z</time>
      </trkpt>
      <trkpt lat="47.546556" lon="7.857036">
        <ele>340.783548</ele>
        <time>2021-11-13T14:58:35.319Z</time>
      </trkpt>
      <trkpt lat="47.546582" lon="7.856413">
        <ele>340.676550</ele>
        <time>2021-11-13T14:58:43.596Z</time>
      </trkpt>
      <trkpt lat="47.546945" lon="7.851719">
        <ele>339.235518</ele>
        <time>2021-11-13T14:59:44.615Z</time>
      </trkpt>
      <trkpt lat="47.547141" lon="7.850355">
        <ele>338.089121</ele>
        <time>2021-11-13T15:00:00.181Z</time>
      </trkpt>
      <trkpt lat="47.547143" lon="7.849985">
        <ele>337.784955</ele>
        <time>2021-11-13T15:00:04.089Z</time>
      </trkpt>
      <trkpt lat="47.547124" lon="7.848795">
        <ele>336.209527</ele>
        <time>2021-11-13T15:00:16.687Z</time>
      </trkpt>
      <trkpt lat="47.547274" lon="7.845536">
        <ele>332.231739</ele>
        <time>2021-11-13T15:00:51.446Z</time>
      </trkpt>
      <trkpt lat="47.547295" lon="7.844722">
        <ele>331.338292</ele>
        <time>2021-11-13T15:01:00.929Z</time>
      </trkpt>
      <trkpt lat="47.547313" lon="7.843735">
        <ele>330.487973</ele>
        <time>2021-11-13T15:01:12.717Z</time>
      </trkpt>
      <trkpt lat="47.547354" lon="7.842839">
        <ele>329.745063</ele>
        <time>2021-11-13T15:01:22.989Z</time>
      </trkpt>
      <trkpt lat="47.547448" lon="7.842262">
        <ele>329.254039</ele>
        <time>2021-11-13T15:01:29.790Z</time>
      </trkpt>
      <trkpt lat="47.547549" lon="7.842268">
        <ele>329.130156</ele>
        <time>2021-11-13T15:01:31.484Z</time>
      </trkpt>
      <trkpt lat="47.547674" lon="7.842266">
        <ele>328.962717</ele>
        <time>2021-11-13T15:01:33.578Z</time>
      </trkpt>
      <trkpt lat="47.548105" lon="7.842284">
        <ele>328.067845</ele>
        <time>2021-11-13T15:01:40.334Z</time>
      </trkpt>
      <trkpt lat="47.549188" lon="7.842622">
        <ele>325.770811</ele>
        <time>2021-11-13T15:01:57.249Z</time>
      </trkpt>
      <trkpt lat="47.549582" lon="7.842702">
        <ele>325.129148</ele>
        <time>2021-11-13T15:02:03.437Z</time>
      </trkpt>
      <trkpt lat="47.549927" lon="7.842747">
        <ele>324.824225</ele>
        <time>2021-11-13T15:02:09.220Z</time>
      </trkpt>
      <trkpt lat="47.551243" lon="7.842849">
        <ele>323.671654</ele>
        <time>2021-11-13T15:02:33.358Z</time>
      </trkpt>
      <trkpt lat="47.551454" lon="7.842815">
        <ele>323.569369</ele>
        <time>2021-11-13T15:02:38.017Z</time>
      </trkpt>
      <trkpt lat="47.551668" lon="7.842770">
        <ele>323.465204</ele>
        <time>2021-11-13T15:02:42.575Z</time>
      </trkpt>
      <trkpt lat="47.551922" lon="7.842704">
        <ele>323.340928</ele>
        <time>2021-11-13T15:02:47.497Z</time>
      </trkpt>
      <trkpt lat="47.552380" lon="7.842592">
        <ele>323.117222</ele>
        <time>2021-11-13T15:02:56.393Z</time>
      </trkpt>
      <trkpt lat="47.552833" lon="7.842495">
        <ele>322.896643</ele>
        <time>2021-11-13T15:03:04.677Z</time>
      </trkpt>
      <trkpt lat="47.553133" lon="7.842431">
        <ele>322.617063</ele>
        <time>2021-11-13T15:03:09.961Z</time>
      </trkpt>
      <trkpt lat="47.553123" lon="7.842222">
        <ele>322.405705</ele>
        <time>2021-11-13T15:03:11.542Z</time>
      </trkpt>
      <trkpt lat="47.553216" lon="7.841849">
        <ele>322.004587</ele>
        <time>2021-11-13T15:03:14.753Z</time>
      </trkpt>
      <trkpt lat="47.553231" lon="7.841529">
        <ele>321.681010</ele>
        <time>2021-11-13T15:03:17.245Z</time>
      </trkpt>
      <trkpt lat="47.552939" lon="7.839526">
        <ele>319.603883</ele>
        <time>2021-11-13T15:03:32.780Z</time>
      </trkpt>
      <trkpt lat="47.552802" lon="7.839009">
        <ele>319.032649</ele>
        <time>2021-11-13T15:03:37.102Z</time>
      </trkpt>
      <trkpt lat="47.552736" lon="7.838578">
        <ele>318.578112</ele>
        <time>2021-11-13T15:03:40.542Z</time>
      </trkpt>
      <trkpt lat="47.552697" lon="7.838068">
        <ele>318.050236</ele>
        <time>2021-11-13T15:03:44.557Z</time>
      </trkpt>
      <trkpt lat="47.552719" lon="7.836790">
        <ele>316.646916</ele>
        <time>2021-11-13T15:03:54.585Z</time>
      </trkpt>
      <trkpt lat="47.552714" lon="7.835010">
        <ele>314.566741</ele>
        <time>2021-11-13T15:04:08.335Z</time>
      </trkpt>
      <trkpt lat="47.552700" lon="7.833938">
        <ele>312.720882</ele>
        <time>2021-11-13T15:04:15.901Z</time>
      </trkpt>
      <trkpt lat="47.552696" lon="7.833789">
        <ele>312.438636</ele>
        <time>2021-11-13T15:04:16.899Z</time>
      </trkpt>
      <trkpt lat="47.552452" lon="7.833284">
        <ele>311.263088</ele>
        <time>2021-11-13T15:04:21.224Z</time>
      </trkpt>
      <trkpt lat="47.552467" lon="7.833198">
        <ele>311.094961</ele>
        <time>2021-11-13T15:04:21.836Z</time>
      </trkpt>
      <trkpt lat="47.552511" lon="7.833072">
        <ele>310.826438</ele>
        <time>2021-11-13T15:04:22.842Z</time>
      </trkpt>
      <trkpt lat="47.552556" lon="7.832977">
        <ele>310.606757</ele>
        <time>2021-11-13T15:04:23.658Z</time>
      </trkpt>
      <trkpt lat="47.552616" lon="7.832891">
        <ele>310.372638</ele>
        <time>2021-11-13T15:04:24.464Z</time>
      </trkpt>
      <trkpt lat="47.552690" lon="7.832598">
        <ele>309.780496</ele>
        <time>2021-11-13T15:04:26.665Z</time>
      </trkpt>
      <trkpt lat="47.552645" lon="7.830686">
        <ele>306.168647</ele>
        <time>2021-11-13T15:04:39.788Z</time>
      </trkpt>
      <trkpt lat="47.552554" lon="7.829266">
        <ele>303.804731</ele>
        <time>2021-11-13T15:04:50.074Z</time>
      </trkpt>
      <trkpt lat="47.552416" lon="7.828822">
        <ele>303.301963</ele>
        <time>2021-11-13T15:04:53.738Z</time>
      </trkpt>
      <trkpt lat="47.552404" lon="7.828582">
        <ele>303.054438</ele>
        <time>2021-11-13T15:04:55.653Z</time>
      </trkpt>
      <trkpt lat="47.552421" lon="7.828481">
        <ele>302.947374</ele>
        <time>2021-11-13T15:04:56.408Z</time>
      </trkpt>
      <trkpt lat="47.552477" lon="7.828294">
        <ele>302.736955</ele>
        <time>2021-11-13T15:04:57.984Z</time>
      </trkpt>
      <trkpt lat="47.552515" lon="7.828094">
        <ele>302.523252</ele>
        <time>2021-11-13T15:04:59.702Z</time>
      </trkpt>
      <trkpt lat="47.552491" lon="7.827227">
        <ele>301.630762</ele>
        <time>2021-11-13T15:05:06.610Z</time>
      </trkpt>
      <trkpt lat="47.552567" lon="7.824508">
        <ele>300.261519</ele>
        <time>2021-11-13T15:05:30.458Z</time>
      </trkpt>
      <trkpt lat="47.552896" lon="7.820699">
        <ele>298.366240</ele>
        <time>2021-11-13T15:06:03.196Z</time>
      </trkpt>
      <trkpt lat="47.552948" lon="7.819358">
        <ele>297.750469</ele>
        <time>2021-11-13T15:06:14.736Z</time>
      </trkpt>
      <trkpt lat="47.552844" lon="7.816432">
        <ele>297.301459</ele>
        <time>2021-11-13T15:06:42.370Z</time>
      </trkpt>
      <trkpt lat="47.552711" lon="7.812955">
        <ele>298.599586</ele>
        <time>2021-11-13T15:07:23.024Z</time>
      </trkpt>
      <trkpt lat="47.552566" lon="7.810386">
        <ele>299.725081</ele>
        <time>2021-11-13T15:07:53.056Z</time>
      </trkpt>
      <trkpt lat="47.552398" lon="7.808880">
        <ele>300.414937</ele>
        <time>2021-11-13T15:08:11.537Z</time>
      </trkpt>
      <trkpt lat="47.552068" lon="7.806445">
        <ele>300.852050</ele>
        <time>2021-11-13T15:08:39.877Z</time>
      </trkpt>
      <trkpt lat="47.552015" lon="7.806307">
        <ele>300.871508</ele>
        <time>2021-11-13T15:08:41.600Z</time>
      </trkpt>
      <trkpt lat="47.551895" lon="7.806278">
        <ele>300.893585</ele>
        <time>2021-11-13T15:08:42.909Z</time>
      </trkpt>
      <trkpt lat="47.551651" lon="7.806246">
        <ele>300.860873</ele>
        <time>2021-11-13T15:08:46.671Z</time>
      </trkpt>
      <trkpt lat="47.551671" lon="7.806117">
        <ele>300.790122</ele>
        <time>2021-11-13T15:08:47.985Z</time>
      </trkpt>
      <trkpt lat="47.551681" lon="7.805477">
        <ele>300.447932</ele>
        <time>2021-11-13T15:08:55.684Z</time>
      </trkpt>
      <trkpt lat="47.551709" lon="7.805000">
        <ele>300.191999</ele>
        <time>2021-11-13T15:09:01.323Z</time>
      </trkpt>
      <trkpt lat="47.551731" lon="7.804667">
        <ele>300.013151</ele>
        <time>2021-11-13T15:09:05.908Z</time>
      </trkpt>
      <trkpt lat="47.551744" lon="7.804473">
        <ele>299.908942</ele>
        <time>2021-11-13T15:09:07.904Z</time>
      </trkpt>
      <trkpt lat="47.551741" lon="7.804294">
        <ele>299.813232</ele>
        <time>2021-11-13T15:09:10.239Z</time>
      </trkpt>
      <trkpt lat="47.551692" lon="7.803510">
        <ele>299.389170</ele>
        <time>2021-11-13T15:09:19.369Z</time>
      </trkpt>
      <trkpt lat="47.551751" lon="7.803369">
        <ele>299.297836</ele>
        <time>2021-11-13T15:09:21.304Z</time>
      </trkpt>
      <trkpt lat="47.551744" lon="7.803277">
        <ele>299.246865</ele>
        <time>2021-11-13T15:09:22.099Z</time>
      </trkpt>
      <trkpt lat="47.551732" lon="7.803125">
        <ele>299.162613</ele>
        <time>2021-11-13T15:09:23.496Z</time>
      </trkpt>
      <trkpt lat="47.551700" lon="7.802648">
        <ele>298.898712</ele>
        <time>2021-11-13T15:09:27.842Z</time>
      </trkpt>
      <trkpt lat="47.551688" lon="7.802394">
        <ele>298.758533</ele>
        <time>2021-11-13T15:09:30.236Z</time>
      </trkpt>
      <trkpt lat="47.551679" lon="7.802228">
        <ele>298.666850</ele>
        <time>2021-11-13T15:09:31.719Z</time>
      </trkpt>
      <trkpt lat="47.551671" lon="7.802077">
        <ele>298.583463</ele>
        <time>2021-11-13T15:09:33.280Z</time>
      </trkpt>
      <trkpt lat="47.551669" lon="7.801853">
        <ele>298.460131</ele>
        <time>2021-11-13T15:09:35.273Z</time>
      </trkpt>
      <trkpt lat="47.551666" lon="7.801632">
        <ele>298.338438</ele>
        <time>2021-11-13T15:09:37.232Z</time>
      </trkpt>
      <trkpt lat="47.551669" lon="7.801438">
        <ele>298.231605</ele>
        <time>2021-11-13T15:09:38.739Z</time>
      </trkpt>
      <trkpt lat="47.551672" lon="7.801147">
        <ele>298.071380</ele>
        <time>2021-11-13T15:09:41.197Z</time>
      </trkpt>
      <trkpt lat="47.551704" lon="7.800451">
        <ele>296.803386</ele>
        <time>2021-11-13T15:09:46.623Z</time>
      </trkpt>
      <trkpt lat="47.551712" lon="7.800249">
        <ele>296.406313</ele>
        <time>2021-11-13T15:09:48.067Z</time>
      </trkpt>
      <trkpt lat="47.551730" lon="7.800039">
        <ele>295.990914</ele>
        <time>2021-11-13T15:09:49.554Z</time>
      </trkpt>
      <trkpt lat="47.551754" lon="7.799766">
        <ele>295.450673</ele>
        <time>2021-11-13T15:09:51.413Z</time>
      </trkpt>
      <trkpt lat="47.551793" lon="7.799434">
        <ele>294.789387</ele>
        <time>2021-11-13T15:09:53.752Z</time>
      </trkpt>
      <trkpt lat="47.551805" lon="7.799326">
        <ele>294.574603</ele>
        <time>2021-11-13T15:09:54.453Z</time>
      </trkpt>
      <trkpt lat="47.551948" lon="7.798607">
        <ele>293.103708</ele>
        <time>2021-11-13T15:09:59.536Z</time>
      </trkpt>
      <trkpt lat="47.552084" lon="7.798083">
        <ele>291.730214</ele>
        <time>2021-11-13T15:10:03.154Z</time>
      </trkpt>
      <trkpt lat="47.552152" lon="7.797876">
        <ele>291.125038</ele>
        <time>2021-11-13T15:10:04.618Z</time>
      </trkpt>
      <trkpt lat="47.552493" lon="7.797048">
        <ele>288.575253</ele>
        <time>2021-11-13T15:10:10.846Z</time>
      </trkpt>
      <trkpt lat="47.552762" lon="7.796425">
        <ele>286.631115</ele>
        <time>2021-11-13T15:10:15.800Z</time>
      </trkpt>
      <trkpt lat="47.552817" lon="7.796239">
        <ele>286.097312</ele>
        <time>2021-11-13T15:10:17.201Z</time>
      </trkpt>
      <trkpt lat="47.552886" lon="7.795976">
        <ele>285.578854</ele>
        <time>2021-11-13T15:10:19.210Z</time>
      </trkpt>
      <trkpt lat="47.552901" lon="7.795845">
        <ele>285.406229</ele>
        <time>2021-11-13T15:10:20.177Z</time>
      </trkpt>
      <trkpt lat="47.552930" lon="7.795600">
        <ele>285.083073</ele>
        <time>2021-11-13T15:10:22.115Z</time>
      </trkpt>
      <trkpt lat="47.552917" lon="7.795354">
        <ele>284.762497</ele>
        <time>2021-11-13T15:10:23.995Z</time>
      </trkpt>
      <trkpt lat="47.552909" lon="7.795229">
        <ele>284.599371</ele>
        <time>2021-11-13T15:10:24.978Z</time>
      </trkpt>
      <trkpt lat="47.552892" lon="7.795106">
        <ele>284.436256</ele>
        <time>2021-11-13T15:10:25.916Z</time>
      </trkpt>
      <trkpt lat="47.552861" lon="7.794992">
        <ele>284.276580</ele>
        <time>2021-11-13T15:10:26.806Z</time>
      </trkpt>
      <trkpt lat="47.552837" lon="7.794925">
        <ele>284.178035</ele>
        <time>2021-11-13T15:10:27.380Z</time>
      </trkpt>
      <trkpt lat="47.552826" lon="7.794894">
        <ele>284.132533</ele>
        <time>2021-11-13T15:10:27.639Z</time>
      </trkpt>
      <trkpt lat="47.552786" lon="7.794796">
        <ele>283.983741</ele>
        <time>2021-11-13T15:10:28.469Z</time>
      </trkpt>
      <trkpt lat="47.552763" lon="7.794750">
        <ele>283.909365</ele>
        <time>2021-11-13T15:10:29.008Z</time>
      </trkpt>
      <trkpt lat="47.552644" lon="7.794507">
        <ele>283.519313</ele>
        <time>2021-11-13T15:10:31.295Z</time>
      </trkpt>
      <trkpt lat="47.552532" lon="7.794285">
        <ele>283.159220</ele>
        <time>2021-11-13T15:10:33.416Z</time>
      </trkpt>
      <trkpt lat="47.552494" lon="7.794200">
        <ele>283.026759</ele>
        <time>2021-11-13T15:10:34.143Z</time>
      </trkpt>
      <trkpt lat="47.552384" lon="7.793915">
        <ele>282.600220</ele>
        <time>2021-11-13T15:10:36.786Z</time>
      </trkpt>
      <trkpt lat="47.552369" lon="7.793872">
        <ele>282.537334</ele>
        <time>2021-11-13T15:10:37.411Z</time>
      </trkpt>
      <trkpt lat="47.552292" lon="7.793607">
        <ele>282.160892</ele>
        <time>2021-11-13T15:10:39.445Z</time>
      </trkpt>
      <trkpt lat="47.552233" lon="7.793294">
        <ele>281.734747</ele>
        <time>2021-11-13T15:10:42.226Z</time>
      </trkpt>
      <trkpt lat="47.552216" lon="7.793160">
        <ele>281.555954</ele>
        <time>2021-11-13T15:10:43.167Z</time>
      </trkpt>
      <trkpt lat="47.552198" lon="7.792976">
        <ele>281.312153</ele>
        <time>2021-11-13T15:10:44.677Z</time>
      </trkpt>
      <trkpt lat="47.552188" lon="7.792672">
        <ele>280.913042</ele>
        <time>2021-11-13T15:10:47.106Z</time>
      </trkpt>
      <trkpt lat="47.552184" lon="7.792540">
        <ele>280.739775</ele>
        <time>2021-11-13T15:10:48.103Z</time>
      </trkpt>
      <trkpt lat="47.552180" lon="7.792294">
        <ele>280.417100</ele>
        <time>2021-11-13T15:10:50.287Z</time>
      </trkpt>
      <trkpt lat="47.552285" lon="7.792311">
        <ele>280.211880</ele>
        <time>2021-11-13T15:10:51.786Z</time>
      </trkpt>
      <trkpt lat="47.552522" lon="7.792324">
        <ele>279.751095</ele>
        <time>2021-11-13T15:10:55.633Z</time>
      </trkpt>
      <trkpt lat="47.552612" lon="7.792307">
        <ele>279.574818</ele>
        <time>2021-11-13T15:10:56.915Z</time>
      </trkpt>
      <trkpt lat="47.552708" lon="7.792288">
        <ele>279.386642</ele>
        <time>2021-11-13T15:10:58.325Z</time>
      </trkpt>
      <trkpt lat="47.552708" lon="7.792288">
        <ele>279.386642</ele>
        <time>2021-11-13T15:10:58.345Z</time>
      </trkpt>
      <trkpt lat="47.552708" lon="7.792288">
        <ele>279.386642</ele>
        <time>2021-11-13T15:10:58.366Z</time>
      </trkpt>
      <trkpt lat="47.553011" lon="7.792201">
        <ele>278.771868</ele>
        <time>2021-11-13T15:11:02.983Z</time>
      </trkpt>
      <trkpt lat="47.553144" lon="7.792160">
        <ele>278.432808</ele>
        <time>2021-11-13T15:11:05.028Z</time>
      </trkpt>
      <trkpt lat="47.553340" lon="7.792098">
        <ele>277.932591</ele>
        <time>2021-11-13T15:11:08.046Z</time>
      </trkpt>
      <trkpt lat="47.553447" lon="7.792045">
        <ele>277.651005</ele>
        <time>2021-11-13T15:11:15.904Z</time>
      </trkpt>
      <trkpt lat="47.553588" lon="7.791974">
        <ele>277.279319</ele>
        <time>2021-11-13T15:11:26.270Z</time>
      </trkpt>
      <trkpt lat="47.553765" lon="7.791892">
        <ele>276.816458</ele>
        <time>2021-11-13T15:11:39.126Z</time>
      </trkpt>
      <trkpt lat="47.553805" lon="7.791874">
        <ele>276.712120</ele>
        <time>2021-11-13T15:11:42.039Z</time>
      </trkpt>
      <trkpt lat="47.553889" lon="7.791874">
        <ele>276.502466</ele>
        <time>2021-11-13T15:11:47.930Z</time>
      </trkpt>
      <trkpt lat="47.554067" lon="7.791938">
        <ele>276.045307</ele>
        <time>2021-11-13T15:12:00.616Z</time>
      </trkpt>
      <trkpt lat="47.554162" lon="7.791971">
        <ele>275.801770</ele>
        <time>2021-11-13T15:12:07.423Z</time>
      </trkpt>
      <trkpt lat="47.554211" lon="7.791989">
        <ele>275.675769</ele>
        <time>2021-11-13T15:12:10.959Z</time>
      </trkpt>
      <trkpt lat="47.554342" lon="7.792039">
        <ele>275.338136</ele>
        <time>2021-11-13T15:12:20.361Z</time>
      </trkpt>
      <trkpt lat="47.554504" lon="7.792023">
        <ele>274.932906</ele>
        <time>2021-11-13T15:12:31.586Z</time>
      </trkpt>
      <trkpt lat="47.554581" lon="7.792014">
        <ele>274.740126</ele>
        <time>2021-11-13T15:12:37.014Z</time>
      </trkpt>
      <trkpt lat="47.554682" lon="7.792286">
        <ele>274.182788</ele>
        <time>2021-11-13T15:12:51.575Z</time>
      </trkpt>
      <trkpt lat="47.554823" lon="7.792244">
        <ele>273.731484</ele>
        <time>2021-11-13T15:13:01.573Z</time>
      </trkpt>
      <trkpt lat="47.554849" lon="7.792237">
        <ele>273.648561</ele>
        <time>2021-11-13T15:13:03.383Z</time>
      </trkpt>
      <trkpt lat="47.554849" lon="7.792237">
        <ele>273.648561</ele>
        <time>2021-11-13T15:13:03.394Z</time>
      </trkpt>
      <trkpt lat="47.554849" lon="7.792237">
        <ele>273.648561</ele>
        <time>2021-11-13T15:13:03.405Z</time>
      </trkpt>
      <trkpt lat="47.555085" lon="7.792163">
        <ele>272.891604</ele>
        <time>2021-11-13T15:13:20.191Z</time>
      </trkpt>
      <trkpt lat="47.555027" lon="7.791948">
        <ele>272.401260</ele>
        <time>2021-11-13T15:13:24.691Z</time>
      </trkpt>
      <trkpt lat="47.554911" lon="7.791459">
        <ele>271.303569</ele>
        <time>2021-11-13T15:13:34.985Z</time>
      </trkpt>
      <trkpt lat="47.554756" lon="7.790897">
        <ele>270.017841</ele>
        <time>2021-11-13T15:13:46.953Z</time>
      </trkpt>
      <trkpt lat="47.554788" lon="7.790844">
        <ele>269.867238</ele>
        <time>2021-11-13T15:13:48.304Z</time>
      </trkpt>
      <trkpt lat="47.554858" lon="7.790696">
        <ele>269.484503</ele>
        <time>2021-11-13T15:13:52.026Z</time>
      </trkpt>
      <trkpt lat="47.554865" lon="7.790678">
        <ele>269.440508</ele>
        <time>2021-11-13T15:13:52.384Z</time>
      </trkpt>
      <trkpt lat="47.554999" lon="7.790090">
        <ele>268.543702</ele>
        <time>2021-11-13T15:14:04.530Z</time>
      </trkpt>
      <trkpt lat="47.555031" lon="7.789894">
        <ele>268.423713</ele>
        <time>2021-11-13T15:14:08.435Z</time>
      </trkpt>
      <trkpt lat="47.555052" lon="7.789771">
        <ele>268.348219</ele>
        <time>2021-11-13T15:14:10.980Z</time>
      </trkpt>
      <trkpt lat="47.555062" lon="7.789726">
        <ele>268.320028</ele>
        <time>2021-11-13T15:14:11.975Z</time>
      </trkpt>
      <trkpt lat="47.555085" lon="7.789685">
        <ele>268.288305</ele>
        <time>2021-11-13T15:14:13.079Z</time>
      </trkpt>
      <trkpt lat="47.555936" lon="7.788828">
        <ele>267.381116</ele>
        <time>2021-11-13T15:14:47.795Z</time>
      </trkpt>
      <trkpt lat="47.556069" lon="7.788614">
        <ele>267.208013</ele>
        <time>2021-11-13T15:14:52.156Z</time>
      </trkpt>
      <trkpt lat="47.556111" lon="7.788537">
        <ele>267.149103</ele>
        <time>2021-11-13T15:14:53.694Z</time>
      </trkpt>
      <trkpt lat="47.556137" lon="7.788488">
        <ele>267.159428</ele>
        <time>2021-11-13T15:14:54.861Z</time>
      </trkpt>
      <trkpt lat="47.556249" lon="7.788270">
        <ele>267.853768</ele>
        <time>2021-11-13T15:14:59.851Z</time>
      </trkpt>
      <trkpt lat="47.556357" lon="7.788058">
        <ele>268.526916</ele>
        <time>2021-11-13T15:15:04.828Z</time>
      </trkpt>
      <trkpt lat="47.556539" lon="7.787710">
        <ele>269.642653</ele>
        <time>2021-11-13T15:15:13.479Z</time>
      </trkpt>
      <trkpt lat="47.556658" lon="7.787468">
        <ele>270.401474</ele>
        <time>2021-11-13T15:15:19.976Z</time>
      </trkpt>
      <trkpt lat="47.556783" lon="7.787207">
        <ele>271.212540</ele>
        <time>2021-11-13T15:15:26.815Z</time>
      </trkpt>
      <trkpt lat="47.556917" lon="7.786943">
        <ele>272.049685</ele>
        <time>2021-11-13T15:15:34.327Z</time>
      </trkpt>
      <trkpt lat="47.557019" lon="7.786803">
        <ele>272.571784</ele>
        <time>2021-11-13T15:15:39.083Z</time>
      </trkpt>
      <trkpt lat="47.557118" lon="7.786638">
        <ele>273.131295</ele>
        <time>2021-11-13T15:15:44.379Z</time>
      </trkpt>
      <trkpt lat="47.557180" lon="7.786638">
        <ele>273.364117</ele>
        <time>2021-11-13T15:15:46.428Z</time>
      </trkpt>
      <trkpt lat="47.557490" lon="7.786586">
        <ele>274.356014</ele>
        <time>2021-11-13T15:15:57.375Z</time>
      </trkpt>
      <trkpt lat="47.557562" lon="7.786575">
        <ele>274.553881</ele>
        <time>2021-11-13T15:15:59.645Z</time>
      </trkpt>
      <trkpt lat="47.557711" lon="7.786536">
        <ele>274.967501</ele>
        <time>2021-11-13T15:16:04.436Z</time>
      </trkpt>
      <trkpt lat="47.557823" lon="7.786486">
        <ele>275.287263</ele>
        <time>2021-11-13T15:16:08.081Z</time>
      </trkpt>
      <trkpt lat="47.557901" lon="7.786427">
        <ele>275.526662</ele>
        <time>2021-11-13T15:16:10.478Z</time>
      </trkpt>
      <trkpt lat="47.557921" lon="7.786413">
        <ele>275.587129</ele>
        <time>2021-11-13T15:16:11.101Z</time>
      </trkpt>
      <trkpt lat="47.558006" lon="7.786349">
        <ele>275.847765</ele>
        <time>2021-11-13T15:16:13.670Z</time>
      </trkpt>
      <trkpt lat="47.558071" lon="7.786282">
        <ele>276.064214</ele>
        <time>2021-11-13T15:16:15.759Z</time>
      </trkpt>
      <trkpt lat="47.558166" lon="7.786166">
        <ele>276.400720</ele>
        <time>2021-11-13T15:16:18.922Z</time>
      </trkpt>
      <trkpt lat="47.558235" lon="7.786079">
        <ele>276.648384</ele>
        <time>2021-11-13T15:16:21.187Z</time>
      </trkpt>
      <trkpt lat="47.558367" lon="7.785913">
        <ele>277.121656</ele>
        <time>2021-11-13T15:16:25.347Z</time>
      </trkpt>
      <trkpt lat="47.558577" lon="7.785598">
        <ele>277.938501</ele>
        <time>2021-11-13T15:16:31.805Z</time>
      </trkpt>
      <trkpt lat="47.558660" lon="7.785434">
        <ele>278.316671</ele>
        <time>2021-11-13T15:16:34.475Z</time>
      </trkpt>
      <trkpt lat="47.558747" lon="7.785215">
        <ele>278.785479</ele>
        <time>2021-11-13T15:16:37.903Z</time>
      </trkpt>
      <trkpt lat="47.558782" lon="7.785128">
        <ele>278.802912</ele>
        <time>2021-11-13T15:16:38.966Z</time>
      </trkpt>
      <trkpt lat="47.558822" lon="7.785030">
        <ele>278.815536</ele>
        <time>2021-11-13T15:16:40.307Z</time>
      </trkpt>
      <trkpt lat="47.558920" lon="7.784817">
        <ele>278.843950</ele>
        <time>2021-11-13T15:16:43.509Z</time>
      </trkpt>
      <trkpt lat="47.558986" lon="7.784674">
        <ele>278.863045</ele>
        <time>2021-11-13T15:16:45.268Z</time>
      </trkpt>
      <trkpt lat="47.558935" lon="7.784583">
        <ele>278.876083</ele>
        <time>2021-11-13T15:16:46.505Z</time>
      </trkpt>
      <trkpt lat="47.558900" lon="7.784465">
        <ele>278.890289</ele>
        <time>2021-11-13T15:16:47.933Z</time>
      </trkpt>
      <trkpt lat="47.558878" lon="7.784352">
        <ele>278.903252</ele>
        <time>2021-11-13T15:16:49.267Z</time>
      </trkpt>
      <trkpt lat="47.558835" lon="7.784082">
        <ele>278.933829</ele>
        <time>2021-11-13T15:16:51.793Z</time>
      </trkpt>
      <trkpt lat="47.558788" lon="7.783782">
        <ele>278.967774</ele>
        <time>2021-11-13T15:16:55.072Z</time>
      </trkpt>
      <trkpt lat="47.558766" lon="7.783650">
        <ele>278.982760</ele>
        <time>2021-11-13T15:16:56.191Z</time>
      </trkpt>
      <trkpt lat="47.558609" lon="7.782690">
        <ele>279.067712</ele>
        <time>2021-11-13T15:17:05.675Z</time>
      </trkpt>
      <trkpt lat="47.558561" lon="7.782282">
        <ele>278.922369</ele>
        <time>2021-11-13T15:17:09.669Z</time>
      </trkpt>
      <trkpt lat="47.558538" lon="7.782086">
        <ele>278.852552</ele>
        <time>2021-11-13T15:17:11.374Z</time>
      </trkpt>
      <trkpt lat="47.558528" lon="7.781999">
        <ele>278.821581</ele>
        <time>2021-11-13T15:17:12.204Z</time>
      </trkpt>
      <trkpt lat="47.558488" lon="7.781576">
        <ele>278.671682</ele>
        <time>2021-11-13T15:17:15.944Z</time>
      </trkpt>
      <trkpt lat="47.558475" lon="7.781460">
        <ele>278.630416</ele>
        <time>2021-11-13T15:17:16.943Z</time>
      </trkpt>
      <trkpt lat="47.558415" lon="7.780958">
        <ele>278.451501</ele>
        <time>2021-11-13T15:17:21.302Z</time>
      </trkpt>
      <trkpt lat="47.558406" lon="7.780884">
        <ele>278.425113</ele>
        <time>2021-11-13T15:17:21.970Z</time>
      </trkpt>
      <trkpt lat="47.558365" lon="7.780533">
        <ele>278.300101</ele>
        <time>2021-11-13T15:17:25.044Z</time>
      </trkpt>
      <trkpt lat="47.558325" lon="7.780058">
        <ele>278.128504</ele>
        <time>2021-11-13T15:17:30.984Z</time>
      </trkpt>
      <trkpt lat="47.558089" lon="7.777904">
        <ele>277.212922</ele>
        <time>2021-11-13T15:17:58.409Z</time>
      </trkpt>
      <trkpt lat="47.557841" lon="7.775695">
        <ele>275.636751</ele>
        <time>2021-11-13T15:18:24.456Z</time>
      </trkpt>
      <trkpt lat="47.557796" lon="7.775255">
        <ele>275.293409</ele>
        <time>2021-11-13T15:18:29.450Z</time>
      </trkpt>
      <trkpt lat="47.557718" lon="7.774680">
        <ele>274.868586</ele>
        <time>2021-11-13T15:18:36.041Z</time>
      </trkpt>
      <trkpt lat="47.557636" lon="7.774194">
        <ele>274.561262</ele>
        <time>2021-11-13T15:18:41.657Z</time>
      </trkpt>
      <trkpt lat="47.557423" lon="7.773208">
        <ele>273.926143</ele>
        <time>2021-11-13T15:18:53.463Z</time>
      </trkpt>
      <trkpt lat="47.556998" lon="7.771574">
        <ele>273.557584</ele>
        <time>2021-11-13T15:19:16.105Z</time>
      </trkpt>
      <trkpt lat="47.556970" lon="7.771488">
        <ele>273.583531</ele>
        <time>2021-11-13T15:19:17.611Z</time>
      </trkpt>
      <trkpt lat="47.556644" lon="7.770245">
        <ele>273.945917</ele>
        <time>2021-11-13T15:19:38.031Z</time>
      </trkpt>
      <trkpt lat="47.556588" lon="7.770024">
        <ele>274.010066</ele>
        <time>2021-11-13T15:19:41.708Z</time>
      </trkpt>
      <trkpt lat="47.556325" lon="7.769016">
        <ele>274.660032</ele>
        <time>2021-11-13T15:19:59.520Z</time>
      </trkpt>
      <trkpt lat="47.556308" lon="7.768946">
        <ele>274.710442</ele>
        <time>2021-11-13T15:20:00.881Z</time>
      </trkpt>
      <trkpt lat="47.556180" lon="7.768445">
        <ele>275.073437</ele>
        <time>2021-11-13T15:20:09.959Z</time>
      </trkpt>
      <trkpt lat="47.555779" lon="7.766907">
        <ele>276.088454</ele>
        <time>2021-11-13T15:20:36.811Z</time>
      </trkpt>
      <trkpt lat="47.555705" lon="7.766563">
        <ele>276.254841</ele>
        <time>2021-11-13T15:20:42.447Z</time>
      </trkpt>
      <trkpt lat="47.555683" lon="7.766459">
        <ele>276.305068</ele>
        <time>2021-11-13T15:20:44.107Z</time>
      </trkpt>
      <trkpt lat="47.555631" lon="7.766213">
        <ele>276.423865</ele>
        <time>2021-11-13T15:20:47.220Z</time>
      </trkpt>
      <trkpt lat="47.555496" lon="7.765461">
        <ele>276.782467</ele>
        <time>2021-11-13T15:20:56.067Z</time>
      </trkpt>
      <trkpt lat="47.555465" lon="7.765253">
        <ele>276.880631</ele>
        <time>2021-11-13T15:20:58.648Z</time>
      </trkpt>
      <trkpt lat="47.555426" lon="7.764999">
        <ele>277.000676</ele>
        <time>2021-11-13T15:21:01.611Z</time>
      </trkpt>
      <trkpt lat="47.555344" lon="7.764439">
        <ele>277.122947</ele>
        <time>2021-11-13T15:21:08.219Z</time>
      </trkpt>
      <trkpt lat="47.555256" lon="7.763536">
        <ele>277.182935</ele>
        <time>2021-11-13T15:21:17.626Z</time>
      </trkpt>
      <trkpt lat="47.555215" lon="7.763047">
        <ele>277.215333</ele>
        <time>2021-11-13T15:21:22.618Z</time>
      </trkpt>
      <trkpt lat="47.555178" lon="7.762514">
        <ele>277.250562</ele>
        <time>2021-11-13T15:21:28.037Z</time>
      </trkpt>
      <trkpt lat="47.555160" lon="7.762248">
        <ele>277.268139</ele>
        <time>2021-11-13T15:21:30.596Z</time>
      </trkpt>
      <trkpt lat="47.555151" lon="7.762144">
        <ele>277.272350</ele>
        <time>2021-11-13T15:21:31.632Z</time>
      </trkpt>
      <trkpt lat="47.555137" lon="7.761950">
        <ele>277.209333</ele>
        <time>2021-11-13T15:21:33.532Z</time>
      </trkpt>
      <trkpt lat="47.555021" lon="7.760351">
        <ele>276.689897</ele>
        <time>2021-11-13T15:21:48.196Z</time>
      </trkpt>
      <trkpt lat="47.555025" lon="7.760185">
        <ele>276.636247</ele>
        <time>2021-11-13T15:21:49.600Z</time>
      </trkpt>
      <trkpt lat="47.555058" lon="7.757801">
        <ele>275.433148</ele>
        <time>2021-11-13T15:22:09.749Z</time>
      </trkpt>
      <trkpt lat="47.555069" lon="7.757021">
        <ele>274.981975</ele>
        <time>2021-11-13T15:22:16.279Z</time>
      </trkpt>
      <trkpt lat="47.555067" lon="7.756625">
        <ele>274.769573</ele>
        <time>2021-11-13T15:22:19.607Z</time>
      </trkpt>
      <trkpt lat="47.555039" lon="7.756348">
        <ele>274.630099</ele>
        <time>2021-11-13T15:22:21.903Z</time>
      </trkpt>
      <trkpt lat="47.554914" lon="7.755680">
        <ele>274.284910</ele>
        <time>2021-11-13T15:22:27.759Z</time>
      </trkpt>
      <trkpt lat="47.554781" lon="7.755306">
        <ele>274.074399</ele>
        <time>2021-11-13T15:22:31.376Z</time>
      </trkpt>
      <trkpt lat="47.554777" lon="7.755293">
        <ele>274.067284</ele>
        <time>2021-11-13T15:22:31.490Z</time>
      </trkpt>
      <trkpt lat="47.554452" lon="7.754585">
        <ele>273.640900</ele>
        <time>2021-11-13T15:22:38.990Z</time>
      </trkpt>
      <trkpt lat="47.554347" lon="7.754347">
        <ele>273.531054</ele>
        <time>2021-11-13T15:22:41.490Z</time>
      </trkpt>
      <trkpt lat="47.554275" lon="7.754160">
        <ele>273.497687</ele>
        <time>2021-11-13T15:22:43.459Z</time>
      </trkpt>
      <trkpt lat="47.554176" lon="7.753798">
        <ele>273.437150</ele>
        <time>2021-11-13T15:22:47.032Z</time>
      </trkpt>
      <trkpt lat="47.554122" lon="7.753011">
        <ele>273.314545</ele>
        <time>2021-11-13T15:22:54.410Z</time>
      </trkpt>
      <trkpt lat="47.554075" lon="7.752001">
        <ele>273.157635</ele>
        <time>2021-11-13T15:23:04.288Z</time>
      </trkpt>
      <trkpt lat="47.554273" lon="7.750704">
        <ele>273.336174</ele>
        <time>2021-11-13T15:23:18.001Z</time>
      </trkpt>
      <trkpt lat="47.554302" lon="7.750411">
        <ele>273.387916</ele>
        <time>2021-11-13T15:23:21.113Z</time>
      </trkpt>
      <trkpt lat="47.554319" lon="7.750058">
        <ele>273.449750</ele>
        <time>2021-11-13T15:23:24.877Z</time>
      </trkpt>
      <trkpt lat="47.554786" lon="7.747259">
        <ele>274.350588</ele>
        <time>2021-11-13T15:23:57.686Z</time>
      </trkpt>
      <trkpt lat="47.554853" lon="7.745965">
        <ele>274.729108</ele>
        <time>2021-11-13T15:24:13.128Z</time>
      </trkpt>
      <trkpt lat="47.554871" lon="7.745667">
        <ele>274.794278</ele>
        <time>2021-11-13T15:24:16.520Z</time>
      </trkpt>
      <trkpt lat="47.554910" lon="7.745450">
        <ele>274.843193</ele>
        <time>2021-11-13T15:24:18.978Z</time>
      </trkpt>
      <trkpt lat="47.555091" lon="7.744936">
        <ele>274.969477</ele>
        <time>2021-11-13T15:24:25.209Z</time>
      </trkpt>
      <trkpt lat="47.555182" lon="7.744738">
        <ele>275.021656</ele>
        <time>2021-11-13T15:24:27.745Z</time>
      </trkpt>
      <trkpt lat="47.555226" lon="7.744660">
        <ele>275.043800</ele>
        <time>2021-11-13T15:24:28.917Z</time>
      </trkpt>
      <trkpt lat="47.555416" lon="7.744384">
        <ele>275.129676</ele>
        <time>2021-11-13T15:24:32.843Z</time>
      </trkpt>
      <trkpt lat="47.555572" lon="7.744136">
        <ele>275.157890</ele>
        <time>2021-11-13T15:24:36.270Z</time>
      </trkpt>
      <trkpt lat="47.555722" lon="7.743661">
        <ele>275.139450</ele>
        <time>2021-11-13T15:24:41.440Z</time>
      </trkpt>
      <trkpt lat="47.555842" lon="7.742820">
        <ele>275.109224</ele>
        <time>2021-11-13T15:24:49.596Z</time>
      </trkpt>
      <trkpt lat="47.556109" lon="7.741529">
        <ele>275.160746</ele>
        <time>2021-11-13T15:25:02.491Z</time>
      </trkpt>
      <trkpt lat="47.556198" lon="7.740232">
        <ele>275.632202</ele>
        <time>2021-11-13T15:25:17.830Z</time>
      </trkpt>
      <trkpt lat="47.556465" lon="7.739495">
        <ele>275.934699</ele>
        <time>2021-11-13T15:25:27.589Z</time>
      </trkpt>
      <trkpt lat="47.556492" lon="7.739412">
        <ele>275.968020</ele>
        <time>2021-11-13T15:25:28.907Z</time>
      </trkpt>
      <trkpt lat="47.556461" lon="7.739007">
        <ele>276.177788</ele>
        <time>2021-11-13T15:25:33.556Z</time>
      </trkpt>
      <trkpt lat="47.556427" lon="7.738558">
        <ele>276.466861</ele>
        <time>2021-11-13T15:25:39.330Z</time>
      </trkpt>
      <trkpt lat="47.556423" lon="7.738362">
        <ele>276.592319</ele>
        <time>2021-11-13T15:25:41.974Z</time>
      </trkpt>
      <trkpt lat="47.556422" lon="7.737881">
        <ele>276.900064</ele>
        <time>2021-11-13T15:25:48.137Z</time>
      </trkpt>
      <trkpt lat="47.556447" lon="7.737561">
        <ele>277.106167</ele>
        <time>2021-11-13T15:25:52.125Z</time>
      </trkpt>
      <trkpt lat="47.556486" lon="7.737232">
        <ele>277.319883</ele>
        <time>2021-11-13T15:25:56.623Z</time>
      </trkpt>
      <trkpt lat="47.556578" lon="7.736762">
        <ele>277.632982</ele>
        <time>2021-11-13T15:26:02.705Z</time>
      </trkpt>
      <trkpt lat="47.556614" lon="7.736602">
        <ele>277.740606</ele>
        <time>2021-11-13T15:26:04.646Z</time>
      </trkpt>
      <trkpt lat="47.556658" lon="7.736525">
        <ele>277.791724</ele>
        <time>2021-11-13T15:26:05.862Z</time>
      </trkpt>
      <trkpt lat="47.556652" lon="7.736450">
        <ele>277.829989</ele>
        <time>2021-11-13T15:26:07.082Z</time>
      </trkpt>
      <trkpt lat="47.556909" lon="7.735277">
        <ele>278.454822</ele>
        <time>2021-11-13T15:26:21.682Z</time>
      </trkpt>
      <trkpt lat="47.556947" lon="7.734300">
        <ele>278.950637</ele>
        <time>2021-11-13T15:26:33.930Z</time>
      </trkpt>
      <trkpt lat="47.556910" lon="7.733982">
        <ele>279.106568</ele>
        <time>2021-11-13T15:26:37.561Z</time>
      </trkpt>
      <trkpt lat="47.556872" lon="7.733723">
        <ele>279.199039</ele>
        <time>2021-11-13T15:26:40.524Z</time>
      </trkpt>
      <trkpt lat="47.556784" lon="7.733151">
        <ele>279.403718</ele>
        <time>2021-11-13T15:26:47.029Z</time>
      </trkpt>
      <trkpt lat="47.556773" lon="7.733074">
        <ele>279.431177</ele>
        <time>2021-11-13T15:26:47.955Z</time>
      </trkpt>
      <trkpt lat="47.556704" lon="7.732597">
        <ele>279.601374</ele>
        <time>2021-11-13T15:26:53.671Z</time>
      </trkpt>
      <trkpt lat="47.556695" lon="7.732526">
        <ele>279.626577</ele>
        <time>2021-11-13T15:26:54.540Z</time>
      </trkpt>
      <trkpt lat="47.556684" lon="7.732421">
        <ele>279.663649</ele>
        <time>2021-11-13T15:26:55.730Z</time>
      </trkpt>
      <trkpt lat="47.556635" lon="7.731437">
        <ele>280.007882</ele>
        <time>2021-11-13T15:27:07.143Z</time>
      </trkpt>
      <trkpt lat="47.556599" lon="7.731204">
        <ele>279.999566</ele>
        <time>2021-11-13T15:27:09.657Z</time>
      </trkpt>
      <trkpt lat="47.556427" lon="7.730477">
        <ele>279.923997</ele>
        <time>2021-11-13T15:27:18.046Z</time>
      </trkpt>
      <trkpt lat="47.556357" lon="7.730174">
        <ele>279.892581</ele>
        <time>2021-11-13T15:27:20.914Z</time>
      </trkpt>
      <trkpt lat="47.556305" lon="7.729996">
        <ele>279.873555</ele>
        <time>2021-11-13T15:27:23.000Z</time>
      </trkpt>
      <trkpt lat="47.556229" lon="7.729846">
        <ele>279.855155</ele>
        <time>2021-11-13T15:27:24.704Z</time>
      </trkpt>
      <trkpt lat="47.556120" lon="7.729737">
        <ele>279.836042</ele>
        <time>2021-11-13T15:27:26.473Z</time>
      </trkpt>
      <trkpt lat="47.555982" lon="7.729642">
        <ele>279.813924</ele>
        <time>2021-11-13T15:27:28.795Z</time>
      </trkpt>
      <trkpt lat="47.555310" lon="7.729256">
        <ele>279.411340</ele>
        <time>2021-11-13T15:27:38.014Z</time>
      </trkpt>
      <trkpt lat="47.555159" lon="7.729171">
        <ele>279.245418</ele>
        <time>2021-11-13T15:27:39.833Z</time>
      </trkpt>
      <trkpt lat="47.554645" lon="7.728883">
        <ele>278.680951</ele>
        <time>2021-11-13T15:27:46.523Z</time>
      </trkpt>
      <trkpt lat="47.554503" lon="7.728787">
        <ele>278.520624</ele>
        <time>2021-11-13T15:27:48.273Z</time>
      </trkpt>
      <trkpt lat="47.554550" lon="7.728615">
        <ele>278.391983</ele>
        <time>2021-11-13T15:27:49.913Z</time>
      </trkpt>
      <trkpt lat="47.554499" lon="7.728580">
        <ele>278.334250</ele>
        <time>2021-11-13T15:27:50.580Z</time>
      </trkpt>
      <trkpt lat="47.554367" lon="7.728585">
        <ele>278.198616</ele>
        <time>2021-11-13T15:27:52.101Z</time>
      </trkpt>
      <trkpt lat="47.554136" lon="7.728404">
        <ele>277.930199</ele>
        <time>2021-11-13T15:27:55.354Z</time>
      </trkpt>
      <trkpt lat="47.553838" lon="7.728124">
        <ele>277.651936</ele>
        <time>2021-11-13T15:27:59.573Z</time>
      </trkpt>
      <trkpt lat="47.553253" lon="7.727551">
        <ele>277.108447</ele>
        <time>2021-11-13T15:28:08.342Z</time>
      </trkpt>
      <trkpt lat="47.553188" lon="7.727446">
        <ele>277.033922</ele>
        <time>2021-11-13T15:28:09.615Z</time>
      </trkpt>
      <trkpt lat="47.553028" lon="7.727114">
        <ele>276.820538</ele>
        <time>2021-11-13T15:28:13.287Z</time>
      </trkpt>
      <trkpt lat="47.552910" lon="7.726801">
        <ele>276.633010</ele>
        <time>2021-11-13T15:28:16.349Z</time>
      </trkpt>
      <trkpt lat="47.552325" lon="7.725243">
        <ele>276.013164</ele>
        <time>2021-11-13T15:28:32.122Z</time>
      </trkpt>
      <trkpt lat="47.552212" lon="7.724918">
        <ele>275.895194</ele>
        <time>2021-11-13T15:28:35.263Z</time>
      </trkpt>
      <trkpt lat="47.551732" lon="7.722977">
        <ele>275.676506</ele>
        <time>2021-11-13T15:28:55.188Z</time>
      </trkpt>
      <trkpt lat="47.551616" lon="7.722641">
        <ele>275.682108</ele>
        <time>2021-11-13T15:28:59.086Z</time>
      </trkpt>
      <trkpt lat="47.551366" lon="7.721998">
        <ele>275.693123</ele>
        <time>2021-11-13T15:29:06.990Z</time>
      </trkpt>
      <trkpt lat="47.551208" lon="7.721582">
        <ele>275.745312</ele>
        <time>2021-11-13T15:29:12.061Z</time>
      </trkpt>
      <trkpt lat="47.551056" lon="7.721158">
        <ele>275.835655</ele>
        <time>2021-11-13T15:29:17.264Z</time>
      </trkpt>
      <trkpt lat="47.550965" lon="7.720874">
        <ele>275.894813</ele>
        <time>2021-11-13T15:29:20.635Z</time>
      </trkpt>
      <trkpt lat="47.550910" lon="7.720574">
        <ele>275.953311</ele>
        <time>2021-11-13T15:29:24.141Z</time>
      </trkpt>
      <trkpt lat="47.550953" lon="7.719585">
        <ele>276.139802</ele>
        <time>2021-11-13T15:29:34.694Z</time>
      </trkpt>
      <trkpt lat="47.550904" lon="7.719258">
        <ele>276.203236</ele>
        <time>2021-11-13T15:29:38.103Z</time>
      </trkpt>
      <trkpt lat="47.550823" lon="7.718986">
        <ele>276.263667</ele>
        <time>2021-11-13T15:29:41.214Z</time>
      </trkpt>
      <trkpt lat="47.550264" lon="7.717130">
        <ele>276.676790</ele>
        <time>2021-11-13T15:30:03.273Z</time>
      </trkpt>
      <trkpt lat="47.550088" lon="7.716261">
        <ele>276.735673</ele>
        <time>2021-11-13T15:30:13.706Z</time>
      </trkpt>
      <trkpt lat="47.550065" lon="7.716105">
        <ele>276.734651</ele>
        <time>2021-11-13T15:30:15.427Z</time>
      </trkpt>
      <trkpt lat="47.550037" lon="7.715872">
        <ele>276.733137</ele>
        <time>2021-11-13T15:30:17.836Z</time>
      </trkpt>
      <trkpt lat="47.549978" lon="7.715484">
        <ele>276.730592</ele>
        <time>2021-11-13T15:30:21.808Z</time>
      </trkpt>
      <trkpt lat="47.549908" lon="7.715097">
        <ele>276.728029</ele>
        <time>2021-11-13T15:30:25.779Z</time>
      </trkpt>
      <trkpt lat="47.549644" lon="7.714162">
        <ele>276.650050</ele>
        <time>2021-11-13T15:30:35.202Z</time>
      </trkpt>
      <trkpt lat="47.549551" lon="7.713795">
        <ele>276.450352</ele>
        <time>2021-11-13T15:30:38.641Z</time>
      </trkpt>
      <trkpt lat="47.548964" lon="7.712473">
        <ele>275.644242</ele>
        <time>2021-11-13T15:30:51.794Z</time>
      </trkpt>
      <trkpt lat="47.548849" lon="7.712100">
        <ele>275.435342</ele>
        <time>2021-11-13T15:30:55.156Z</time>
      </trkpt>
      <trkpt lat="47.548718" lon="7.711675">
        <ele>275.291740</ele>
        <time>2021-11-13T15:30:59.105Z</time>
      </trkpt>
      <trkpt lat="47.547969" lon="7.708286">
        <ele>274.420390</ele>
        <time>2021-11-13T15:31:33.153Z</time>
      </trkpt>
      <trkpt lat="47.547782" lon="7.706642">
        <ele>273.882606</ele>
        <time>2021-11-13T15:31:47.864Z</time>
      </trkpt>
      <trkpt lat="47.547770" lon="7.706493">
        <ele>273.800238</ele>
        <time>2021-11-13T15:31:49.153Z</time>
      </trkpt>
      <trkpt lat="47.547774" lon="7.706385">
        <ele>273.740867</ele>
        <time>2021-11-13T15:31:50.052Z</time>
      </trkpt>
      <trkpt lat="47.547779" lon="7.706281">
        <ele>273.683635</ele>
        <time>2021-11-13T15:31:50.938Z</time>
      </trkpt>
      <trkpt lat="47.547767" lon="7.706177">
        <ele>273.625721</ele>
        <time>2021-11-13T15:31:51.757Z</time>
      </trkpt>
      <trkpt lat="47.547718" lon="7.706083">
        <ele>273.560527</ele>
        <time>2021-11-13T15:31:52.707Z</time>
      </trkpt>
      <trkpt lat="47.547645" lon="7.706169">
        <ele>273.484680</ele>
        <time>2021-11-13T15:31:54.426Z</time>
      </trkpt>
      <trkpt lat="47.547565" lon="7.706271">
        <ele>273.398847</ele>
        <time>2021-11-13T15:31:56.293Z</time>
      </trkpt>
      <trkpt lat="47.547511" lon="7.706195">
        <ele>273.338276</ele>
        <time>2021-11-13T15:31:57.164Z</time>
      </trkpt>
      <trkpt lat="47.547456" lon="7.706117">
        <ele>273.276359</ele>
        <time>2021-11-13T15:31:58.055Z</time>
      </trkpt>
      <trkpt lat="47.547338" lon="7.705979">
        <ele>273.154103</ele>
        <time>2021-11-13T15:31:59.982Z</time>
      </trkpt>
      <trkpt lat="47.547245" lon="7.705830">
        <ele>273.042706</ele>
        <time>2021-11-13T15:32:02.324Z</time>
      </trkpt>
      <trkpt lat="47.547175" lon="7.705728">
        <ele>272.962860</ele>
        <time>2021-11-13T15:32:04.000Z</time>
      </trkpt>
      <trkpt lat="47.547182" lon="7.705657">
        <ele>272.923473</ele>
        <time>2021-11-13T15:32:04.897Z</time>
      </trkpt>
      <trkpt lat="47.547163" lon="7.705587">
        <ele>272.882059</ele>
        <time>2021-11-13T15:32:05.800Z</time>
      </trkpt>
      <trkpt lat="47.547142" lon="7.705507">
        <ele>272.834942</ele>
        <time>2021-11-13T15:32:06.831Z</time>
      </trkpt>
      <trkpt lat="47.547132" lon="7.705492">
        <ele>272.823369</ele>
        <time>2021-11-13T15:32:07.074Z</time>
      </trkpt>
      <trkpt lat="47.547127" lon="7.705322">
        <ele>272.729964</ele>
        <time>2021-11-13T15:32:09.011Z</time>
      </trkpt>
      <trkpt lat="47.547129" lon="7.705131">
        <ele>272.625109</ele>
        <time>2021-11-13T15:32:11.285Z</time>
      </trkpt>
      <trkpt lat="47.547159" lon="7.704989">
        <ele>272.546969</ele>
        <time>2021-11-13T15:32:12.544Z</time>
      </trkpt>
      <trkpt lat="47.547574" lon="7.702825">
        <ele>272.353745</ele>
        <time>2021-11-13T15:32:33.892Z</time>
      </trkpt>
      <trkpt lat="47.547586" lon="7.702759">
        <ele>272.347874</ele>
        <time>2021-11-13T15:32:34.934Z</time>
      </trkpt>
      <trkpt lat="47.547718" lon="7.701632">
        <ele>272.629016</ele>
        <time>2021-11-13T15:32:48.102Z</time>
      </trkpt>
      <trkpt lat="47.547846" lon="7.699539">
        <ele>273.488099</ele>
        <time>2021-11-13T15:33:12.358Z</time>
      </trkpt>
      <trkpt lat="47.547900" lon="7.699136">
        <ele>273.729549</ele>
        <time>2021-11-13T15:33:17.405Z</time>
      </trkpt>
      <trkpt lat="47.547903" lon="7.699114">
        <ele>273.742739</ele>
        <time>2021-11-13T15:33:17.647Z</time>
      </trkpt>
      <trkpt lat="47.547913" lon="7.699038">
        <ele>273.788243</ele>
        <time>2021-11-13T15:33:18.679Z</time>
      </trkpt>
      <trkpt lat="47.547970" lon="7.698727">
        <ele>273.977624</ele>
        <time>2021-11-13T15:33:22.690Z</time>
      </trkpt>
      <trkpt lat="47.547999" lon="7.698586">
        <ele>274.064247</ele>
        <time>2021-11-13T15:33:24.463Z</time>
      </trkpt>
      <trkpt lat="47.548069" lon="7.698253">
        <ele>274.269209</ele>
        <time>2021-11-13T15:33:28.908Z</time>
      </trkpt>
      <trkpt lat="47.548224" lon="7.697419">
        <ele>274.777560</ele>
        <time>2021-11-13T15:33:39.940Z</time>
      </trkpt>
      <trkpt lat="47.548314" lon="7.696826">
        <ele>274.981101</ele>
        <time>2021-11-13T15:33:47.593Z</time>
      </trkpt>
      <trkpt lat="47.548339" lon="7.696589">
        <ele>275.024776</ele>
        <time>2021-11-13T15:33:50.692Z</time>
      </trkpt>
      <trkpt lat="47.548389" lon="7.696070">
        <ele>275.120230</ele>
        <time>2021-11-13T15:33:57.097Z</time>
      </trkpt>
      <trkpt lat="47.548417" lon="7.695616">
        <ele>275.203235</ele>
        <time>2021-11-13T15:34:01.805Z</time>
      </trkpt>
      <trkpt lat="47.548427" lon="7.695434">
        <ele>275.236482</ele>
        <time>2021-11-13T15:34:03.701Z</time>
      </trkpt>
      <trkpt lat="47.548452" lon="7.695145">
        <ele>275.289531</ele>
        <time>2021-11-13T15:34:06.335Z</time>
      </trkpt>
      <trkpt lat="47.548591" lon="7.694324">
        <ele>275.401762</ele>
        <time>2021-11-13T15:34:13.871Z</time>
      </trkpt>
      <trkpt lat="47.548638" lon="7.694044">
        <ele>275.406806</ele>
        <time>2021-11-13T15:34:16.351Z</time>
      </trkpt>
      <trkpt lat="47.548782" lon="7.693465">
        <ele>275.417593</ele>
        <time>2021-11-13T15:34:22.187Z</time>
      </trkpt>
      <trkpt lat="47.548974" lon="7.693002">
        <ele>275.427093</ele>
        <time>2021-11-13T15:34:27.670Z</time>
      </trkpt>
      <trkpt lat="47.549059" lon="7.692848">
        <ele>275.430571</ele>
        <time>2021-11-13T15:34:29.703Z</time>
      </trkpt>
      <trkpt lat="47.549216" lon="7.692540">
        <ele>275.437318</ele>
        <time>2021-11-13T15:34:34.088Z</time>
      </trkpt>
      <trkpt lat="47.549253" lon="7.692474">
        <ele>275.438818</ele>
        <time>2021-11-13T15:34:35.034Z</time>
      </trkpt>
      <trkpt lat="47.549325" lon="7.692315">
        <ele>275.442165</ele>
        <time>2021-11-13T15:34:36.984Z</time>
      </trkpt>
      <trkpt lat="47.549685" lon="7.691459">
        <ele>276.876454</ele>
        <time>2021-11-13T15:34:49.348Z</time>
      </trkpt>
      <trkpt lat="47.549695" lon="7.691435">
        <ele>276.920885</ele>
        <time>2021-11-13T15:34:49.695Z</time>
      </trkpt>
      <trkpt lat="47.549797" lon="7.691193">
        <ele>277.370339</ele>
        <time>2021-11-13T15:34:53.958Z</time>
      </trkpt>
      <trkpt lat="47.550112" lon="7.690714">
        <ele>278.423857</ele>
        <time>2021-11-13T15:35:04.861Z</time>
      </trkpt>
      <trkpt lat="47.550476" lon="7.690324">
        <ele>279.472289</ele>
        <time>2021-11-13T15:35:17.199Z</time>
      </trkpt>
      <trkpt lat="47.550764" lon="7.690746">
        <ele>282.423473</ele>
        <time>2021-11-13T15:35:31.930Z</time>
      </trkpt>
      <trkpt lat="47.551000" lon="7.691170">
        <ele>285.527596</ele>
        <time>2021-11-13T15:35:47.812Z</time>
      </trkpt>
      <trkpt lat="47.551182" lon="7.691473">
        <ele>287.818564</ele>
        <time>2021-11-13T15:36:00.138Z</time>
      </trkpt>
      <trkpt lat="47.551434" lon="7.691862">
        <ele>290.863977</ele>
        <time>2021-11-13T15:36:17.257Z</time>
      </trkpt>
      <trkpt lat="47.551568" lon="7.692024">
        <ele>292.311278</ele>
        <time>2021-11-13T15:36:26.125Z</time>
      </trkpt>
      <trkpt lat="47.551619" lon="7.692088">
        <ele>292.870577</ele>
        <time>2021-11-13T15:36:29.454Z</time>
      </trkpt>
      <trkpt lat="47.551995" lon="7.692291">
        <ele>297.648344</ele>
        <time>2021-11-13T15:36:57.589Z</time>
      </trkpt>
      <trkpt lat="47.552195" lon="7.692398">
        <ele>301.094208</ele>
        <time>2021-11-13T15:37:15.029Z</time>
      </trkpt>
      <trkpt lat="47.553059" lon="7.692566">
        <ele>315.215597</ele>
        <time>2021-11-13T15:38:26.628Z</time>
      </trkpt>
      <trkpt lat="47.553101" lon="7.692582">
        <ele>315.918353</ele>
        <time>2021-11-13T15:38:31.243Z</time>
      </trkpt>
      <trkpt lat="47.553281" lon="7.692750">
        <ele>319.365769</ele>
        <time>2021-11-13T15:38:50.176Z</time>
      </trkpt>
      <trkpt lat="47.553606" lon="7.693126">
        <ele>325.804880</ele>
        <time>2021-11-13T15:39:23.331Z</time>
      </trkpt>
      <trkpt lat="47.554028" lon="7.693827">
        <ele>334.947554</ele>
        <time>2021-11-13T15:40:15.493Z</time>
      </trkpt>
      <trkpt lat="47.554245" lon="7.694182">
        <ele>339.609293</ele>
        <time>2021-11-13T15:40:41.226Z</time>
      </trkpt>
      <trkpt lat="47.554384" lon="7.694448">
        <ele>342.883588</ele>
        <time>2021-11-13T15:40:56.457Z</time>
      </trkpt>
      <trkpt lat="47.554572" lon="7.694665">
        <ele>346.320367</ele>
        <time>2021-11-13T15:41:10.255Z</time>
      </trkpt>
      <trkpt lat="47.554864" lon="7.694875">
        <ele>350.471218</ele>
        <time>2021-11-13T15:41:29.473Z</time>
      </trkpt>
      <trkpt lat="47.555130" lon="7.694964">
        <ele>352.696833</ele>
        <time>2021-11-13T15:41:43.869Z</time>
      </trkpt>
      <trkpt lat="47.556836" lon="7.695079">
        <ele>366.592426</ele>
        <time>2021-11-13T15:42:58.976Z</time>
      </trkpt>
      <trkpt lat="47.558618" lon="7.694872">
        <ele>381.288572</ele>
        <time>2021-11-13T15:44:23.397Z</time>
      </trkpt>
      <trkpt lat="47.559078" lon="7.694904">
        <ele>385.680059</ele>
        <time>2021-11-13T15:44:47.276Z</time>
      </trkpt>
      <trkpt lat="47.560012" lon="7.695119">
        <ele>394.693698</ele>
        <time>2021-11-13T15:45:39.405Z</time>
      </trkpt>
      <trkpt lat="47.561053" lon="7.695338">
        <ele>406.076300</ele>
        <time>2021-11-13T15:46:38.993Z</time>
      </trkpt>
      <trkpt lat="47.561669" lon="7.695498">
        <ele>412.968079</ele>
        <time>2021-11-13T15:47:16.654Z</time>
      </trkpt>
      <trkpt lat="47.562128" lon="7.695702">
        <ele>418.635710</ele>
        <time>2021-11-13T15:47:46.675Z</time>
      </trkpt>
      <trkpt lat="47.562620" lon="7.695953">
        <ele>425.285868</ele>
        <time>2021-11-13T15:48:20.497Z</time>
      </trkpt>
      <trkpt lat="47.563259" lon="7.696241">
        <ele>433.821924</ele>
        <time>2021-11-13T15:49:04.741Z</time>
      </trkpt>
      <trkpt lat="47.565173" lon="7.697132">
        <ele>460.214318</ele>
        <time>2021-11-13T15:51:24.583Z</time>
      </trkpt>
      <trkpt lat="47.565744" lon="7.697318">
        <ele>466.568728</ele>
        <time>2021-11-13T15:52:00.672Z</time>
      </trkpt>
      <trkpt lat="47.566435" lon="7.697358">
        <ele>473.335536</ele>
        <time>2021-11-13T15:52:39.190Z</time>
      </trkpt>
      <trkpt lat="47.567166" lon="7.697504">
        <ele>480.429163</ele>
        <time>2021-11-13T15:53:14.855Z</time>
      </trkpt>
      <trkpt lat="47.567964" lon="7.697996">
        <ele>485.538072</ele>
        <time>2021-11-13T15:53:49.941Z</time>
      </trkpt>
      <trkpt lat="47.568602" lon="7.698487">
        <ele>489.787447</ele>
        <time>2021-11-13T15:54:15.441Z</time>
      </trkpt>
      <trkpt lat="47.569093" lon="7.699112">
        <ele>492.211202</ele>
        <time>2021-11-13T15:54:36.475Z</time>
      </trkpt>
      <trkpt lat="47.569386" lon="7.699378">
        <ele>493.203525</ele>
        <time>2021-11-13T15:54:46.272Z</time>
      </trkpt>
      <trkpt lat="47.570278" lon="7.699755">
        <ele>495.882355</ele>
        <time>2021-11-13T15:55:08.338Z</time>
      </trkpt>
      <trkpt lat="47.571068" lon="7.700068">
        <ele>495.908575</ele>
        <time>2021-11-13T15:55:22.902Z</time>
      </trkpt>
      <trkpt lat="47.571273" lon="7.700147">
        <ele>495.864264</ele>
        <time>2021-11-13T15:55:25.905Z</time>
      </trkpt>
      <trkpt lat="47.571718" lon="7.700291">
        <ele>495.768979</ele>
        <time>2021-11-13T15:55:31.576Z</time>
      </trkpt>
      <trkpt lat="47.572597" lon="7.700557">
        <ele>494.576247</ele>
        <time>2021-11-13T15:55:41.548Z</time>
      </trkpt>
      <trkpt lat="47.574305" lon="7.701458">
        <ele>490.696737</ele>
        <time>2021-11-13T15:56:00.905Z</time>
      </trkpt>
      <trkpt lat="47.574763" lon="7.701603">
        <ele>489.697630</ele>
        <time>2021-11-13T15:56:05.964Z</time>
      </trkpt>
      <trkpt lat="47.574915" lon="7.701638">
        <ele>489.369474</ele>
        <time>2021-11-13T15:56:07.599Z</time>
      </trkpt>
      <trkpt lat="47.575087" lon="7.701638">
        <ele>489.002539</ele>
        <time>2021-11-13T15:56:09.508Z</time>
      </trkpt>
      <trkpt lat="47.575365" lon="7.701553">
        <ele>488.396986</ele>
        <time>2021-11-13T15:56:12.639Z</time>
      </trkpt>
      <trkpt lat="47.575795" lon="7.701398">
        <ele>487.413005</ele>
        <time>2021-11-13T15:56:17.620Z</time>
      </trkpt>
      <trkpt lat="47.576967" lon="7.700886">
        <ele>484.615938</ele>
        <time>2021-11-13T15:56:31.454Z</time>
      </trkpt>
      <trkpt lat="47.577347" lon="7.700798">
        <ele>483.498499</ele>
        <time>2021-11-13T15:56:35.262Z</time>
      </trkpt>
      <trkpt lat="47.578079" lon="7.700973">
        <ele>479.047880</ele>
        <time>2021-11-13T15:56:42.276Z</time>
      </trkpt>
      <trkpt lat="47.578229" lon="7.701002">
        <ele>478.139877</ele>
        <time>2021-11-13T15:56:43.667Z</time>
      </trkpt>
      <trkpt lat="47.578727" lon="7.701081">
        <ele>475.133556</ele>
        <time>2021-11-13T15:56:48.175Z</time>
      </trkpt>
      <trkpt lat="47.579420" lon="7.701212">
        <ele>469.527975</ele>
        <time>2021-11-13T15:56:54.353Z</time>
      </trkpt>
      <trkpt lat="47.580164" lon="7.701066">
        <ele>462.057488</ele>
        <time>2021-11-13T15:57:00.801Z</time>
      </trkpt>
      <trkpt lat="47.580855" lon="7.700494">
        <ele>453.951341</ele>
        <time>2021-11-13T15:57:07.557Z</time>
      </trkpt>
      <trkpt lat="47.581097" lon="7.700270">
        <ele>450.464593</ele>
        <time>2021-11-13T15:57:09.977Z</time>
      </trkpt>
      <trkpt lat="47.581867" lon="7.699553">
        <ele>439.351728</ele>
        <time>2021-11-13T15:57:17.635Z</time>
      </trkpt>
      <trkpt lat="47.582483" lon="7.699048">
        <ele>431.144793</ele>
        <time>2021-11-13T15:57:23.550Z</time>
      </trkpt>
      <trkpt lat="47.582704" lon="7.698936">
        <ele>428.751558</ele>
        <time>2021-11-13T15:57:25.528Z</time>
      </trkpt>
      <trkpt lat="47.583204" lon="7.698814">
        <ele>423.559155</ele>
        <time>2021-11-13T15:57:29.866Z</time>
      </trkpt>
      <trkpt lat="47.584483" lon="7.698786">
        <ele>412.032309</ele>
        <time>2021-11-13T15:57:41.006Z</time>
      </trkpt>
      <trkpt lat="47.584998" lon="7.698675">
        <ele>408.652030</ele>
        <time>2021-11-13T15:57:45.773Z</time>
      </trkpt>
      <trkpt lat="47.585351" lon="7.698544">
        <ele>406.288427</ele>
        <time>2021-11-13T15:57:49.171Z</time>
      </trkpt>
      <trkpt lat="47.585826" lon="7.698379">
        <ele>403.119575</ele>
        <time>2021-11-13T15:57:53.711Z</time>
      </trkpt>
      <trkpt lat="47.586792" lon="7.698373">
        <ele>399.496113</ele>
        <time>2021-11-13T15:58:02.873Z</time>
      </trkpt>
      <trkpt lat="47.587113" lon="7.698428">
        <ele>398.288844</ele>
        <time>2021-11-13T15:58:06.075Z</time>
      </trkpt>
      <trkpt lat="47.587440" lon="7.698475">
        <ele>397.061414</ele>
        <time>2021-11-13T15:58:09.459Z</time>
      </trkpt>
      <trkpt lat="47.587873" lon="7.698650">
        <ele>396.674654</ele>
        <time>2021-11-13T15:58:14.824Z</time>
      </trkpt>
      <trkpt lat="47.588089" lon="7.698812">
        <ele>396.959264</ele>
        <time>2021-11-13T15:58:18.135Z</time>
      </trkpt>
      <trkpt lat="47.588335" lon="7.698996">
        <ele>397.283223</ele>
        <time>2021-11-13T15:58:22.453Z</time>
      </trkpt>
      <trkpt lat="47.588613" lon="7.699146">
        <ele>397.631058</ele>
        <time>2021-11-13T15:58:28.148Z</time>
      </trkpt>
      <trkpt lat="47.588783" lon="7.699233">
        <ele>397.842510</ele>
        <time>2021-11-13T15:58:32.108Z</time>
      </trkpt>
      <trkpt lat="47.588820" lon="7.699251">
        <ele>397.888295</ele>
        <time>2021-11-13T15:58:33.124Z</time>
      </trkpt>
      <trkpt lat="47.588888" lon="7.699285">
        <ele>397.972671</ele>
        <time>2021-11-13T15:58:34.948Z</time>
      </trkpt>
      <trkpt lat="47.589039" lon="7.699385">
        <ele>398.167117</ele>
        <time>2021-11-13T15:58:39.500Z</time>
      </trkpt>
      <trkpt lat="47.589187" lon="7.699499">
        <ele>398.363212</ele>
        <time>2021-11-13T15:58:44.572Z</time>
      </trkpt>
      <trkpt lat="47.589371" lon="7.699670">
        <ele>399.069471</ele>
        <time>2021-11-13T15:58:51.189Z</time>
      </trkpt>
      <trkpt lat="47.589386" lon="7.699686">
        <ele>399.162249</ele>
        <time>2021-11-13T15:58:51.848Z</time>
      </trkpt>
      <trkpt lat="47.589647" lon="7.699969">
        <ele>400.785743</ele>
        <time>2021-11-13T15:59:02.964Z</time>
      </trkpt>
      <trkpt lat="47.589999" lon="7.700344">
        <ele>402.962021</ele>
        <time>2021-11-13T15:59:18.336Z</time>
      </trkpt>
      <trkpt lat="47.590123" lon="7.700478">
        <ele>403.732430</ele>
        <time>2021-11-13T15:59:23.697Z</time>
      </trkpt>
      <trkpt lat="47.590145" lon="7.700501">
        <ele>403.867588</ele>
        <time>2021-11-13T15:59:24.636Z</time>
      </trkpt>
      <trkpt lat="47.590412" lon="7.700787">
        <ele>405.521415</ele>
        <time>2021-11-13T15:59:36.197Z</time>
      </trkpt>
      <trkpt lat="47.591948" lon="7.701748">
        <ele>415.445665</ele>
        <time>2021-11-13T16:00:40.784Z</time>
      </trkpt>
      <trkpt lat="47.592206" lon="7.701983">
        <ele>417.336145</ele>
        <time>2021-11-13T16:00:53.715Z</time>
      </trkpt>
      <trkpt lat="47.592428" lon="7.702221">
        <ele>419.027726</ele>
        <time>2021-11-13T16:01:05.476Z</time>
      </trkpt>
      <trkpt lat="47.592647" lon="7.702455">
        <ele>420.609133</ele>
        <time>2021-11-13T16:01:18.048Z</time>
      </trkpt>
      <trkpt lat="47.594235" lon="7.704161">
        <ele>429.770233</ele>
        <time>2021-11-13T16:02:31.612Z</time>
      </trkpt>
      <trkpt lat="47.594812" lon="7.704586">
        <ele>430.428314</ele>
        <time>2021-11-13T16:02:40.226Z</time>
      </trkpt>
      <trkpt lat="47.594878" lon="7.704623">
        <ele>430.500387</ele>
        <time>2021-11-13T16:02:40.979Z</time>
      </trkpt>
      <trkpt lat="47.595305" lon="7.704858">
        <ele>430.965617</ele>
        <time>2021-11-13T16:02:46.117Z</time>
      </trkpt>
      <trkpt lat="47.595409" lon="7.704915">
        <ele>431.078871</ele>
        <time>2021-11-13T16:02:47.598Z</time>
      </trkpt>
      <trkpt lat="47.595742" lon="7.705100">
        <ele>431.321977</ele>
        <time>2021-11-13T16:02:52.038Z</time>
      </trkpt>
      <trkpt lat="47.595916" lon="7.705224">
        <ele>431.446526</ele>
        <time>2021-11-13T16:02:54.422Z</time>
      </trkpt>
      <trkpt lat="47.595976" lon="7.705266">
        <ele>431.489332</ele>
        <time>2021-11-13T16:02:55.234Z</time>
      </trkpt>
      <trkpt lat="47.596060" lon="7.705296">
        <ele>431.545075</ele>
        <time>2021-11-13T16:02:56.386Z</time>
      </trkpt>
      <trkpt lat="47.596102" lon="7.705292">
        <ele>431.572228</ele>
        <time>2021-11-13T16:02:57.154Z</time>
      </trkpt>
      <trkpt lat="47.596152" lon="7.705269">
        <ele>431.606003</ele>
        <time>2021-11-13T16:02:57.852Z</time>
      </trkpt>
      <trkpt lat="47.596200" lon="7.705242">
        <ele>431.639124</ele>
        <time>2021-11-13T16:02:58.429Z</time>
      </trkpt>
      <trkpt lat="47.596231" lon="7.705216">
        <ele>431.662101</ele>
        <time>2021-11-13T16:02:58.888Z</time>
      </trkpt>
      <trkpt lat="47.596262" lon="7.705184">
        <ele>431.686470</ele>
        <time>2021-11-13T16:02:59.364Z</time>
      </trkpt>
      <trkpt lat="47.596320" lon="7.705087">
        <ele>431.742872</ele>
        <time>2021-11-13T16:03:00.611Z</time>
      </trkpt>
      <trkpt lat="47.596477" lon="7.704865">
        <ele>431.882831</ele>
        <time>2021-11-13T16:03:04.075Z</time>
      </trkpt>
      <trkpt lat="47.596597" lon="7.704697">
        <ele>431.989302</ele>
        <time>2021-11-13T16:03:07.198Z</time>
      </trkpt>
      <trkpt lat="47.596693" lon="7.704611">
        <ele>432.061662</ele>
        <time>2021-11-13T16:03:09.672Z</time>
      </trkpt>
      <trkpt lat="47.596806" lon="7.704509">
        <ele>432.147009</ele>
        <time>2021-11-13T16:03:12.795Z</time>
      </trkpt>
      <trkpt lat="47.598120" lon="7.703272">
        <ele>437.789353</ele>
        <time>2021-11-13T16:04:02.831Z</time>
      </trkpt>
      <trkpt lat="47.598495" lon="7.703052">
        <ele>439.429155</ele>
        <time>2021-11-13T16:04:15.623Z</time>
      </trkpt>
      <trkpt lat="47.599072" lon="7.702862">
        <ele>441.828072</ele>
        <time>2021-11-13T16:04:33.862Z</time>
      </trkpt>
      <trkpt lat="47.599487" lon="7.702726">
        <ele>443.552846</ele>
        <time>2021-11-13T16:04:47.026Z</time>
      </trkpt>
      <trkpt lat="47.599670" lon="7.702666">
        <ele>444.313427</ele>
        <time>2021-11-13T16:04:53.028Z</time>
      </trkpt>
      <trkpt lat="47.599943" lon="7.702573">
        <ele>445.450163</ele>
        <time>2021-11-13T16:05:01.852Z</time>
      </trkpt>
      <trkpt lat="47.600141" lon="7.702518">
        <ele>446.267657</ele>
        <time>2021-11-13T16:05:07.845Z</time>
      </trkpt>
      <trkpt lat="47.600237" lon="7.702499">
        <ele>446.660696</ele>
        <time>2021-11-13T16:05:11.022Z</time>
      </trkpt>
      <trkpt lat="47.600343" lon="7.702497">
        <ele>447.039959</ele>
        <time>2021-11-13T16:05:14.226Z</time>
      </trkpt>
      <trkpt lat="47.600440" lon="7.702507">
        <ele>447.334864</ele>
        <time>2021-11-13T16:05:16.996Z</time>
      </trkpt>
      <trkpt lat="47.600490" lon="7.702513">
        <ele>447.487007</ele>
        <time>2021-11-13T16:05:18.549Z</time>
      </trkpt>
      <trkpt lat="47.600598" lon="7.702542">
        <ele>447.819890</ele>
        <time>2021-11-13T16:05:22.129Z</time>
      </trkpt>
      <trkpt lat="47.600662" lon="7.702560">
        <ele>448.017458</ele>
        <time>2021-11-13T16:05:24.072Z</time>
      </trkpt>
      <trkpt lat="47.600825" lon="7.702621">
        <ele>448.527324</ele>
        <time>2021-11-13T16:05:28.913Z</time>
      </trkpt>
      <trkpt lat="47.601068" lon="7.702719">
        <ele>449.291094</ele>
        <time>2021-11-13T16:05:36.678Z</time>
      </trkpt>
      <trkpt lat="47.602034" lon="7.703189">
        <ele>452.345871</ele>
        <time>2021-11-13T16:06:03.211Z</time>
      </trkpt>
      <trkpt lat="47.602741" lon="7.703349">
        <ele>452.448573</ele>
        <time>2021-11-13T16:06:16.218Z</time>
      </trkpt>
      <trkpt lat="47.603078" lon="7.703349">
        <ele>452.496967</ele>
        <time>2021-11-13T16:06:20.901Z</time>
      </trkpt>
      <trkpt lat="47.603346" lon="7.703327">
        <ele>452.535511</ele>
        <time>2021-11-13T16:06:24.348Z</time>
      </trkpt>
      <trkpt lat="47.603613" lon="7.703281">
        <ele>452.574111</ele>
        <time>2021-11-13T16:06:27.697Z</time>
      </trkpt>
      <trkpt lat="47.603759" lon="7.703238">
        <ele>452.595486</ele>
        <time>2021-11-13T16:06:29.573Z</time>
      </trkpt>
      <trkpt lat="47.603904" lon="7.703195">
        <ele>452.463154</ele>
        <time>2021-11-13T16:06:31.263Z</time>
      </trkpt>
      <trkpt lat="47.604601" lon="7.702884">
        <ele>451.420013</ele>
        <time>2021-11-13T16:06:39.641Z</time>
      </trkpt>
      <trkpt lat="47.605215" lon="7.702410">
        <ele>450.427986</ele>
        <time>2021-11-13T16:06:47.519Z</time>
      </trkpt>
      <trkpt lat="47.605980" lon="7.701437">
        <ele>449.062305</ele>
        <time>2021-11-13T16:06:59.355Z</time>
      </trkpt>
      <trkpt lat="47.606445" lon="7.700518">
        <ele>448.035869</ele>
        <time>2021-11-13T16:07:07.808Z</time>
      </trkpt>
      <trkpt lat="47.606660" lon="7.699943">
        <ele>447.329339</ele>
        <time>2021-11-13T16:07:14.130Z</time>
      </trkpt>
      <trkpt lat="47.606797" lon="7.699470">
        <ele>446.586004</ele>
        <time>2021-11-13T16:07:20.002Z</time>
      </trkpt>
      <trkpt lat="47.606926" lon="7.698832">
        <ele>445.624245</ele>
        <time>2021-11-13T16:07:25.761Z</time>
      </trkpt>
      <trkpt lat="47.606976" lon="7.698603">
        <ele>445.276680</ele>
        <time>2021-11-13T16:07:27.591Z</time>
      </trkpt>
      <trkpt lat="47.607050" lon="7.698259">
        <ele>444.755300</ele>
        <time>2021-11-13T16:07:30.043Z</time>
      </trkpt>
      <trkpt lat="47.607183" lon="7.697654">
        <ele>443.836464</ele>
        <time>2021-11-13T16:07:34.127Z</time>
      </trkpt>
      <trkpt lat="47.607241" lon="7.697434">
        <ele>443.033259</ele>
        <time>2021-11-13T16:07:35.572Z</time>
      </trkpt>
      <trkpt lat="47.607399" lon="7.696948">
        <ele>441.031348</ele>
        <time>2021-11-13T16:07:38.992Z</time>
      </trkpt>
      <trkpt lat="47.607510" lon="7.696656">
        <ele>439.787591</ele>
        <time>2021-11-13T16:07:41.191Z</time>
      </trkpt>
      <trkpt lat="47.607667" lon="7.696310">
        <ele>438.240152</ele>
        <time>2021-11-13T16:07:43.807Z</time>
      </trkpt>
      <trkpt lat="47.607767" lon="7.696111">
        <ele>437.319274</ele>
        <time>2021-11-13T16:07:45.370Z</time>
      </trkpt>
      <trkpt lat="47.607893" lon="7.696043">
        <ele>436.581393</ele>
        <time>2021-11-13T16:07:46.546Z</time>
      </trkpt>
      <trkpt lat="47.608067" lon="7.696005">
        <ele>435.613505</ele>
        <time>2021-11-13T16:07:48.233Z</time>
      </trkpt>
      <trkpt lat="47.608196" lon="7.696020">
        <ele>434.901410</ele>
        <time>2021-11-13T16:07:49.356Z</time>
      </trkpt>
      <trkpt lat="47.608482" lon="7.696406">
        <ele>433.709764</ele>
        <time>2021-11-13T16:07:52.849Z</time>
      </trkpt>
      <trkpt lat="47.608771" lon="7.696795">
        <ele>433.360777</ele>
        <time>2021-11-13T16:07:56.523Z</time>
      </trkpt>
      <trkpt lat="47.609041" lon="7.697226">
        <ele>433.006072</ele>
        <time>2021-11-13T16:08:00.953Z</time>
      </trkpt>
      <trkpt lat="47.609246" lon="7.697627">
        <ele>432.702669</ele>
        <time>2021-11-13T16:08:08.766Z</time>
      </trkpt>
      <trkpt lat="47.609485" lon="7.698298">
        <ele>432.489253</ele>
        <time>2021-11-13T16:08:23.508Z</time>
      </trkpt>
      <trkpt lat="47.609508" lon="7.698376">
        <ele>432.768869</ele>
        <time>2021-11-13T16:08:25.720Z</time>
      </trkpt>
      <trkpt lat="47.609551" lon="7.698537">
        <ele>433.337640</ele>
        <time>2021-11-13T16:08:29.559Z</time>
      </trkpt>
      <trkpt lat="47.609650" lon="7.698957">
        <ele>434.798970</ele>
        <time>2021-11-13T16:08:40.656Z</time>
      </trkpt>
      <trkpt lat="47.609692" lon="7.699268">
        <ele>435.840708</ele>
        <time>2021-11-13T16:08:48.206Z</time>
      </trkpt>
      <trkpt lat="47.609728" lon="7.699617">
        <ele>437.000300</ele>
        <time>2021-11-13T16:08:57.690Z</time>
      </trkpt>
      <trkpt lat="47.609747" lon="7.700598">
        <ele>440.223615</ele>
        <time>2021-11-13T16:09:21.321Z</time>
      </trkpt>
      <trkpt lat="47.609709" lon="7.701136">
        <ele>441.590053</ele>
        <time>2021-11-13T16:09:33.751Z</time>
      </trkpt>
      <trkpt lat="47.609456" lon="7.702382">
        <ele>444.027727</ele>
        <time>2021-11-13T16:09:57.702Z</time>
      </trkpt>
      <trkpt lat="47.608889" lon="7.703993">
        <ele>446.655552</ele>
        <time>2021-11-13T16:10:23.107Z</time>
      </trkpt>
      <trkpt lat="47.608768" lon="7.704298">
        <ele>446.947839</ele>
        <time>2021-11-13T16:10:27.923Z</time>
      </trkpt>
      <trkpt lat="47.608553" lon="7.704890">
        <ele>447.503223</ele>
        <time>2021-11-13T16:10:36.912Z</time>
      </trkpt>
      <trkpt lat="47.608202" lon="7.706065">
        <ele>448.166145</ele>
        <time>2021-11-13T16:10:53.508Z</time>
      </trkpt>
      <trkpt lat="47.608116" lon="7.706776">
        <ele>448.015085</ele>
        <time>2021-11-13T16:11:01.305Z</time>
      </trkpt>
      <trkpt lat="47.608185" lon="7.707104">
        <ele>447.943232</ele>
        <time>2021-11-13T16:11:04.331Z</time>
      </trkpt>
      <trkpt lat="47.608415" lon="7.707586">
        <ele>447.819744</ele>
        <time>2021-11-13T16:11:09.274Z</time>
      </trkpt>
      <trkpt lat="47.608616" lon="7.707855">
        <ele>447.735771</ele>
        <time>2021-11-13T16:11:12.512Z</time>
      </trkpt>
      <trkpt lat="47.608857" lon="7.707990">
        <ele>447.565960</ele>
        <time>2021-11-13T16:11:15.504Z</time>
      </trkpt>
      <trkpt lat="47.609432" lon="7.708024">
        <ele>446.899743</ele>
        <time>2021-11-13T16:11:22.045Z</time>
      </trkpt>
      <trkpt lat="47.609945" lon="7.708077">
        <ele>446.304394</ele>
        <time>2021-11-13T16:11:28.124Z</time>
      </trkpt>
      <trkpt lat="47.610375" lon="7.708322">
        <ele>445.771111</ele>
        <time>2021-11-13T16:11:33.670Z</time>
      </trkpt>
      <trkpt lat="47.610583" lon="7.708562">
        <ele>445.572927</ele>
        <time>2021-11-13T16:11:37.019Z</time>
      </trkpt>
      <trkpt lat="47.610962" lon="7.709157">
        <ele>445.420430</ele>
        <time>2021-11-13T16:11:45.324Z</time>
      </trkpt>
      <trkpt lat="47.611254" lon="7.709366">
        <ele>445.330837</ele>
        <time>2021-11-13T16:11:50.133Z</time>
      </trkpt>
      <trkpt lat="47.611851" lon="7.709998">
        <ele>445.128159</ele>
        <time>2021-11-13T16:12:00.247Z</time>
      </trkpt>
      <trkpt lat="47.612153" lon="7.710516">
        <ele>444.793985</ele>
        <time>2021-11-13T16:12:06.632Z</time>
      </trkpt>
      <trkpt lat="47.612421" lon="7.711182">
        <ele>444.375207</ele>
        <time>2021-11-13T16:12:13.744Z</time>
      </trkpt>
      <trkpt lat="47.612529" lon="7.713387">
        <ele>442.544807</ele>
        <time>2021-11-13T16:12:31.290Z</time>
      </trkpt>
      <trkpt lat="47.612616" lon="7.713746">
        <ele>442.069711</ele>
        <time>2021-11-13T16:12:34.222Z</time>
      </trkpt>
      <trkpt lat="47.612715" lon="7.713994">
        <ele>441.710774</ele>
        <time>2021-11-13T16:12:36.383Z</time>
      </trkpt>
      <trkpt lat="47.612918" lon="7.714393">
        <ele>441.088247</ele>
        <time>2021-11-13T16:12:40.032Z</time>
      </trkpt>
      <trkpt lat="47.613053" lon="7.714840">
        <ele>440.478262</ele>
        <time>2021-11-13T16:12:43.554Z</time>
      </trkpt>
      <trkpt lat="47.613126" lon="7.715447">
        <ele>439.668917</ele>
        <time>2021-11-13T16:12:47.939Z</time>
      </trkpt>
      <trkpt lat="47.613063" lon="7.715952">
        <ele>438.987607</ele>
        <time>2021-11-13T16:12:51.544Z</time>
      </trkpt>
      <trkpt lat="47.612886" lon="7.716219">
        <ele>438.490835</ele>
        <time>2021-11-13T16:12:54.179Z</time>
      </trkpt>
      <trkpt lat="47.612794" lon="7.716290">
        <ele>438.286755</ele>
        <time>2021-11-13T16:12:55.270Z</time>
      </trkpt>
      <trkpt lat="47.612400" lon="7.716363">
        <ele>437.505390</ele>
        <time>2021-11-13T16:12:59.803Z</time>
      </trkpt>
      <trkpt lat="47.611451" lon="7.716117">
        <ele>436.815034</ele>
        <time>2021-11-13T16:13:11.815Z</time>
      </trkpt>
      <trkpt lat="47.610823" lon="7.716092">
        <ele>436.823656</ele>
        <time>2021-11-13T16:13:21.732Z</time>
      </trkpt>
      <trkpt lat="47.610328" lon="7.715981">
        <ele>436.830527</ele>
        <time>2021-11-13T16:13:30.599Z</time>
      </trkpt>
      <trkpt lat="47.610177" lon="7.716108">
        <ele>436.922650</ele>
        <time>2021-11-13T16:13:33.928Z</time>
      </trkpt>
      <trkpt lat="47.610137" lon="7.716271">
        <ele>437.017859</ele>
        <time>2021-11-13T16:13:35.990Z</time>
      </trkpt>
      <trkpt lat="47.610179" lon="7.716821">
        <ele>437.321671</ele>
        <time>2021-11-13T16:13:43.053Z</time>
      </trkpt>
      <trkpt lat="47.610141" lon="7.717048">
        <ele>437.450049</ele>
        <time>2021-11-13T16:13:46.150Z</time>
      </trkpt>
      <trkpt lat="47.610060" lon="7.717147">
        <ele>437.535498</ele>
        <time>2021-11-13T16:13:48.178Z</time>
      </trkpt>
      <trkpt lat="47.609949" lon="7.717160">
        <ele>437.626150</ele>
        <time>2021-11-13T16:13:50.143Z</time>
      </trkpt>
      <trkpt lat="47.609597" lon="7.717035">
        <ele>437.920828</ele>
        <time>2021-11-13T16:13:57.011Z</time>
      </trkpt>
      <trkpt lat="47.609492" lon="7.717058">
        <ele>438.007241</ele>
        <time>2021-11-13T16:13:59.020Z</time>
      </trkpt>
      <trkpt lat="47.609360" lon="7.717199">
        <ele>438.139675</ele>
        <time>2021-11-13T16:14:02.027Z</time>
      </trkpt>
      <trkpt lat="47.609310" lon="7.717330">
        <ele>438.222302</ele>
        <time>2021-11-13T16:14:03.718Z</time>
      </trkpt>
      <trkpt lat="47.609289" lon="7.717671">
        <ele>438.351429</ele>
        <time>2021-11-13T16:14:07.480Z</time>
      </trkpt>
      <trkpt lat="47.609476" lon="7.718077">
        <ele>438.482694</ele>
        <time>2021-11-13T16:14:12.201Z</time>
      </trkpt>
      <trkpt lat="47.609453" lon="7.718554">
        <ele>438.610359</ele>
        <time>2021-11-13T16:14:17.233Z</time>
      </trkpt>
      <trkpt lat="47.609572" lon="7.718806">
        <ele>438.692494</ele>
        <time>2021-11-13T16:14:20.669Z</time>
      </trkpt>
      <trkpt lat="47.609572" lon="7.718806">
        <ele>438.692494</ele>
        <time>2021-11-13T16:14:20.670Z</time>
      </trkpt>
      <trkpt lat="47.609896" lon="7.719065">
        <ele>438.838235</ele>
        <time>2021-11-13T16:14:26.646Z</time>
      </trkpt>
      <trkpt lat="47.609964" lon="7.719178">
        <ele>438.878670</ele>
        <time>2021-11-13T16:14:28.214Z</time>
      </trkpt>
      <trkpt lat="47.610040" lon="7.719503">
        <ele>438.970502</ele>
        <time>2021-11-13T16:14:32.030Z</time>
      </trkpt>
      <trkpt lat="47.609981" lon="7.719813">
        <ele>439.170765</ele>
        <time>2021-11-13T16:14:35.832Z</time>
      </trkpt>
      <trkpt lat="47.609938" lon="7.719910">
        <ele>439.274709</ele>
        <time>2021-11-13T16:14:36.675Z</time>
      </trkpt>
      <trkpt lat="47.609869" lon="7.719982">
        <ele>439.386752</ele>
        <time>2021-11-13T16:14:39.490Z</time>
      </trkpt>
      <trkpt lat="47.609765" lon="7.720044">
        <ele>439.535613</ele>
        <time>2021-11-13T16:14:41.406Z</time>
      </trkpt>
      <trkpt lat="47.609694" lon="7.720088">
        <ele>439.637807</ele>
        <time>2021-11-13T16:14:42.740Z</time>
      </trkpt>
      <trkpt lat="47.609123" lon="7.720028">
        <ele>440.398052</ele>
        <time>2021-11-13T16:14:54.276Z</time>
      </trkpt>
      <trkpt lat="47.609035" lon="7.720082">
        <ele>440.524531</ele>
        <time>2021-11-13T16:14:56.129Z</time>
      </trkpt>
      <trkpt lat="47.608949" lon="7.720323">
        <ele>440.768683</ele>
        <time>2021-11-13T16:14:59.609Z</time>
      </trkpt>
      <trkpt lat="47.608945" lon="7.721056">
        <ele>441.430749</ele>
        <time>2021-11-13T16:15:11.460Z</time>
      </trkpt>
      <trkpt lat="47.608991" lon="7.721651">
        <ele>442.075508</ele>
        <time>2021-11-13T16:15:20.383Z</time>
      </trkpt>
      <trkpt lat="47.609174" lon="7.722708">
        <ele>443.250366</ele>
        <time>2021-11-13T16:15:35.920Z</time>
      </trkpt>
      <trkpt lat="47.609127" lon="7.723743">
        <ele>444.236979</ele>
        <time>2021-11-13T16:15:50.217Z</time>
      </trkpt>
      <trkpt lat="47.609161" lon="7.724017">
        <ele>444.139591</ele>
        <time>2021-11-13T16:15:53.940Z</time>
      </trkpt>
      <trkpt lat="47.609341" lon="7.724198">
        <ele>444.026838</ele>
        <time>2021-11-13T16:15:58.282Z</time>
      </trkpt>
      <trkpt lat="47.609636" lon="7.724285">
        <ele>443.870889</ele>
        <time>2021-11-13T16:16:04.308Z</time>
      </trkpt>
      <trkpt lat="47.609742" lon="7.724373">
        <ele>443.807906</ele>
        <time>2021-11-13T16:16:06.735Z</time>
      </trkpt>
      <trkpt lat="47.609970" lon="7.724684">
        <ele>443.647303</ele>
        <time>2021-11-13T16:16:11.401Z</time>
      </trkpt>
      <trkpt lat="47.610108" lon="7.725107">
        <ele>443.483040</ele>
        <time>2021-11-13T16:16:15.007Z</time>
      </trkpt>
      <trkpt lat="47.610415" lon="7.726318">
        <ele>439.187032</ele>
        <time>2021-11-13T16:16:23.465Z</time>
      </trkpt>
      <trkpt lat="47.610578" lon="7.726917">
        <ele>436.120399</ele>
        <time>2021-11-13T16:16:27.310Z</time>
      </trkpt>
      <trkpt lat="47.610604" lon="7.726979">
        <ele>435.773760</ele>
        <time>2021-11-13T16:16:27.761Z</time>
      </trkpt>
      <trkpt lat="47.610833" lon="7.727203">
        <ele>433.842089</ele>
        <time>2021-11-13T16:16:30.140Z</time>
      </trkpt>
      <trkpt lat="47.611447" lon="7.727328">
        <ele>429.207595</ele>
        <time>2021-11-13T16:16:35.536Z</time>
      </trkpt>
      <trkpt lat="47.611558" lon="7.727374">
        <ele>428.212117</ele>
        <time>2021-11-13T16:16:36.506Z</time>
      </trkpt>
      <trkpt lat="47.611673" lon="7.727743">
        <ele>425.844939</ele>
        <time>2021-11-13T16:16:38.869Z</time>
      </trkpt>
      <trkpt lat="47.611794" lon="7.728207">
        <ele>422.947975</ele>
        <time>2021-11-13T16:16:41.764Z</time>
      </trkpt>
      <trkpt lat="47.612102" lon="7.728839">
        <ele>418.406971</ele>
        <time>2021-11-13T16:16:46.377Z</time>
      </trkpt>
      <trkpt lat="47.612234" lon="7.729223">
        <ele>415.897054</ele>
        <time>2021-11-13T16:16:48.953Z</time>
      </trkpt>
      <trkpt lat="47.612445" lon="7.730023">
        <ele>412.171522</ele>
        <time>2021-11-13T16:16:54.283Z</time>
      </trkpt>
      <trkpt lat="47.612490" lon="7.730332">
        <ele>410.885027</ele>
        <time>2021-11-13T16:16:56.290Z</time>
      </trkpt>
      <trkpt lat="47.612414" lon="7.731732">
        <ele>405.169224</ele>
        <time>2021-11-13T16:17:05.102Z</time>
      </trkpt>
      <trkpt lat="47.612582" lon="7.733083">
        <ele>399.197176</ele>
        <time>2021-11-13T16:17:13.413Z</time>
      </trkpt>
      <trkpt lat="47.612580" lon="7.733841">
        <ele>395.862069</ele>
        <time>2021-11-13T16:17:18.078Z</time>
      </trkpt>
      <trkpt lat="47.612580" lon="7.733842">
        <ele>395.857669</ele>
        <time>2021-11-13T16:17:18.108Z</time>
      </trkpt>
      <trkpt lat="47.612562" lon="7.734273">
        <ele>393.957701</ele>
        <time>2021-11-13T16:17:20.878Z</time>
      </trkpt>
      <trkpt lat="47.612560" lon="7.734334">
        <ele>393.688993</ele>
        <time>2021-11-13T16:17:21.246Z</time>
      </trkpt>
      <trkpt lat="47.612558" lon="7.734604">
        <ele>392.511186</ele>
        <time>2021-11-13T16:17:22.883Z</time>
      </trkpt>
      <trkpt lat="47.612618" lon="7.734756">
        <ele>391.951201</ele>
        <time>2021-11-13T16:17:23.980Z</time>
      </trkpt>
      <trkpt lat="47.612755" lon="7.734867">
        <ele>391.215024</ele>
        <time>2021-11-13T16:17:25.369Z</time>
      </trkpt>
      <trkpt lat="47.613181" lon="7.734997">
        <ele>389.163963</ele>
        <time>2021-11-13T16:17:29.385Z</time>
      </trkpt>
      <trkpt lat="47.613390" lon="7.735211">
        <ele>387.966327</ele>
        <time>2021-11-13T16:17:31.691Z</time>
      </trkpt>
      <trkpt lat="47.613434" lon="7.735397">
        <ele>387.339654</ele>
        <time>2021-11-13T16:17:32.980Z</time>
      </trkpt>
      <trkpt lat="47.613375" lon="7.735736">
        <ele>386.226584</ele>
        <time>2021-11-13T16:17:35.285Z</time>
      </trkpt>
      <trkpt lat="47.613317" lon="7.735838">
        <ele>385.802356</ele>
        <time>2021-11-13T16:17:36.255Z</time>
      </trkpt>
      <trkpt lat="47.613210" lon="7.735944">
        <ele>385.195570</ele>
        <time>2021-11-13T16:17:37.519Z</time>
      </trkpt>
      <trkpt lat="47.613169" lon="7.735961">
        <ele>384.994805</ele>
        <time>2021-11-13T16:17:37.951Z</time>
      </trkpt>
      <trkpt lat="47.612712" lon="7.736151">
        <ele>383.931598</ele>
        <time>2021-11-13T16:17:43.149Z</time>
      </trkpt>
      <trkpt lat="47.612447" lon="7.736778">
        <ele>383.707139</ele>
        <time>2021-11-13T16:17:48.913Z</time>
      </trkpt>
      <trkpt lat="47.612194" lon="7.737048">
        <ele>383.566911</ele>
        <time>2021-11-13T16:17:53.215Z</time>
      </trkpt>
      <trkpt lat="47.612044" lon="7.737224">
        <ele>383.480862</ele>
        <time>2021-11-13T16:17:55.858Z</time>
      </trkpt>
      <trkpt lat="47.611965" lon="7.737457">
        <ele>383.401755</ele>
        <time>2021-11-13T16:17:59.359Z</time>
      </trkpt>
      <trkpt lat="47.611893" lon="7.737711">
        <ele>383.318180</ele>
        <time>2021-11-13T16:18:03.117Z</time>
      </trkpt>
      <trkpt lat="47.611872" lon="7.738156">
        <ele>383.578913</ele>
        <time>2021-11-13T16:18:09.529Z</time>
      </trkpt>
      <trkpt lat="47.611785" lon="7.738609">
        <ele>384.328465</ele>
        <time>2021-11-13T16:18:16.335Z</time>
      </trkpt>
      <trkpt lat="47.611751" lon="7.738698">
        <ele>384.491253</ele>
        <time>2021-11-13T16:18:18.352Z</time>
      </trkpt>
      <trkpt lat="47.611684" lon="7.738828">
        <ele>384.751654</ele>
        <time>2021-11-13T16:18:20.853Z</time>
      </trkpt>
      <trkpt lat="47.611618" lon="7.738936">
        <ele>384.983620</ele>
        <time>2021-11-13T16:18:23.160Z</time>
      </trkpt>
      <trkpt lat="47.611382" lon="7.739254">
        <ele>385.736226</ele>
        <time>2021-11-13T16:18:31.244Z</time>
      </trkpt>
      <trkpt lat="47.611129" lon="7.739819">
        <ele>386.815602</ele>
        <time>2021-11-13T16:18:43.742Z</time>
      </trkpt>
      <trkpt lat="47.610898" lon="7.741056">
        <ele>389.041939</ele>
        <time>2021-11-13T16:19:05.745Z</time>
      </trkpt>
      <trkpt lat="47.610871" lon="7.741420">
        <ele>389.703046</ele>
        <time>2021-11-13T16:19:11.177Z</time>
      </trkpt>
      <trkpt lat="47.610879" lon="7.741793">
        <ele>390.376776</ele>
        <time>2021-11-13T16:19:16.928Z</time>
      </trkpt>
      <trkpt lat="47.611010" lon="7.743033">
        <ele>392.753861</ele>
        <time>2021-11-13T16:19:39.487Z</time>
      </trkpt>
      <trkpt lat="47.611161" lon="7.743634">
        <ele>394.296915</ele>
        <time>2021-11-13T16:19:52.723Z</time>
      </trkpt>
      <trkpt lat="47.611241" lon="7.743837">
        <ele>394.862621</ele>
        <time>2021-11-13T16:19:57.546Z</time>
      </trkpt>
      <trkpt lat="47.611456" lon="7.744262">
        <ele>396.140955</ele>
        <time>2021-11-13T16:20:07.923Z</time>
      </trkpt>
      <trkpt lat="47.611609" lon="7.744853">
        <ele>397.664021</ele>
        <time>2021-11-13T16:20:20.133Z</time>
      </trkpt>
      <trkpt lat="47.611651" lon="7.745141">
        <ele>398.372920</ele>
        <time>2021-11-13T16:20:26.614Z</time>
      </trkpt>
      <trkpt lat="47.611691" lon="7.745486">
        <ele>399.032277</ele>
        <time>2021-11-13T16:20:33.243Z</time>
      </trkpt>
      <trkpt lat="47.611647" lon="7.746050">
        <ele>399.886316</ele>
        <time>2021-11-13T16:20:44.540Z</time>
      </trkpt>
      <trkpt lat="47.611508" lon="7.746851">
        <ele>401.130470</ele>
        <time>2021-11-13T16:20:58.320Z</time>
      </trkpt>
      <trkpt lat="47.611423" lon="7.747196">
        <ele>401.682997</ele>
        <time>2021-11-13T16:21:04.223Z</time>
      </trkpt>
      <trkpt lat="47.611024" lon="7.748403">
        <ele>403.146303</ele>
        <time>2021-11-13T16:21:19.642Z</time>
      </trkpt>
      <trkpt lat="47.610897" lon="7.748667">
        <ele>403.351536</ele>
        <time>2021-11-13T16:21:22.850Z</time>
      </trkpt>
      <trkpt lat="47.610399" lon="7.749144">
        <ele>403.907978</ele>
        <time>2021-11-13T16:21:32.624Z</time>
      </trkpt>
      <trkpt lat="47.610331" lon="7.749289">
        <ele>404.019754</ele>
        <time>2021-11-13T16:21:34.704Z</time>
      </trkpt>
      <trkpt lat="47.610303" lon="7.749507">
        <ele>404.160189</ele>
        <time>2021-11-13T16:21:37.618Z</time>
      </trkpt>
      <trkpt lat="47.610345" lon="7.749815">
        <ele>404.359044</ele>
        <time>2021-11-13T16:21:42.574Z</time>
      </trkpt>
      <trkpt lat="47.610520" lon="7.750319">
        <ele>405.516843</ele>
        <time>2021-11-13T16:21:51.907Z</time>
      </trkpt>
      <trkpt lat="47.610643" lon="7.750603">
        <ele>406.321088</ele>
        <time>2021-11-13T16:21:57.366Z</time>
      </trkpt>
      <trkpt lat="47.610714" lon="7.750722">
        <ele>406.699700</ele>
        <time>2021-11-13T16:22:00.396Z</time>
      </trkpt>
      <trkpt lat="47.611094" lon="7.750951">
        <ele>408.149254</ele>
        <time>2021-11-13T16:22:11.948Z</time>
      </trkpt>
      <trkpt lat="47.611197" lon="7.751064">
        <ele>408.602009</ele>
        <time>2021-11-13T16:22:15.143Z</time>
      </trkpt>
      <trkpt lat="47.611255" lon="7.751205">
        <ele>408.995543</ele>
        <time>2021-11-13T16:22:18.634Z</time>
      </trkpt>
      <trkpt lat="47.611288" lon="7.751378">
        <ele>409.423903</ele>
        <time>2021-11-13T16:22:22.650Z</time>
      </trkpt>
      <trkpt lat="47.611242" lon="7.752336">
        <ele>412.460501</ele>
        <time>2021-11-13T16:22:45.556Z</time>
      </trkpt>
      <trkpt lat="47.611269" lon="7.753071">
        <ele>415.630393</ele>
        <time>2021-11-13T16:23:06.270Z</time>
      </trkpt>
      <trkpt lat="47.611310" lon="7.753428">
        <ele>417.189921</ele>
        <time>2021-11-13T16:23:15.993Z</time>
      </trkpt>
      <trkpt lat="47.611506" lon="7.753985">
        <ele>419.895667</ele>
        <time>2021-11-13T16:23:33.306Z</time>
      </trkpt>
      <trkpt lat="47.611701" lon="7.754245">
        <ele>421.570540</ele>
        <time>2021-11-13T16:23:44.610Z</time>
      </trkpt>
      <trkpt lat="47.611848" lon="7.754391">
        <ele>422.791553</ele>
        <time>2021-11-13T16:23:52.336Z</time>
      </trkpt>
      <trkpt lat="47.612146" lon="7.754726">
        <ele>425.690168</ele>
        <time>2021-11-13T16:24:09.220Z</time>
      </trkpt>
      <trkpt lat="47.612192" lon="7.754954">
        <ele>426.933939</ele>
        <time>2021-11-13T16:24:16.915Z</time>
      </trkpt>
      <trkpt lat="47.612161" lon="7.755353">
        <ele>429.032961</ele>
        <time>2021-11-13T16:24:28.848Z</time>
      </trkpt>
      <trkpt lat="47.612159" lon="7.755380">
        <ele>429.174915</ele>
        <time>2021-11-13T16:24:30.736Z</time>
      </trkpt>
      <trkpt lat="47.612161" lon="7.755449">
        <ele>429.535850</ele>
        <time>2021-11-13T16:24:32.868Z</time>
      </trkpt>
      <trkpt lat="47.612172" lon="7.755521">
        <ele>429.921672</ele>
        <time>2021-11-13T16:24:35.020Z</time>
      </trkpt>
      <trkpt lat="47.612196" lon="7.755580">
        <ele>430.281797</ele>
        <time>2021-11-13T16:24:37.116Z</time>
      </trkpt>
      <trkpt lat="47.612248" lon="7.755635">
        <ele>430.776893</ele>
        <time>2021-11-13T16:24:40.169Z</time>
      </trkpt>
      <trkpt lat="47.612387" lon="7.755703">
        <ele>431.911538</ele>
        <time>2021-11-13T16:24:47.164Z</time>
      </trkpt>
      <trkpt lat="47.612451" lon="7.755754">
        <ele>432.474739</ele>
        <time>2021-11-13T16:24:50.888Z</time>
      </trkpt>
      <trkpt lat="47.612481" lon="7.755809">
        <ele>432.844476</ele>
        <time>2021-11-13T16:24:53.207Z</time>
      </trkpt>
      <trkpt lat="47.612503" lon="7.755886">
        <ele>433.281534</ele>
        <time>2021-11-13T16:24:55.664Z</time>
      </trkpt>
      <trkpt lat="47.612539" lon="7.756079">
        <ele>434.328064</ele>
        <time>2021-11-13T16:25:01.904Z</time>
      </trkpt>
      <trkpt lat="47.612595" lon="7.756458">
        <ele>436.329993</ele>
        <time>2021-11-13T16:25:13.259Z</time>
      </trkpt>
      <trkpt lat="47.612635" lon="7.756867">
        <ele>438.085141</ele>
        <time>2021-11-13T16:25:26.238Z</time>
      </trkpt>
      <trkpt lat="47.612654" lon="7.757180">
        <ele>439.419785</ele>
        <time>2021-11-13T16:25:35.690Z</time>
      </trkpt>
      <trkpt lat="47.612657" lon="7.757559">
        <ele>441.029454</ele>
        <time>2021-11-13T16:25:47.503Z</time>
      </trkpt>
      <trkpt lat="47.612671" lon="7.757751">
        <ele>441.849606</ele>
        <time>2021-11-13T16:25:53.349Z</time>
      </trkpt>
      <trkpt lat="47.612697" lon="7.758003">
        <ele>442.932274</ele>
        <time>2021-11-13T16:25:59.638Z</time>
      </trkpt>
      <trkpt lat="47.612718" lon="7.758199">
        <ele>443.775104</ele>
        <time>2021-11-13T16:26:05.858Z</time>
      </trkpt>
      <trkpt lat="47.612779" lon="7.758543">
        <ele>445.285715</ele>
        <time>2021-11-13T16:26:13.742Z</time>
      </trkpt>
      <trkpt lat="47.612830" lon="7.758759">
        <ele>446.257669</ele>
        <time>2021-11-13T16:26:20.161Z</time>
      </trkpt>
      <trkpt lat="47.612944" lon="7.759245">
        <ele>447.797069</ele>
        <time>2021-11-13T16:26:30.770Z</time>
      </trkpt>
      <trkpt lat="47.613053" lon="7.759623">
        <ele>448.281433</ele>
        <time>2021-11-13T16:26:37.752Z</time>
      </trkpt>
      <trkpt lat="47.613205" lon="7.760080">
        <ele>448.881802</ele>
        <time>2021-11-13T16:26:46.484Z</time>
      </trkpt>
      <trkpt lat="47.613222" lon="7.760189">
        <ele>449.013609</ele>
        <time>2021-11-13T16:26:48.587Z</time>
      </trkpt>
      <trkpt lat="47.613231" lon="7.760404">
        <ele>449.267394</ele>
        <time>2021-11-13T16:26:51.278Z</time>
      </trkpt>
      <trkpt lat="47.613148" lon="7.760607">
        <ele>449.547104</ele>
        <time>2021-11-13T16:26:54.871Z</time>
      </trkpt>
      <trkpt lat="47.613059" lon="7.760674">
        <ele>449.721525</ele>
        <time>2021-11-13T16:26:56.954Z</time>
      </trkpt>
      <trkpt lat="47.613078" lon="7.760746">
        <ele>449.812618</ele>
        <time>2021-11-13T16:26:57.638Z</time>
      </trkpt>
      <trkpt lat="47.613167" lon="7.760835">
        <ele>450.000198</ele>
        <time>2021-11-13T16:26:59.836Z</time>
      </trkpt>
      <trkpt lat="47.613386" lon="7.760904">
        <ele>450.391464</ele>
        <time>2021-11-13T16:27:03.259Z</time>
      </trkpt>
      <trkpt lat="47.613627" lon="7.760979">
        <ele>450.611820</ele>
        <time>2021-11-13T16:27:06.404Z</time>
      </trkpt>
      <trkpt lat="47.613657" lon="7.760988">
        <ele>450.578497</ele>
        <time>2021-11-13T16:27:06.731Z</time>
      </trkpt>
      <trkpt lat="47.613842" lon="7.761046">
        <ele>450.372632</ele>
        <time>2021-11-13T16:27:08.933Z</time>
      </trkpt>
      <trkpt lat="47.614092" lon="7.761125">
        <ele>450.094343</ele>
        <time>2021-11-13T16:27:11.862Z</time>
      </trkpt>
      <trkpt lat="47.614228" lon="7.761168">
        <ele>449.942949</ele>
        <time>2021-11-13T16:27:13.358Z</time>
      </trkpt>
      <trkpt lat="47.614392" lon="7.761173">
        <ele>449.764360</ele>
        <time>2021-11-13T16:27:15.117Z</time>
      </trkpt>
      <trkpt lat="47.614706" lon="7.761147">
        <ele>449.421967</ele>
        <time>2021-11-13T16:27:18.661Z</time>
      </trkpt>
      <trkpt lat="47.614766" lon="7.761162">
        <ele>449.355722</ele>
        <time>2021-11-13T16:27:19.367Z</time>
      </trkpt>
      <trkpt lat="47.614820" lon="7.761190">
        <ele>449.293442</ele>
        <time>2021-11-13T16:27:20.176Z</time>
      </trkpt>
      <trkpt lat="47.615007" lon="7.761358">
        <ele>449.055424</ele>
        <time>2021-11-13T16:27:22.774Z</time>
      </trkpt>
      <trkpt lat="47.615529" lon="7.761749">
        <ele>448.834400</ele>
        <time>2021-11-13T16:27:30.985Z</time>
      </trkpt>
      <trkpt lat="47.615620" lon="7.761773">
        <ele>448.866371</ele>
        <time>2021-11-13T16:27:32.003Z</time>
      </trkpt>
      <trkpt lat="47.615769" lon="7.761789">
        <ele>448.918046</ele>
        <time>2021-11-13T16:27:34.502Z</time>
      </trkpt>
      <trkpt lat="47.615919" lon="7.761819">
        <ele>448.970402</ele>
        <time>2021-11-13T16:27:37.024Z</time>
      </trkpt>
      <trkpt lat="47.616849" lon="7.762442">
        <ele>449.323372</ele>
        <time>2021-11-13T16:27:55.211Z</time>
      </trkpt>
      <trkpt lat="47.617386" lon="7.762826">
        <ele>449.433532</ele>
        <time>2021-11-13T16:28:05.957Z</time>
      </trkpt>
      <trkpt lat="47.617553" lon="7.762928">
        <ele>449.461367</ele>
        <time>2021-11-13T16:28:08.787Z</time>
      </trkpt>
      <trkpt lat="47.617894" lon="7.763136">
        <ele>449.518191</ele>
        <time>2021-11-13T16:28:14.707Z</time>
      </trkpt>
      <trkpt lat="47.617858" lon="7.763622">
        <ele>449.568986</ele>
        <time>2021-11-13T16:28:19.457Z</time>
      </trkpt>
      <trkpt lat="47.617849" lon="7.763863">
        <ele>449.594061</ele>
        <time>2021-11-13T16:28:21.958Z</time>
      </trkpt>
      <trkpt lat="47.617934" lon="7.764271">
        <ele>449.580864</ele>
        <time>2021-11-13T16:28:25.972Z</time>
      </trkpt>
      <trkpt lat="47.618136" lon="7.764529">
        <ele>449.136138</ele>
        <time>2021-11-13T16:28:29.312Z</time>
      </trkpt>
      <trkpt lat="47.618356" lon="7.764125">
        <ele>448.552035</ele>
        <time>2021-11-13T16:28:33.485Z</time>
      </trkpt>
      <trkpt lat="47.618514" lon="7.763900">
        <ele>448.186624</ele>
        <time>2021-11-13T16:28:35.949Z</time>
      </trkpt>
      <trkpt lat="47.618753" lon="7.763750">
        <ele>447.753647</ele>
        <time>2021-11-13T16:28:38.789Z</time>
      </trkpt>
      <trkpt lat="47.619022" lon="7.763758">
        <ele>447.304742</ele>
        <time>2021-11-13T16:28:41.672Z</time>
      </trkpt>
      <trkpt lat="47.619329" lon="7.764008">
        <ele>446.720434</ele>
        <time>2021-11-13T16:28:45.372Z</time>
      </trkpt>
      <trkpt lat="47.619502" lon="7.764194">
        <ele>446.068142</ele>
        <time>2021-11-13T16:28:47.688Z</time>
      </trkpt>
      <trkpt lat="47.619627" lon="7.764641">
        <ele>444.924564</ele>
        <time>2021-11-13T16:28:51.107Z</time>
      </trkpt>
      <trkpt lat="47.619705" lon="7.765107">
        <ele>443.789940</ele>
        <time>2021-11-13T16:28:54.392Z</time>
      </trkpt>
      <trkpt lat="47.619832" lon="7.765722">
        <ele>442.269997</ele>
        <time>2021-11-13T16:28:58.667Z</time>
      </trkpt>
      <trkpt lat="47.620092" lon="7.767207">
        <ele>438.461117</ele>
        <time>2021-11-13T16:29:08.601Z</time>
      </trkpt>
      <trkpt lat="47.620307" lon="7.767734">
        <ele>436.846863</ele>
        <time>2021-11-13T16:29:12.622Z</time>
      </trkpt>
      <trkpt lat="47.620543" lon="7.768057">
        <ele>435.598573</ele>
        <time>2021-11-13T16:29:15.792Z</time>
      </trkpt>
      <trkpt lat="47.621839" lon="7.768898">
        <ele>431.028919</ele>
        <time>2021-11-13T16:29:30.004Z</time>
      </trkpt>
      <trkpt lat="47.622371" lon="7.769061">
        <ele>429.523923</ele>
        <time>2021-11-13T16:29:35.763Z</time>
      </trkpt>
      <trkpt lat="47.623349" lon="7.769241">
        <ele>427.585864</ele>
        <time>2021-11-13T16:29:46.560Z</time>
      </trkpt>
      <trkpt lat="47.624248" lon="7.769501">
        <ele>426.338948</ele>
        <time>2021-11-13T16:29:57.649Z</time>
      </trkpt>
      <trkpt lat="47.624611" lon="7.769610">
        <ele>425.837053</ele>
        <time>2021-11-13T16:30:02.256Z</time>
      </trkpt>
      <trkpt lat="47.624769" lon="7.769638">
        <ele>425.627779</ele>
        <time>2021-11-13T16:30:04.326Z</time>
      </trkpt>
      <trkpt lat="47.625096" lon="7.769705">
        <ele>425.193639</ele>
        <time>2021-11-13T16:30:08.343Z</time>
      </trkpt>
      <trkpt lat="47.625380" lon="7.769739">
        <ele>424.818918</ele>
        <time>2021-11-13T16:30:11.767Z</time>
      </trkpt>
      <trkpt lat="47.625663" lon="7.769773">
        <ele>424.445508</ele>
        <time>2021-11-13T16:30:15.078Z</time>
      </trkpt>
      <trkpt lat="47.626274" lon="7.769785">
        <ele>423.641871</ele>
        <time>2021-11-13T16:30:22.282Z</time>
      </trkpt>
      <trkpt lat="47.626675" lon="7.769973">
        <ele>422.692045</ele>
        <time>2021-11-13T16:30:26.932Z</time>
      </trkpt>
      <trkpt lat="47.627069" lon="7.770397">
        <ele>421.485474</ele>
        <time>2021-11-13T16:30:31.916Z</time>
      </trkpt>
      <trkpt lat="47.627589" lon="7.771292">
        <ele>419.511231</ele>
        <time>2021-11-13T16:30:40.193Z</time>
      </trkpt>
      <trkpt lat="47.627790" lon="7.771752">
        <ele>418.938491</ele>
        <time>2021-11-13T16:30:44.104Z</time>
      </trkpt>
      <trkpt lat="47.627843" lon="7.771878">
        <ele>418.866666</ele>
        <time>2021-11-13T16:30:45.123Z</time>
      </trkpt>
      <trkpt lat="47.628071" lon="7.772437">
        <ele>418.550697</ele>
        <time>2021-11-13T16:30:50.026Z</time>
      </trkpt>
      <trkpt lat="47.628459" lon="7.773585">
        <ele>417.929658</ele>
        <time>2021-11-13T16:31:02.809Z</time>
      </trkpt>
      <trkpt lat="47.628757" lon="7.774190">
        <ele>417.813829</ele>
        <time>2021-11-13T16:31:12.699Z</time>
      </trkpt>
      <trkpt lat="47.628835" lon="7.774386">
        <ele>417.826876</ele>
        <time>2021-11-13T16:31:15.304Z</time>
      </trkpt>
      <trkpt lat="47.628913" lon="7.774584">
        <ele>417.840023</ele>
        <time>2021-11-13T16:31:19.195Z</time>
      </trkpt>
      <trkpt lat="47.629477" lon="7.776561">
        <ele>416.897215</ele>
        <time>2021-11-13T16:31:39.999Z</time>
      </trkpt>
      <trkpt lat="47.629739" lon="7.777102">
        <ele>415.118021</ele>
        <time>2021-11-13T16:31:44.457Z</time>
      </trkpt>
      <trkpt lat="47.630120" lon="7.777463">
        <ele>413.326610</ele>
        <time>2021-11-13T16:31:48.770Z</time>
      </trkpt>
      <trkpt lat="47.630423" lon="7.777640">
        <ele>412.036167</ele>
        <time>2021-11-13T16:31:51.801Z</time>
      </trkpt>
      <trkpt lat="47.631619" lon="7.778161">
        <ele>405.056277</ele>
        <time>2021-11-13T16:32:03.200Z</time>
      </trkpt>
      <trkpt lat="47.631946" lon="7.778226">
        <ele>403.031056</ele>
        <time>2021-11-13T16:32:06.205Z</time>
      </trkpt>
      <trkpt lat="47.632866" lon="7.778126">
        <ele>397.309029</ele>
        <time>2021-11-13T16:32:14.636Z</time>
      </trkpt>
      <trkpt lat="47.633379" lon="7.777778">
        <ele>393.760869</ele>
        <time>2021-11-13T16:32:19.790Z</time>
      </trkpt>
      <trkpt lat="47.633928" lon="7.777200">
        <ele>389.526594</ele>
        <time>2021-11-13T16:32:25.927Z</time>
      </trkpt>
      <trkpt lat="47.634334" lon="7.777067">
        <ele>386.929867</ele>
        <time>2021-11-13T16:32:29.693Z</time>
      </trkpt>
      <trkpt lat="47.635865" lon="7.777362">
        <ele>377.335607</ele>
        <time>2021-11-13T16:32:43.754Z</time>
      </trkpt>
      <trkpt lat="47.636624" lon="7.777638">
        <ele>372.909171</ele>
        <time>2021-11-13T16:32:51.064Z</time>
      </trkpt>
      <trkpt lat="47.637701" lon="7.777589">
        <ele>366.806527</ele>
        <time>2021-11-13T16:33:01.061Z</time>
      </trkpt>
      <trkpt lat="47.638130" lon="7.777591">
        <ele>364.328177</ele>
        <time>2021-11-13T16:33:04.955Z</time>
      </trkpt>
      <trkpt lat="47.638523" lon="7.777631">
        <ele>362.052480</ele>
        <time>2021-11-13T16:33:08.546Z</time>
      </trkpt>
      <trkpt lat="47.638601" lon="7.777645">
        <ele>361.598589</ele>
        <time>2021-11-13T16:33:09.255Z</time>
      </trkpt>
      <trkpt lat="47.638857" lon="7.777693">
        <ele>360.107919</ele>
        <time>2021-11-13T16:33:11.648Z</time>
      </trkpt>
      <trkpt lat="47.639092" lon="7.777737">
        <ele>358.739560</ele>
        <time>2021-11-13T16:33:13.843Z</time>
      </trkpt>
      <trkpt lat="47.639551" lon="7.777821">
        <ele>356.403134</ele>
        <time>2021-11-13T16:33:18.148Z</time>
      </trkpt>
      <trkpt lat="47.639581" lon="7.777832">
        <ele>356.317456</ele>
        <time>2021-11-13T16:33:18.433Z</time>
      </trkpt>
      <trkpt lat="47.639647" lon="7.777857">
        <ele>356.128600</ele>
        <time>2021-11-13T16:33:19.075Z</time>
      </trkpt>
      <trkpt lat="47.639952" lon="7.778026">
        <ele>355.225954</ele>
        <time>2021-11-13T16:33:22.210Z</time>
      </trkpt>
      <trkpt lat="47.640214" lon="7.778094">
        <ele>354.488518</ele>
        <time>2021-11-13T16:33:24.877Z</time>
      </trkpt>
      <trkpt lat="47.640434" lon="7.778080">
        <ele>353.877993</ele>
        <time>2021-11-13T16:33:27.168Z</time>
      </trkpt>
      <trkpt lat="47.640603" lon="7.778070">
        <ele>353.409057</ele>
        <time>2021-11-13T16:33:28.959Z</time>
      </trkpt>
      <trkpt lat="47.640774" lon="7.778034">
        <ele>352.930202</ele>
        <time>2021-11-13T16:33:30.940Z</time>
      </trkpt>
      <trkpt lat="47.640847" lon="7.778085">
        <ele>352.706502</ele>
        <time>2021-11-13T16:33:31.881Z</time>
      </trkpt>
      <trkpt lat="47.641101" lon="7.778647">
        <ele>351.749743</ele>
        <time>2021-11-13T16:33:38.061Z</time>
      </trkpt>
      <trkpt lat="47.641206" lon="7.778877">
        <ele>351.793776</ele>
        <time>2021-11-13T16:33:40.855Z</time>
      </trkpt>
      <trkpt lat="47.641301" lon="7.779088">
        <ele>351.833997</ele>
        <time>2021-11-13T16:33:43.494Z</time>
      </trkpt>
      <trkpt lat="47.641383" lon="7.779295">
        <ele>351.872055</ele>
        <time>2021-11-13T16:33:45.960Z</time>
      </trkpt>
      <trkpt lat="47.641504" lon="7.779524">
        <ele>351.918179</ele>
        <time>2021-11-13T16:33:49.131Z</time>
      </trkpt>
      <trkpt lat="47.641440" lon="7.779707">
        <ele>351.950858</ele>
        <time>2021-11-13T16:33:51.357Z</time>
      </trkpt>
      <trkpt lat="47.641406" lon="7.779804">
        <ele>351.968187</ele>
        <time>2021-11-13T16:33:52.556Z</time>
      </trkpt>
      <trkpt lat="47.641394" lon="7.780042">
        <ele>352.006013</ele>
        <time>2021-11-13T16:33:55.232Z</time>
      </trkpt>
      <trkpt lat="47.641373" lon="7.780707">
        <ele>352.111526</ele>
        <time>2021-11-13T16:34:03.046Z</time>
      </trkpt>
      <trkpt lat="47.641405" lon="7.780976">
        <ele>352.161742</ele>
        <time>2021-11-13T16:34:06.314Z</time>
      </trkpt>
      <trkpt lat="47.641524" lon="7.781291">
        <ele>352.284779</ele>
        <time>2021-11-13T16:34:10.647Z</time>
      </trkpt>
      <trkpt lat="47.641643" lon="7.781693">
        <ele>352.434373</ele>
        <time>2021-11-13T16:34:15.962Z</time>
      </trkpt>
      <trkpt lat="47.641869" lon="7.782962">
        <ele>352.881558</ele>
        <time>2021-11-13T16:34:30.483Z</time>
      </trkpt>
      <trkpt lat="47.641988" lon="7.783768">
        <ele>353.129709</ele>
        <time>2021-11-13T16:34:39.773Z</time>
      </trkpt>
      <trkpt lat="47.642070" lon="7.784597">
        <ele>353.325032</ele>
        <time>2021-11-13T16:34:48.712Z</time>
      </trkpt>
      <trkpt lat="47.642098" lon="7.784929">
        <ele>353.403029</ele>
        <time>2021-11-13T16:34:52.415Z</time>
      </trkpt>
      <trkpt lat="47.642092" lon="7.785566">
        <ele>353.551537</ele>
        <time>2021-11-13T16:34:59.217Z</time>
      </trkpt>
      <trkpt lat="47.642187" lon="7.787574">
        <ele>354.267830</ele>
        <time>2021-11-13T16:35:21.681Z</time>
      </trkpt>
      <trkpt lat="47.642177" lon="7.788598">
        <ele>354.679936</ele>
        <time>2021-11-13T16:35:34.038Z</time>
      </trkpt>
      <trkpt lat="47.642173" lon="7.788815">
        <ele>354.773128</ele>
        <time>2021-11-13T16:35:36.684Z</time>
      </trkpt>
      <trkpt lat="47.642213" lon="7.789443">
        <ele>355.146012</ele>
        <time>2021-11-13T16:35:44.422Z</time>
      </trkpt>
      <trkpt lat="47.642253" lon="7.789870">
        <ele>355.400852</ele>
        <time>2021-11-13T16:35:49.759Z</time>
      </trkpt>
      <trkpt lat="47.642283" lon="7.790364">
        <ele>355.694053</ele>
        <time>2021-11-13T16:35:55.900Z</time>
      </trkpt>
      <trkpt lat="47.642317" lon="7.790714">
        <ele>355.903087</ele>
        <time>2021-11-13T16:36:00.307Z</time>
      </trkpt>
      <trkpt lat="47.642371" lon="7.791259">
        <ele>356.228716</ele>
        <time>2021-11-13T16:36:07.078Z</time>
      </trkpt>
      <trkpt lat="47.642494" lon="7.791876">
        <ele>356.644651</ele>
        <time>2021-11-13T16:36:15.047Z</time>
      </trkpt>
      <trkpt lat="47.642510" lon="7.792488">
        <ele>357.053334</ele>
        <time>2021-11-13T16:36:22.632Z</time>
      </trkpt>
      <trkpt lat="47.642430" lon="7.792992">
        <ele>357.398851</ele>
        <time>2021-11-13T16:36:29.506Z</time>
      </trkpt>
      <trkpt lat="47.642238" lon="7.793563">
        <ele>357.824684</ele>
        <time>2021-11-13T16:36:37.696Z</time>
      </trkpt>
      <trkpt lat="47.641976" lon="7.793963">
        <ele>358.220979</ele>
        <time>2021-11-13T16:36:44.825Z</time>
      </trkpt>
      <trkpt lat="47.641723" lon="7.794173">
        <ele>358.591541</ele>
        <time>2021-11-13T16:36:50.320Z</time>
      </trkpt>
      <trkpt lat="47.641467" lon="7.794243">
        <ele>358.924305</ele>
        <time>2021-11-13T16:36:54.879Z</time>
      </trkpt>
      <trkpt lat="47.641423" lon="7.794262">
        <ele>358.982885</ele>
        <time>2021-11-13T16:36:56.050Z</time>
      </trkpt>
      <trkpt lat="47.641376" lon="7.794282">
        <ele>359.045388</ele>
        <time>2021-11-13T16:36:56.958Z</time>
      </trkpt>
      <trkpt lat="47.641301" lon="7.794362">
        <ele>359.163456</ele>
        <time>2021-11-13T16:36:58.652Z</time>
      </trkpt>
      <trkpt lat="47.641279" lon="7.794622">
        <ele>359.389156</ele>
        <time>2021-11-13T16:37:01.897Z</time>
      </trkpt>
      <trkpt lat="47.641343" lon="7.796245">
        <ele>360.940433</ele>
        <time>2021-11-13T16:37:25.129Z</time>
      </trkpt>
      <trkpt lat="47.641315" lon="7.796644">
        <ele>361.424730</ele>
        <time>2021-11-13T16:37:31.046Z</time>
      </trkpt>
      <trkpt lat="47.641227" lon="7.796936">
        <ele>361.810904</ele>
        <time>2021-11-13T16:37:35.716Z</time>
      </trkpt>
      <trkpt lat="47.641176" lon="7.797112">
        <ele>362.042197</ele>
        <time>2021-11-13T16:37:38.485Z</time>
      </trkpt>
      <trkpt lat="47.641074" lon="7.797586">
        <ele>362.642910</ele>
        <time>2021-11-13T16:37:45.874Z</time>
      </trkpt>
      <trkpt lat="47.641015" lon="7.798103">
        <ele>363.275950</ele>
        <time>2021-11-13T16:37:53.839Z</time>
      </trkpt>
      <trkpt lat="47.640997" lon="7.798555">
        <ele>363.829634</ele>
        <time>2021-11-13T16:38:00.897Z</time>
      </trkpt>
      <trkpt lat="47.640999" lon="7.798974">
        <ele>364.354641</ele>
        <time>2021-11-13T16:38:07.518Z</time>
      </trkpt>
      <trkpt lat="47.641092" lon="7.800157">
        <ele>365.846957</ele>
        <time>2021-11-13T16:38:25.094Z</time>
      </trkpt>
      <trkpt lat="47.641116" lon="7.802670">
        <ele>369.412020</ele>
        <time>2021-11-13T16:39:02.490Z</time>
      </trkpt>
      <trkpt lat="47.641035" lon="7.804052">
        <ele>371.871648</ele>
        <time>2021-11-13T16:39:26.539Z</time>
      </trkpt>
      <trkpt lat="47.641027" lon="7.805216">
        <ele>374.926956</ele>
        <time>2021-11-13T16:39:49.991Z</time>
      </trkpt>
      <trkpt lat="47.640903" lon="7.805965">
        <ele>376.951332</ele>
        <time>2021-11-13T16:40:06.815Z</time>
      </trkpt>
      <trkpt lat="47.640471" lon="7.807411">
        <ele>381.968881</ele>
        <time>2021-11-13T16:40:42.565Z</time>
      </trkpt>
      <trkpt lat="47.640248" lon="7.809244">
        <ele>388.559390</ele>
        <time>2021-11-13T16:41:26.780Z</time>
      </trkpt>
      <trkpt lat="47.640177" lon="7.809453">
        <ele>389.555344</ele>
        <time>2021-11-13T16:41:33.334Z</time>
      </trkpt>
      <trkpt lat="47.640144" lon="7.809624">
        <ele>390.312221</ele>
        <time>2021-11-13T16:41:38.647Z</time>
      </trkpt>
      <trkpt lat="47.640133" lon="7.809898">
        <ele>391.480185</ele>
        <time>2021-11-13T16:41:45.112Z</time>
      </trkpt>
      <trkpt lat="47.640212" lon="7.810393">
        <ele>393.644736</ele>
        <time>2021-11-13T16:41:58.685Z</time>
      </trkpt>
      <trkpt lat="47.640234" lon="7.810482">
        <ele>394.048120</ele>
        <time>2021-11-13T16:42:01.821Z</time>
      </trkpt>
      <trkpt lat="47.640321" lon="7.810756">
        <ele>395.336984</ele>
        <time>2021-11-13T16:42:10.596Z</time>
      </trkpt>
      <trkpt lat="47.640486" lon="7.811243">
        <ele>397.656442</ele>
        <time>2021-11-13T16:42:25.844Z</time>
      </trkpt>
      <trkpt lat="47.640504" lon="7.811478">
        <ele>398.734294</ele>
        <time>2021-11-13T16:42:32.523Z</time>
      </trkpt>
      <trkpt lat="47.640454" lon="7.811607">
        <ele>399.516291</ele>
        <time>2021-11-13T16:42:37.257Z</time>
      </trkpt>
      <trkpt lat="47.640351" lon="7.811609">
        <ele>400.319623</ele>
        <time>2021-11-13T16:42:41.044Z</time>
      </trkpt>
      <trkpt lat="47.640054" lon="7.811297">
        <ele>403.157328</ele>
        <time>2021-11-13T16:42:57.027Z</time>
      </trkpt>
      <trkpt lat="47.639963" lon="7.811344">
        <ele>403.908752</ele>
        <time>2021-11-13T16:43:01.458Z</time>
      </trkpt>
      <trkpt lat="47.639913" lon="7.811500">
        <ele>404.816495</ele>
        <time>2021-11-13T16:43:07.489Z</time>
      </trkpt>
      <trkpt lat="47.639796" lon="7.811469">
        <ele>405.743366</ele>
        <time>2021-11-13T16:43:13.397Z</time>
      </trkpt>
      <trkpt lat="47.639195" lon="7.811442">
        <ele>410.432514</ele>
        <time>2021-11-13T16:43:41.890Z</time>
      </trkpt>
      <trkpt lat="47.638925" lon="7.811482">
        <ele>412.555111</ele>
        <time>2021-11-13T16:43:54.568Z</time>
      </trkpt>
      <trkpt lat="47.638511" lon="7.811552">
        <ele>415.934032</ele>
        <time>2021-11-13T16:44:14.495Z</time>
      </trkpt>
      <trkpt lat="47.637893" lon="7.811811">
        <ele>421.141495</ele>
        <time>2021-11-13T16:44:43.925Z</time>
      </trkpt>
      <trkpt lat="47.637370" lon="7.812117">
        <ele>425.700291</ele>
        <time>2021-11-13T16:45:12.647Z</time>
      </trkpt>
      <trkpt lat="47.637056" lon="7.812257">
        <ele>428.242808</ele>
        <time>2021-11-13T16:45:27.780Z</time>
      </trkpt>
      <trkpt lat="47.636514" lon="7.812384">
        <ele>432.319897</ele>
        <time>2021-11-13T16:45:51.721Z</time>
      </trkpt>
      <trkpt lat="47.636362" lon="7.812419">
        <ele>433.462810</ele>
        <time>2021-11-13T16:45:58.886Z</time>
      </trkpt>
      <trkpt lat="47.636234" lon="7.812469">
        <ele>434.446278</ele>
        <time>2021-11-13T16:46:04.188Z</time>
      </trkpt>
      <trkpt lat="47.635984" lon="7.812598">
        <ele>436.412926</ele>
        <time>2021-11-13T16:46:15.160Z</time>
      </trkpt>
      <trkpt lat="47.635678" lon="7.812872">
        <ele>439.068400</ele>
        <time>2021-11-13T16:46:30.677Z</time>
      </trkpt>
      <trkpt lat="47.635617" lon="7.812948">
        <ele>439.660199</ele>
        <time>2021-11-13T16:46:33.943Z</time>
      </trkpt>
      <trkpt lat="47.635537" lon="7.813043">
        <ele>440.426825</ele>
        <time>2021-11-13T16:46:39.063Z</time>
      </trkpt>
      <trkpt lat="47.635461" lon="7.813093">
        <ele>441.082784</ele>
        <time>2021-11-13T16:46:42.830Z</time>
      </trkpt>
      <trkpt lat="47.635241" lon="7.813237">
        <ele>442.980028</ele>
        <time>2021-11-13T16:46:53.504Z</time>
      </trkpt>
      <trkpt lat="47.634810" lon="7.813677">
        <ele>447.107788</ele>
        <time>2021-11-13T16:47:18.714Z</time>
      </trkpt>
      <trkpt lat="47.634638" lon="7.813802">
        <ele>448.618945</ele>
        <time>2021-11-13T16:47:26.948Z</time>
      </trkpt>
      <trkpt lat="47.634603" lon="7.813838">
        <ele>448.954960</ele>
        <time>2021-11-13T16:47:30.082Z</time>
      </trkpt>
      <trkpt lat="47.634267" lon="7.814103">
        <ele>451.957310</ele>
        <time>2021-11-13T16:47:47.432Z</time>
      </trkpt>
      <trkpt lat="47.634025" lon="7.814248">
        <ele>454.016566</ele>
        <time>2021-11-13T16:47:58.201Z</time>
      </trkpt>
      <trkpt lat="47.633899" lon="7.814255">
        <ele>454.998510</ele>
        <time>2021-11-13T16:48:04.748Z</time>
      </trkpt>
      <trkpt lat="47.633759" lon="7.814194">
        <ele>456.118998</ele>
        <time>2021-11-13T16:48:10.536Z</time>
      </trkpt>
      <trkpt lat="47.633391" lon="7.813533">
        <ele>460.555953</ele>
        <time>2021-11-13T16:48:40.916Z</time>
      </trkpt>
      <trkpt lat="47.633151" lon="7.812590">
        <ele>465.772310</ele>
        <time>2021-11-13T16:49:10.704Z</time>
      </trkpt>
      <trkpt lat="47.632938" lon="7.812283">
        <ele>468.052541</ele>
        <time>2021-11-13T16:49:22.232Z</time>
      </trkpt>
      <trkpt lat="47.632845" lon="7.812246">
        <ele>468.760275</ele>
        <time>2021-11-13T16:49:27.901Z</time>
      </trkpt>
      <trkpt lat="47.632790" lon="7.812277">
        <ele>469.180428</ele>
        <time>2021-11-13T16:49:30.300Z</time>
      </trkpt>
      <trkpt lat="47.632601" lon="7.813004">
        <ele>472.930390</ele>
        <time>2021-11-13T16:49:50.745Z</time>
      </trkpt>
      <trkpt lat="47.632573" lon="7.813067">
        <ele>473.293575</ele>
        <time>2021-11-13T16:49:53.640Z</time>
      </trkpt>
      <trkpt lat="47.632515" lon="7.813155">
        <ele>473.885951</ele>
        <time>2021-11-13T16:49:58.311Z</time>
      </trkpt>
      <trkpt lat="47.632179" lon="7.813790">
        <ele>477.771336</ele>
        <time>2021-11-13T16:50:19.363Z</time>
      </trkpt>
      <trkpt lat="47.632099" lon="7.813963">
        <ele>478.781064</ele>
        <time>2021-11-13T16:50:26.946Z</time>
      </trkpt>
      <trkpt lat="47.631707" lon="7.814641">
        <ele>483.394521</ele>
        <time>2021-11-13T16:50:53.829Z</time>
      </trkpt>
      <trkpt lat="47.631677" lon="7.814692">
        <ele>483.774324</ele>
        <time>2021-11-13T16:50:56.907Z</time>
      </trkpt>
      <trkpt lat="47.631227" lon="7.815205">
        <ele>488.498637</ele>
        <time>2021-11-13T16:51:24.150Z</time>
      </trkpt>
      <trkpt lat="47.631083" lon="7.815420">
        <ele>490.199301</ele>
        <time>2021-11-13T16:51:34.358Z</time>
      </trkpt>
      <trkpt lat="47.631021" lon="7.815514">
        <ele>490.937246</ele>
        <time>2021-11-13T16:51:38.619Z</time>
      </trkpt>
      <trkpt lat="47.630743" lon="7.815987">
        <ele>494.458470</ele>
        <time>2021-11-13T16:51:58.952Z</time>
      </trkpt>
      <trkpt lat="47.629850" lon="7.816905">
        <ele>501.980481</ele>
        <time>2021-11-13T16:52:52.528Z</time>
      </trkpt>
      <trkpt lat="47.629046" lon="7.818276">
        <ele>508.585502</ele>
        <time>2021-11-13T16:53:35.062Z</time>
      </trkpt>
      <trkpt lat="47.628903" lon="7.818442">
        <ele>508.913137</ele>
        <time>2021-11-13T16:53:40.068Z</time>
      </trkpt>
      <trkpt lat="47.628652" lon="7.819012">
        <ele>509.741196</ele>
        <time>2021-11-13T16:53:50.293Z</time>
      </trkpt>
      <trkpt lat="47.628382" lon="7.819690">
        <ele>510.698937</ele>
        <time>2021-11-13T16:54:00.347Z</time>
      </trkpt>
      <trkpt lat="47.628223" lon="7.820316">
        <ele>511.007173</ele>
        <time>2021-11-13T16:54:06.453Z</time>
      </trkpt>
      <trkpt lat="47.628068" lon="7.820705">
        <ele>510.387477</ele>
        <time>2021-11-13T16:54:09.847Z</time>
      </trkpt>
      <trkpt lat="47.627725" lon="7.821287">
        <ele>509.327260</ele>
        <time>2021-11-13T16:54:15.511Z</time>
      </trkpt>
      <trkpt lat="47.627644" lon="7.821437">
        <ele>509.063678</ele>
        <time>2021-11-13T16:54:16.907Z</time>
      </trkpt>
      <trkpt lat="47.627436" lon="7.821903">
        <ele>508.297201</ele>
        <time>2021-11-13T16:54:20.866Z</time>
      </trkpt>
      <trkpt lat="47.627230" lon="7.822262">
        <ele>507.650626</ele>
        <time>2021-11-13T16:54:24.158Z</time>
      </trkpt>
      <trkpt lat="47.626961" lon="7.822577">
        <ele>506.612884</ele>
        <time>2021-11-13T16:54:27.661Z</time>
      </trkpt>
      <trkpt lat="47.626214" lon="7.823154">
        <ele>504.017783</ele>
        <time>2021-11-13T16:54:36.080Z</time>
      </trkpt>
      <trkpt lat="47.626017" lon="7.823389">
        <ele>503.238869</ele>
        <time>2021-11-13T16:54:38.660Z</time>
      </trkpt>
      <trkpt lat="47.625432" lon="7.824606">
        <ele>500.121857</ele>
        <time>2021-11-13T16:54:49.219Z</time>
      </trkpt>
      <trkpt lat="47.624738" lon="7.825514">
        <ele>497.252202</ele>
        <time>2021-11-13T16:54:58.912Z</time>
      </trkpt>
      <trkpt lat="47.624085" lon="7.826125">
        <ele>493.490411</ele>
        <time>2021-11-13T16:55:06.244Z</time>
      </trkpt>
      <trkpt lat="47.623651" lon="7.826499">
        <ele>490.633146</ele>
        <time>2021-11-13T16:55:10.882Z</time>
      </trkpt>
      <trkpt lat="47.623357" lon="7.826769">
        <ele>488.664724</ele>
        <time>2021-11-13T16:55:14.028Z</time>
      </trkpt>
      <trkpt lat="47.622929" lon="7.827233">
        <ele>485.634256</ele>
        <time>2021-11-13T16:55:18.807Z</time>
      </trkpt>
      <trkpt lat="47.622611" lon="7.827681">
        <ele>483.085533</ele>
        <time>2021-11-13T16:55:22.725Z</time>
      </trkpt>
      <trkpt lat="47.621973" lon="7.828724">
        <ele>477.567886</ele>
        <time>2021-11-13T16:55:31.459Z</time>
      </trkpt>
      <trkpt lat="47.621800" lon="7.829109">
        <ele>475.774591</ele>
        <time>2021-11-13T16:55:34.477Z</time>
      </trkpt>
      <trkpt lat="47.621534" lon="7.829734">
        <ele>474.105266</ele>
        <time>2021-11-13T16:55:39.389Z</time>
      </trkpt>
      <trkpt lat="47.621427" lon="7.829933">
        <ele>473.530365</ele>
        <time>2021-11-13T16:55:41.117Z</time>
      </trkpt>
      <trkpt lat="47.621202" lon="7.830405">
        <ele>472.224753</ele>
        <time>2021-11-13T16:55:45.087Z</time>
      </trkpt>
      <trkpt lat="47.619543" lon="7.832548">
        <ele>465.398829</ele>
        <time>2021-11-13T16:56:07.932Z</time>
      </trkpt>
      <trkpt lat="47.618883" lon="7.833744">
        <ele>461.745486</ele>
        <time>2021-11-13T16:56:18.273Z</time>
      </trkpt>
      <trkpt lat="47.618582" lon="7.834417">
        <ele>459.703421</ele>
        <time>2021-11-13T16:56:23.612Z</time>
      </trkpt>
      <trkpt lat="47.618319" lon="7.834959">
        <ele>458.014912</ele>
        <time>2021-11-13T16:56:28.029Z</time>
      </trkpt>
      <trkpt lat="47.617841" lon="7.835706">
        <ele>455.546796</ele>
        <time>2021-11-13T16:56:34.840Z</time>
      </trkpt>
      <trkpt lat="47.617290" lon="7.837217">
        <ele>451.464986</ele>
        <time>2021-11-13T16:56:46.473Z</time>
      </trkpt>
      <trkpt lat="47.616796" lon="7.838812">
        <ele>447.562381</ele>
        <time>2021-11-13T16:56:58.511Z</time>
      </trkpt>
      <trkpt lat="47.616766" lon="7.839183">
        <ele>446.733544</ele>
        <time>2021-11-13T16:57:01.088Z</time>
      </trkpt>
      <trkpt lat="47.617103" lon="7.841209">
        <ele>441.281647</ele>
        <time>2021-11-13T16:57:15.014Z</time>
      </trkpt>
      <trkpt lat="47.617228" lon="7.842570">
        <ele>437.438686</ele>
        <time>2021-11-13T16:57:23.853Z</time>
      </trkpt>
      <trkpt lat="47.617368" lon="7.843216">
        <ele>435.428855</ele>
        <time>2021-11-13T16:57:28.132Z</time>
      </trkpt>
      <trkpt lat="47.617607" lon="7.843840">
        <ele>433.303132</ele>
        <time>2021-11-13T16:57:32.714Z</time>
      </trkpt>
      <trkpt lat="47.617988" lon="7.844483">
        <ele>430.767462</ele>
        <time>2021-11-13T16:57:38.328Z</time>
      </trkpt>
      <trkpt lat="47.618134" lon="7.844973">
        <ele>429.587267</ele>
        <time>2021-11-13T16:57:41.967Z</time>
      </trkpt>
      <trkpt lat="47.618223" lon="7.845325">
        <ele>428.958951</ele>
        <time>2021-11-13T16:57:44.607Z</time>
      </trkpt>
      <trkpt lat="47.618233" lon="7.846599">
        <ele>426.829592</ele>
        <time>2021-11-13T16:57:53.797Z</time>
      </trkpt>
      <trkpt lat="47.617998" lon="7.847811">
        <ele>424.526041</ele>
        <time>2021-11-13T16:58:03.374Z</time>
      </trkpt>
      <trkpt lat="47.617988" lon="7.848055">
        <ele>424.031689</ele>
        <time>2021-11-13T16:58:05.237Z</time>
      </trkpt>
      <trkpt lat="47.618004" lon="7.848291">
        <ele>423.552019</ele>
        <time>2021-11-13T16:58:06.925Z</time>
      </trkpt>
      <trkpt lat="47.618035" lon="7.849984">
        <ele>419.983354</ele>
        <time>2021-11-13T16:58:18.412Z</time>
      </trkpt>
      <trkpt lat="47.618006" lon="7.850183">
        <ele>419.120307</ele>
        <time>2021-11-13T16:58:19.718Z</time>
      </trkpt>
      <trkpt lat="47.617527" lon="7.851427">
        <ele>413.047282</ele>
        <time>2021-11-13T16:58:28.669Z</time>
      </trkpt>
      <trkpt lat="47.617505" lon="7.852663">
        <ele>407.434827</ele>
        <time>2021-11-13T16:58:36.012Z</time>
      </trkpt>
      <trkpt lat="47.617401" lon="7.852985">
        <ele>405.428876</ele>
        <time>2021-11-13T16:58:38.100Z</time>
      </trkpt>
      <trkpt lat="47.617174" lon="7.853374">
        <ele>402.538296</ele>
        <time>2021-11-13T16:58:41.116Z</time>
      </trkpt>
      <trkpt lat="47.617121" lon="7.853582">
        <ele>401.289033</ele>
        <time>2021-11-13T16:58:42.424Z</time>
      </trkpt>
      <trkpt lat="47.616902" lon="7.854158">
        <ele>397.573745</ele>
        <time>2021-11-13T16:58:46.328Z</time>
      </trkpt>
      <trkpt lat="47.616532" lon="7.854834">
        <ele>393.215968</ele>
        <time>2021-11-13T16:58:53.704Z</time>
      </trkpt>
      <trkpt lat="47.615834" lon="7.855623">
        <ele>388.968036</ele>
        <time>2021-11-13T16:59:05.171Z</time>
      </trkpt>
      <trkpt lat="47.615482" lon="7.855744">
        <ele>387.218954</ele>
        <time>2021-11-13T16:59:10.575Z</time>
      </trkpt>
      <trkpt lat="47.615230" lon="7.856082">
        <ele>385.574403</ele>
        <time>2021-11-13T16:59:16.239Z</time>
      </trkpt>
      <trkpt lat="47.615230" lon="7.856082">
        <ele>385.574403</ele>
        <time>2021-11-13T16:59:16.245Z</time>
      </trkpt>
      <trkpt lat="47.614943" lon="7.856422">
        <ele>384.415024</ele>
        <time>2021-11-13T16:59:20.311Z</time>
      </trkpt>
      <trkpt lat="47.614594" lon="7.857031">
        <ele>382.916948</ele>
        <time>2021-11-13T16:59:25.735Z</time>
      </trkpt>
      <trkpt lat="47.614324" lon="7.857633">
        <ele>381.561780</ele>
        <time>2021-11-13T16:59:30.835Z</time>
      </trkpt>
      <trkpt lat="47.614117" lon="7.858260">
        <ele>380.253294</ele>
        <time>2021-11-13T16:59:35.759Z</time>
      </trkpt>
      <trkpt lat="47.614088" lon="7.858460">
        <ele>379.835327</ele>
        <time>2021-11-13T16:59:37.090Z</time>
      </trkpt>
      <trkpt lat="47.613930" lon="7.859518">
        <ele>377.619242</ele>
        <time>2021-11-13T16:59:44.555Z</time>
      </trkpt>
      <trkpt lat="47.613681" lon="7.860208">
        <ele>376.018712</ele>
        <time>2021-11-13T16:59:49.774Z</time>
      </trkpt>
      <trkpt lat="47.613653" lon="7.860682">
        <ele>375.045652</ele>
        <time>2021-11-13T16:59:53.007Z</time>
      </trkpt>
      <trkpt lat="47.613709" lon="7.860779">
        <ele>374.788284</ele>
        <time>2021-11-13T16:59:53.946Z</time>
      </trkpt>
      <trkpt lat="47.613477" lon="7.861090">
        <ele>374.282337</ele>
        <time>2021-11-13T16:59:57.491Z</time>
      </trkpt>
      <trkpt lat="47.613247" lon="7.861408">
        <ele>373.773610</ele>
        <time>2021-11-13T17:00:01.222Z</time>
      </trkpt>
      <trkpt lat="47.613183" lon="7.861517">
        <ele>373.615944</ele>
        <time>2021-11-13T17:00:02.404Z</time>
      </trkpt>
      <trkpt lat="47.613099" lon="7.861661">
        <ele>373.408234</ele>
        <time>2021-11-13T17:00:03.901Z</time>
      </trkpt>
      <trkpt lat="47.611814" lon="7.864344">
        <ele>369.279946</ele>
        <time>2021-11-13T17:00:29.726Z</time>
      </trkpt>
      <trkpt lat="47.611380" lon="7.864872">
        <ele>368.056386</ele>
        <time>2021-11-13T17:00:35.463Z</time>
      </trkpt>
      <trkpt lat="47.610539" lon="7.865746">
        <ele>363.859609</ele>
        <time>2021-11-13T17:00:45.408Z</time>
      </trkpt>
      <trkpt lat="47.609971" lon="7.866486">
        <ele>360.772124</ele>
        <time>2021-11-13T17:00:52.611Z</time>
      </trkpt>
      <trkpt lat="47.608371" lon="7.868821">
        <ele>351.501502</ele>
        <time>2021-11-13T17:01:14.666Z</time>
      </trkpt>
      <trkpt lat="47.608074" lon="7.869176">
        <ele>349.722740</ele>
        <time>2021-11-13T17:01:18.335Z</time>
      </trkpt>
      <trkpt lat="47.607911" lon="7.869279">
        <ele>348.896508</ele>
        <time>2021-11-13T17:01:20.056Z</time>
      </trkpt>
      <trkpt lat="47.607848" lon="7.869319">
        <ele>348.576932</ele>
        <time>2021-11-13T17:01:20.680Z</time>
      </trkpt>
      <trkpt lat="47.607466" lon="7.869418">
        <ele>346.768546</ele>
        <time>2021-11-13T17:01:24.311Z</time>
      </trkpt>
      <trkpt lat="47.607341" lon="7.869436">
        <ele>346.182887</ele>
        <time>2021-11-13T17:01:25.474Z</time>
      </trkpt>
      <trkpt lat="47.607251" lon="7.869449">
        <ele>345.761200</ele>
        <time>2021-11-13T17:01:26.308Z</time>
      </trkpt>
      <trkpt lat="47.606761" lon="7.869665">
        <ele>343.628813</ele>
        <time>2021-11-13T17:01:31.094Z</time>
      </trkpt>
      <trkpt lat="47.606461" lon="7.869656">
        <ele>342.412656</ele>
        <time>2021-11-13T17:01:33.907Z</time>
      </trkpt>
      <trkpt lat="47.606292" lon="7.869632">
        <ele>341.724562</ele>
        <time>2021-11-13T17:01:35.463Z</time>
      </trkpt>
      <trkpt lat="47.605878" lon="7.869549">
        <ele>340.031348</ele>
        <time>2021-11-13T17:01:39.471Z</time>
      </trkpt>
      <trkpt lat="47.605451" lon="7.869487">
        <ele>338.292432</ele>
        <time>2021-11-13T17:01:44.093Z</time>
      </trkpt>
      <trkpt lat="47.605251" lon="7.869499">
        <ele>338.031175</ele>
        <time>2021-11-13T17:01:46.213Z</time>
      </trkpt>
      <trkpt lat="47.605151" lon="7.869535">
        <ele>338.049019</ele>
        <time>2021-11-13T17:01:47.502Z</time>
      </trkpt>
      <trkpt lat="47.604178" lon="7.870272">
        <ele>338.238479</ele>
        <time>2021-11-13T17:02:05.496Z</time>
      </trkpt>
      <trkpt lat="47.603441" lon="7.870715">
        <ele>338.302281</ele>
        <time>2021-11-13T17:02:22.089Z</time>
      </trkpt>
      <trkpt lat="47.603243" lon="7.870755">
        <ele>338.290972</ele>
        <time>2021-11-13T17:02:26.137Z</time>
      </trkpt>
      <trkpt lat="47.602981" lon="7.870758">
        <ele>338.276144</ele>
        <time>2021-11-13T17:02:30.468Z</time>
      </trkpt>
      <trkpt lat="47.602723" lon="7.870667">
        <ele>338.261136</ele>
        <time>2021-11-13T17:02:34.651Z</time>
      </trkpt>
      <trkpt lat="47.602649" lon="7.870651">
        <ele>338.256904</ele>
        <time>2021-11-13T17:02:35.667Z</time>
      </trkpt>
      <trkpt lat="47.602070" lon="7.870289">
        <ele>338.221345</ele>
        <time>2021-11-13T17:02:43.754Z</time>
      </trkpt>
      <trkpt lat="47.600522" lon="7.868445">
        <ele>333.600883</ele>
        <time>2021-11-13T17:03:04.348Z</time>
      </trkpt>
      <trkpt lat="47.600376" lon="7.868280">
        <ele>333.416273</ele>
        <time>2021-11-13T17:03:06.236Z</time>
      </trkpt>
      <trkpt lat="47.599705" lon="7.867526">
        <ele>332.569596</ele>
        <time>2021-11-13T17:03:16.079Z</time>
      </trkpt>
      <trkpt lat="47.598844" lon="7.866669">
        <ele>332.099794</ele>
        <time>2021-11-13T17:03:33.149Z</time>
      </trkpt>
      <trkpt lat="47.598366" lon="7.866463">
        <ele>332.304743</ele>
        <time>2021-11-13T17:03:42.853Z</time>
      </trkpt>
      <trkpt lat="47.597848" lon="7.866506">
        <ele>332.518354</ele>
        <time>2021-11-13T17:03:52.108Z</time>
      </trkpt>
      <trkpt lat="47.596934" lon="7.867028">
        <ele>331.387171</ele>
        <time>2021-11-13T17:04:05.491Z</time>
      </trkpt>
      <trkpt lat="47.596649" lon="7.867104">
        <ele>330.767917</ele>
        <time>2021-11-13T17:04:08.655Z</time>
      </trkpt>
      <trkpt lat="47.596216" lon="7.866990">
        <ele>329.827456</ele>
        <time>2021-11-13T17:04:12.957Z</time>
      </trkpt>
      <trkpt lat="47.595529" lon="7.866433">
        <ele>327.799231</ele>
        <time>2021-11-13T17:04:20.838Z</time>
      </trkpt>
      <trkpt lat="47.595188" lon="7.866380">
        <ele>326.681336</ele>
        <time>2021-11-13T17:04:24.486Z</time>
      </trkpt>
      <trkpt lat="47.594961" lon="7.866424">
        <ele>325.934923</ele>
        <time>2021-11-13T17:04:26.755Z</time>
      </trkpt>
      <trkpt lat="47.594779" lon="7.866515">
        <ele>325.308701</ele>
        <time>2021-11-13T17:04:29.101Z</time>
      </trkpt>
      <trkpt lat="47.594420" lon="7.866749">
        <ele>324.030121</ele>
        <time>2021-11-13T17:04:33.222Z</time>
      </trkpt>
      <trkpt lat="47.594096" lon="7.866777">
        <ele>322.971951</ele>
        <time>2021-11-13T17:04:36.491Z</time>
      </trkpt>
      <trkpt lat="47.593941" lon="7.866752">
        <ele>321.763132</ele>
        <time>2021-11-13T17:04:37.905Z</time>
      </trkpt>
      <trkpt lat="47.593497" lon="7.866682">
        <ele>318.265850</ele>
        <time>2021-11-13T17:04:41.990Z</time>
      </trkpt>
      <trkpt lat="47.593114" lon="7.866603">
        <ele>315.237075</ele>
        <time>2021-11-13T17:04:45.499Z</time>
      </trkpt>
      <trkpt lat="47.592687" lon="7.866538">
        <ele>311.874971</ele>
        <time>2021-11-13T17:04:49.231Z</time>
      </trkpt>
      <trkpt lat="47.592389" lon="7.866483">
        <ele>309.522841</ele>
        <time>2021-11-13T17:04:51.805Z</time>
      </trkpt>
      <trkpt lat="47.592194" lon="7.866446">
        <ele>307.785489</ele>
        <time>2021-11-13T17:04:53.451Z</time>
      </trkpt>
      <trkpt lat="47.591755" lon="7.866378">
        <ele>303.562645</ele>
        <time>2021-11-13T17:04:57.190Z</time>
      </trkpt>
      <trkpt lat="47.591538" lon="7.866361">
        <ele>301.483673</ele>
        <time>2021-11-13T17:04:59.019Z</time>
      </trkpt>
      <trkpt lat="47.591332" lon="7.866357">
        <ele>299.512666</ele>
        <time>2021-11-13T17:05:00.797Z</time>
      </trkpt>
      <trkpt lat="47.591128" lon="7.866362">
        <ele>297.560696</ele>
        <time>2021-11-13T17:05:02.520Z</time>
      </trkpt>
      <trkpt lat="47.590822" lon="7.866391">
        <ele>294.627167</ele>
        <time>2021-11-13T17:05:05.190Z</time>
      </trkpt>
      <trkpt lat="47.590766" lon="7.866045">
        <ele>292.331283</ele>
        <time>2021-11-13T17:05:07.407Z</time>
      </trkpt>
      <trkpt lat="47.590711" lon="7.865706">
        <ele>291.368204</ele>
        <time>2021-11-13T17:05:09.616Z</time>
      </trkpt>
      <trkpt lat="47.590697" lon="7.865616">
        <ele>291.255859</ele>
        <time>2021-11-13T17:05:10.235Z</time>
      </trkpt>
      <trkpt lat="47.590641" lon="7.865166">
        <ele>290.699265</ele>
        <time>2021-11-13T17:05:13.343Z</time>
      </trkpt>
      <trkpt lat="47.590547" lon="7.864188">
        <ele>289.497661</ele>
        <time>2021-11-13T17:05:21.395Z</time>
      </trkpt>
      <trkpt lat="47.590529" lon="7.863327">
        <ele>288.449885</ele>
        <time>2021-11-13T17:05:31.504Z</time>
      </trkpt>
      <trkpt lat="47.590535" lon="7.862855">
        <ele>288.578756</ele>
        <time>2021-11-13T17:05:37.175Z</time>
      </trkpt>
      <trkpt lat="47.590556" lon="7.861868">
        <ele>288.920025</ele>
        <time>2021-11-13T17:05:48.327Z</time>
      </trkpt>
      <trkpt lat="47.590583" lon="7.860850">
        <ele>289.272110</ele>
        <time>2021-11-13T17:05:59.808Z</time>
      </trkpt>
      <trkpt lat="47.590588" lon="7.860647">
        <ele>289.342312</ele>
        <time>2021-11-13T17:06:02.280Z</time>
      </trkpt>
      <trkpt lat="47.590611" lon="7.859435">
        <ele>289.560015</ele>
        <time>2021-11-13T17:06:15.833Z</time>
      </trkpt>
      <trkpt lat="47.590610" lon="7.858648">
        <ele>289.700521</ele>
        <time>2021-11-13T17:06:24.193Z</time>
      </trkpt>
      <trkpt lat="47.590607" lon="7.858460">
        <ele>289.734095</ele>
        <time>2021-11-13T17:06:26.262Z</time>
      </trkpt>
      <trkpt lat="47.590561" lon="7.857127">
        <ele>289.595963</ele>
        <time>2021-11-13T17:06:39.161Z</time>
      </trkpt>
      <trkpt lat="47.590520" lon="7.855958">
        <ele>289.285304</ele>
        <time>2021-11-13T17:06:49.547Z</time>
      </trkpt>
      <trkpt lat="47.590424" lon="7.854393">
        <ele>289.005000</ele>
        <time>2021-11-13T17:07:03.295Z</time>
      </trkpt>
      <trkpt lat="47.590357" lon="7.853304">
        <ele>288.876787</ele>
        <time>2021-11-13T17:07:13.871Z</time>
      </trkpt>
      <trkpt lat="47.590329" lon="7.852851">
        <ele>288.823452</ele>
        <time>2021-11-13T17:07:18.669Z</time>
      </trkpt>
      <trkpt lat="47.590057" lon="7.850113">
        <ele>289.479958</ele>
        <time>2021-11-13T17:07:49.653Z</time>
      </trkpt>
      <trkpt lat="47.590017" lon="7.849859">
        <ele>289.530051</ele>
        <time>2021-11-13T17:07:52.505Z</time>
      </trkpt>
      <trkpt lat="47.589928" lon="7.849282">
        <ele>289.619358</ele>
        <time>2021-11-13T17:07:58.942Z</time>
      </trkpt>
      <trkpt lat="47.589635" lon="7.847510">
        <ele>289.894641</ele>
        <time>2021-11-13T17:08:18.264Z</time>
      </trkpt>
      <trkpt lat="47.589339" lon="7.845650">
        <ele>290.118782</ele>
        <time>2021-11-13T17:08:37.799Z</time>
      </trkpt>
      <trkpt lat="47.589208" lon="7.844692">
        <ele>290.250867</ele>
        <time>2021-11-13T17:08:47.966Z</time>
      </trkpt>
      <trkpt lat="47.589148" lon="7.843298">
        <ele>290.605526</ele>
        <time>2021-11-13T17:09:03.238Z</time>
      </trkpt>
      <trkpt lat="47.589148" lon="7.842161">
        <ele>290.894382</ele>
        <time>2021-11-13T17:09:16.206Z</time>
      </trkpt>
      <trkpt lat="47.589184" lon="7.841335">
        <ele>291.137991</ele>
        <time>2021-11-13T17:09:25.691Z</time>
      </trkpt>
      <trkpt lat="47.589201" lon="7.841192">
        <ele>291.180726</ele>
        <time>2021-11-13T17:09:27.405Z</time>
      </trkpt>
      <trkpt lat="47.589403" lon="7.839556">
        <ele>291.670223</ele>
        <time>2021-11-13T17:09:45.990Z</time>
      </trkpt>
      <trkpt lat="47.589698" lon="7.838226">
        <ele>291.798674</ele>
        <time>2021-11-13T17:10:01.000Z</time>
      </trkpt>
      <trkpt lat="47.589864" lon="7.837623">
        <ele>291.855875</ele>
        <time>2021-11-13T17:10:08.027Z</time>
      </trkpt>
      <trkpt lat="47.589926" lon="7.837360">
        <ele>291.880344</ele>
        <time>2021-11-13T17:10:10.900Z</time>
      </trkpt>
      <trkpt lat="47.590062" lon="7.836819">
        <ele>291.640276</ele>
        <time>2021-11-13T17:10:16.270Z</time>
      </trkpt>
      <trkpt lat="47.590128" lon="7.836511">
        <ele>291.229312</ele>
        <time>2021-11-13T17:10:19.094Z</time>
      </trkpt>
      <trkpt lat="47.590166" lon="7.836338">
        <ele>290.997942</ele>
        <time>2021-11-13T17:10:20.665Z</time>
      </trkpt>
      <trkpt lat="47.590263" lon="7.835856">
        <ele>290.358300</ele>
        <time>2021-11-13T17:10:24.678Z</time>
      </trkpt>
      <trkpt lat="47.589181" lon="7.835983">
        <ele>288.156595</ele>
        <time>2021-11-13T17:10:36.002Z</time>
      </trkpt>
      <trkpt lat="47.588272" lon="7.836090">
        <ele>285.161255</ele>
        <time>2021-11-13T17:10:44.973Z</time>
      </trkpt>
      <trkpt lat="47.587903" lon="7.836007">
        <ele>283.935270</ele>
        <time>2021-11-13T17:10:48.671Z</time>
      </trkpt>
      <trkpt lat="47.587628" lon="7.835942">
        <ele>283.020525</ele>
        <time>2021-11-13T17:10:51.486Z</time>
      </trkpt>
      <trkpt lat="47.587848" lon="7.834235">
        <ele>281.073758</ele>
        <time>2021-11-13T17:11:04.124Z</time>
      </trkpt>
      <trkpt lat="47.586496" lon="7.833050">
        <ele>280.899584</ele>
        <time>2021-11-13T17:11:26.437Z</time>
      </trkpt>
      <trkpt lat="47.586276" lon="7.833601">
        <ele>281.388500</ele>
        <time>2021-11-13T17:11:34.690Z</time>
      </trkpt>
      <trkpt lat="47.585278" lon="7.832688">
        <ele>284.309320</ele>
        <time>2021-11-13T17:12:06.107Z</time>
      </trkpt>
      <trkpt lat="47.585247" lon="7.832651">
        <ele>284.455693</ele>
        <time>2021-11-13T17:12:07.391Z</time>
      </trkpt>
      <trkpt lat="47.585195" lon="7.832588">
        <ele>284.702685</ele>
        <time>2021-11-13T17:12:09.556Z</time>
      </trkpt>
      <trkpt lat="47.585027" lon="7.832425">
        <ele>285.441140</ele>
        <time>2021-11-13T17:12:15.034Z</time>
      </trkpt>
      <trkpt lat="47.584717" lon="7.832264">
        <ele>286.649250</ele>
        <time>2021-11-13T17:12:24.713Z</time>
      </trkpt>
      <trkpt lat="47.584412" lon="7.832249">
        <ele>287.771654</ele>
        <time>2021-11-13T17:12:34.039Z</time>
      </trkpt>
      <trkpt lat="47.584367" lon="7.832247">
        <ele>287.937238</ele>
        <time>2021-11-13T17:12:35.807Z</time>
      </trkpt>
      <trkpt lat="47.584156" lon="7.832334">
        <ele>288.744414</ele>
        <time>2021-11-13T17:12:43.425Z</time>
      </trkpt>
      <trkpt lat="47.584156" lon="7.832334">
        <ele>288.744414</ele>
        <time>2021-11-13T17:12:43.431Z</time>
      </trkpt>
      <trkpt lat="47.584156" lon="7.832334">
        <ele>288.744414</ele>
        <time>2021-11-13T17:12:43.482Z</time>
      </trkpt>
      <trkpt lat="47.584029" lon="7.832543">
        <ele>289.451996</ele>
        <time>2021-11-13T17:12:50.293Z</time>
      </trkpt>
      <trkpt lat="47.583849" lon="7.832883">
        <ele>290.539188</ele>
        <time>2021-11-13T17:13:00.644Z</time>
      </trkpt>
      <trkpt lat="47.583696" lon="7.833171">
        <ele>291.461326</ele>
        <time>2021-11-13T17:13:09.304Z</time>
      </trkpt>
      <trkpt lat="47.583523" lon="7.833509">
        <ele>292.528590</ele>
        <time>2021-11-13T17:13:17.798Z</time>
      </trkpt>
      <trkpt lat="47.583401" lon="7.833658">
        <ele>293.118045</ele>
        <time>2021-11-13T17:13:21.596Z</time>
      </trkpt>
      <trkpt lat="47.583327" lon="7.833750">
        <ele>293.478194</ele>
        <time>2021-11-13T17:13:24.861Z</time>
      </trkpt>
      <trkpt lat="47.583163" lon="7.833942">
        <ele>294.257477</ele>
        <time>2021-11-13T17:13:30.349Z</time>
      </trkpt>
      <trkpt lat="47.582828" lon="7.834117">
        <ele>295.446547</ele>
        <time>2021-11-13T17:13:38.797Z</time>
      </trkpt>
      <trkpt lat="47.580816" lon="7.834599">
        <ele>298.514446</ele>
        <time>2021-11-13T17:14:22.677Z</time>
      </trkpt>
      <trkpt lat="47.580667" lon="7.834627">
        <ele>298.558095</ele>
        <time>2021-11-13T17:14:25.058Z</time>
      </trkpt>
      <trkpt lat="47.579073" lon="7.834987">
        <ele>298.652304</ele>
        <time>2021-11-13T17:14:49.019Z</time>
      </trkpt>
      <trkpt lat="47.576219" lon="7.835650">
        <ele>295.366619</ele>
        <time>2021-11-13T17:15:22.679Z</time>
      </trkpt>
      <trkpt lat="47.575959" lon="7.835718">
        <ele>295.052771</ele>
        <time>2021-11-13T17:15:25.834Z</time>
      </trkpt>
      <trkpt lat="47.575033" lon="7.835907">
        <ele>294.753722</ele>
        <time>2021-11-13T17:15:38.288Z</time>
      </trkpt>
      <trkpt lat="47.574568" lon="7.836025">
        <ele>294.696267</ele>
        <time>2021-11-13T17:15:45.275Z</time>
      </trkpt>
      <trkpt lat="47.574158" lon="7.836106">
        <ele>294.645891</ele>
        <time>2021-11-13T17:15:51.947Z</time>
      </trkpt>
      <trkpt lat="47.573815" lon="7.836215">
        <ele>294.723223</ele>
        <time>2021-11-13T17:15:59.627Z</time>
      </trkpt>
      <trkpt lat="47.573348" lon="7.836386">
        <ele>294.955290</ele>
        <time>2021-11-13T17:16:10.479Z</time>
      </trkpt>
      <trkpt lat="47.572760" lon="7.836606">
        <ele>295.247855</ele>
        <time>2021-11-13T17:16:24.089Z</time>
      </trkpt>
      <trkpt lat="47.572296" lon="7.836777">
        <ele>295.478518</ele>
        <time>2021-11-13T17:16:34.515Z</time>
      </trkpt>
      <trkpt lat="47.572139" lon="7.836834">
        <ele>295.609866</ele>
        <time>2021-11-13T17:16:38.001Z</time>
      </trkpt>
      <trkpt lat="47.571871" lon="7.836932">
        <ele>295.858755</ele>
        <time>2021-11-13T17:16:44.038Z</time>
      </trkpt>
      <trkpt lat="47.571771" lon="7.836971">
        <ele>295.951989</ele>
        <time>2021-11-13T17:16:46.275Z</time>
      </trkpt>
      <trkpt lat="47.571254" lon="7.837161">
        <ele>296.432261</ele>
        <time>2021-11-13T17:16:58.725Z</time>
      </trkpt>
      <trkpt lat="47.570985" lon="7.837265">
        <ele>296.682922</ele>
        <time>2021-11-13T17:17:05.679Z</time>
      </trkpt>
      <trkpt lat="47.570872" lon="7.837307">
        <ele>296.787964</ele>
        <time>2021-11-13T17:17:08.695Z</time>
      </trkpt>
      <trkpt lat="47.570298" lon="7.837528">
        <ele>297.440945</ele>
        <time>2021-11-13T17:17:24.017Z</time>
      </trkpt>
      <trkpt lat="47.570038" lon="7.837643">
        <ele>297.826133</ele>
        <time>2021-11-13T17:17:31.140Z</time>
      </trkpt>
      <trkpt lat="47.569907" lon="7.837696">
        <ele>298.018909</ele>
        <time>2021-11-13T17:17:34.661Z</time>
      </trkpt>
      <trkpt lat="47.569814" lon="7.837733">
        <ele>298.155608</ele>
        <time>2021-11-13T17:17:37.223Z</time>
      </trkpt>
      <trkpt lat="47.569665" lon="7.837789">
        <ele>298.373828</ele>
        <time>2021-11-13T17:17:41.186Z</time>
      </trkpt>
      <trkpt lat="47.569522" lon="7.837844">
        <ele>298.583559</ele>
        <time>2021-11-13T17:17:45.041Z</time>
      </trkpt>
      <trkpt lat="47.569310" lon="7.837922">
        <ele>298.893654</ele>
        <time>2021-11-13T17:17:50.789Z</time>
      </trkpt>
      <trkpt lat="47.568988" lon="7.838054">
        <ele>299.367938</ele>
        <time>2021-11-13T17:17:59.566Z</time>
      </trkpt>
      <trkpt lat="47.568420" lon="7.838300">
        <ele>299.995441</ele>
        <time>2021-11-13T17:18:14.824Z</time>
      </trkpt>
      <trkpt lat="47.568160" lon="7.838415">
        <ele>300.228371</ele>
        <time>2021-11-13T17:18:21.237Z</time>
      </trkpt>
      <trkpt lat="47.568042" lon="7.838436">
        <ele>300.330398</ele>
        <time>2021-11-13T17:18:23.972Z</time>
      </trkpt>
      <trkpt lat="47.567936" lon="7.838380">
        <ele>300.427004</ele>
        <time>2021-11-13T17:18:26.504Z</time>
      </trkpt>
      <trkpt lat="47.567846" lon="7.838609">
        <ele>300.580508</ele>
        <time>2021-11-13T17:18:29.533Z</time>
      </trkpt>
      <trkpt lat="47.567823" lon="7.838648">
        <ele>300.610510</ele>
        <time>2021-11-13T17:18:30.189Z</time>
      </trkpt>
      <trkpt lat="47.567634" lon="7.839037">
        <ele>300.888168</ele>
        <time>2021-11-13T17:18:35.605Z</time>
      </trkpt>
      <trkpt lat="47.567626" lon="7.839064">
        <ele>300.905249</ele>
        <time>2021-11-13T17:18:36.018Z</time>
      </trkpt>
      <trkpt lat="47.567564" lon="7.839283">
        <ele>301.042813</ele>
        <time>2021-11-13T17:18:38.735Z</time>
      </trkpt>
      <trkpt lat="47.567530" lon="7.839459">
        <ele>301.148853</ele>
        <time>2021-11-13T17:18:40.925Z</time>
      </trkpt>
      <trkpt lat="47.567510" lon="7.839548">
        <ele>301.203189</ele>
        <time>2021-11-13T17:18:42.047Z</time>
      </trkpt>
      <trkpt lat="47.567481" lon="7.839664">
        <ele>301.277412</ele>
        <time>2021-11-13T17:18:43.388Z</time>
      </trkpt>
      <trkpt lat="47.567406" lon="7.839778">
        <ele>301.373553</ele>
        <time>2021-11-13T17:18:45.438Z</time>
      </trkpt>
      <trkpt lat="47.567242" lon="7.839900">
        <ele>301.537768</ele>
        <time>2021-11-13T17:18:48.840Z</time>
      </trkpt>
      <trkpt lat="47.567111" lon="7.839998">
        <ele>301.669089</ele>
        <time>2021-11-13T17:18:51.418Z</time>
      </trkpt>
      <trkpt lat="47.566826" lon="7.840179">
        <ele>301.946569</ele>
        <time>2021-11-13T17:18:56.940Z</time>
      </trkpt>
      <trkpt lat="47.566592" lon="7.840279">
        <ele>302.164510</ele>
        <time>2021-11-13T17:19:01.570Z</time>
      </trkpt>
      <trkpt lat="47.566515" lon="7.840312">
        <ele>302.236242</ele>
        <time>2021-11-13T17:19:02.859Z</time>
      </trkpt>
      <trkpt lat="47.566450" lon="7.840326">
        <ele>302.295022</ele>
        <time>2021-11-13T17:19:04.097Z</time>
      </trkpt>
      <trkpt lat="47.566350" lon="7.840350">
        <ele>302.385679</ele>
        <time>2021-11-13T17:19:06.005Z</time>
      </trkpt>
      <trkpt lat="47.566221" lon="7.840340">
        <ele>302.501280</ele>
        <time>2021-11-13T17:19:08.338Z</time>
      </trkpt>
      <trkpt lat="47.566142" lon="7.840322">
        <ele>302.572809</ele>
        <time>2021-11-13T17:19:09.571Z</time>
      </trkpt>
      <trkpt lat="47.566081" lon="7.840309">
        <ele>302.627960</ele>
        <time>2021-11-13T17:19:10.783Z</time>
      </trkpt>
      <trkpt lat="47.565906" lon="7.840272">
        <ele>302.786155</ele>
        <time>2021-11-13T17:19:14.235Z</time>
      </trkpt>
      <trkpt lat="47.565343" lon="7.840185">
        <ele>303.458333</ele>
        <time>2021-11-13T17:19:25.554Z</time>
      </trkpt>
      <trkpt lat="47.565233" lon="7.840176">
        <ele>303.591755</ele>
        <time>2021-11-13T17:19:27.892Z</time>
      </trkpt>
      <trkpt lat="47.565168" lon="7.840179">
        <ele>303.670513</ele>
        <time>2021-11-13T17:19:29.268Z</time>
      </trkpt>
      <trkpt lat="47.565057" lon="7.840213">
        <ele>303.807784</ele>
        <time>2021-11-13T17:19:31.511Z</time>
      </trkpt>
      <trkpt lat="47.564936" lon="7.840261">
        <ele>303.959483</ele>
        <time>2021-11-13T17:19:34.227Z</time>
      </trkpt>
      <trkpt lat="47.564558" lon="7.840516">
        <ele>304.462467</ele>
        <time>2021-11-13T17:19:42.509Z</time>
      </trkpt>
      <trkpt lat="47.564534" lon="7.840532">
        <ele>304.494339</ele>
        <time>2021-11-13T17:19:43.007Z</time>
      </trkpt>
      <trkpt lat="47.564463" lon="7.840580">
        <ele>304.588850</ele>
        <time>2021-11-13T17:19:44.620Z</time>
      </trkpt>
      <trkpt lat="47.564094" lon="7.840838">
        <ele>305.070350</ele>
        <time>2021-11-13T17:19:52.281Z</time>
      </trkpt>
      <trkpt lat="47.563986" lon="7.840916">
        <ele>305.193092</ele>
        <time>2021-11-13T17:19:54.569Z</time>
      </trkpt>
      <trkpt lat="47.563941" lon="7.840948">
        <ele>305.244084</ele>
        <time>2021-11-13T17:19:55.494Z</time>
      </trkpt>
      <trkpt lat="47.563805" lon="7.841046">
        <ele>305.398581</ele>
        <time>2021-11-13T17:19:58.300Z</time>
      </trkpt>
      <trkpt lat="47.563659" lon="7.841150">
        <ele>305.564076</ele>
        <time>2021-11-13T17:20:01.192Z</time>
      </trkpt>
      <trkpt lat="47.563483" lon="7.841269">
        <ele>305.761714</ele>
        <time>2021-11-13T17:20:04.921Z</time>
      </trkpt>
      <trkpt lat="47.563300" lon="7.841391">
        <ele>305.966720</ele>
        <time>2021-11-13T17:20:08.481Z</time>
      </trkpt>
      <trkpt lat="47.563016" lon="7.841568">
        <ele>306.281479</ele>
        <time>2021-11-13T17:20:14.338Z</time>
      </trkpt>
      <trkpt lat="47.562965" lon="7.841597">
        <ele>306.337286</ele>
        <time>2021-11-13T17:20:15.316Z</time>
      </trkpt>
      <trkpt lat="47.562904" lon="7.841632">
        <ele>306.404114</ele>
        <time>2021-11-13T17:20:16.545Z</time>
      </trkpt>
      <trkpt lat="47.562574" lon="7.841873">
        <ele>306.779969</ele>
        <time>2021-11-13T17:20:23.511Z</time>
      </trkpt>
      <trkpt lat="47.562440" lon="7.842083">
        <ele>307.018721</ele>
        <time>2021-11-13T17:20:27.130Z</time>
      </trkpt>
      <trkpt lat="47.562385" lon="7.842183">
        <ele>307.132863</ele>
        <time>2021-11-13T17:20:28.697Z</time>
      </trkpt>
      <trkpt lat="47.562300" lon="7.842326">
        <ele>307.301469</ele>
        <time>2021-11-13T17:20:31.597Z</time>
      </trkpt>
      <trkpt lat="47.562179" lon="7.842500">
        <ele>307.522534</ele>
        <time>2021-11-13T17:20:35.075Z</time>
      </trkpt>
      <trkpt lat="47.561498" lon="7.843130">
        <ele>308.575134</ele>
        <time>2021-11-13T17:20:51.787Z</time>
      </trkpt>
      <trkpt lat="47.561434" lon="7.843181">
        <ele>308.670411</ele>
        <time>2021-11-13T17:20:53.592Z</time>
      </trkpt>
      <trkpt lat="47.561038" lon="7.843502">
        <ele>309.222262</ele>
        <time>2021-11-13T17:21:02.293Z</time>
      </trkpt>
      <trkpt lat="47.560934" lon="7.843550">
        <ele>309.276026</ele>
        <time>2021-11-13T17:21:04.447Z</time>
      </trkpt>
      <trkpt lat="47.560812" lon="7.843560">
        <ele>309.336335</ele>
        <time>2021-11-13T17:21:06.691Z</time>
      </trkpt>
      <trkpt lat="47.560515" lon="7.843379">
        <ele>309.494839</ele>
        <time>2021-11-13T17:21:12.428Z</time>
      </trkpt>
      <trkpt lat="47.560430" lon="7.843341">
        <ele>309.538661</ele>
        <time>2021-11-13T17:21:14.230Z</time>
      </trkpt>
      <trkpt lat="47.560338" lon="7.843341">
        <ele>309.584070</ele>
        <time>2021-11-13T17:21:15.452Z</time>
      </trkpt>
      <trkpt lat="47.560209" lon="7.843393">
        <ele>309.650055</ele>
        <time>2021-11-13T17:21:17.928Z</time>
      </trkpt>
      <trkpt lat="47.560139" lon="7.843433">
        <ele>309.687085</ele>
        <time>2021-11-13T17:21:19.247Z</time>
      </trkpt>
      <trkpt lat="47.559847" lon="7.843604">
        <ele>309.842055</ele>
        <time>2021-11-13T17:21:24.415Z</time>
      </trkpt>
      <trkpt lat="47.559583" lon="7.843813">
        <ele>309.989788</ele>
        <time>2021-11-13T17:21:28.906Z</time>
      </trkpt>
      <trkpt lat="47.559158" lon="7.844233">
        <ele>310.028921</ele>
        <time>2021-11-13T17:21:36.116Z</time>
      </trkpt>
      <trkpt lat="47.559109" lon="7.844229">
        <ele>310.020076</ele>
        <time>2021-11-13T17:21:36.706Z</time>
      </trkpt>
      <trkpt lat="47.559060" lon="7.844197">
        <ele>310.010424</ele>
        <time>2021-11-13T17:21:37.338Z</time>
      </trkpt>
      <trkpt lat="47.558884" lon="7.843836">
        <ele>309.956252</ele>
        <time>2021-11-13T17:21:41.490Z</time>
      </trkpt>
      <trkpt lat="47.558555" lon="7.843392">
        <ele>309.876043</ele>
        <time>2021-11-13T17:21:47.525Z</time>
      </trkpt>
      <trkpt lat="47.558471" lon="7.843365">
        <ele>309.860550</ele>
        <time>2021-11-13T17:21:48.782Z</time>
      </trkpt>
      <trkpt lat="47.558405" lon="7.843371">
        <ele>309.848631</ele>
        <time>2021-11-13T17:21:49.951Z</time>
      </trkpt>
      <trkpt lat="47.558285" lon="7.843465">
        <ele>309.824165</ele>
        <time>2021-11-13T17:21:51.768Z</time>
      </trkpt>
      <trkpt lat="47.558136" lon="7.843582">
        <ele>309.793770</ele>
        <time>2021-11-13T17:21:54.165Z</time>
      </trkpt>
      <trkpt lat="47.557967" lon="7.843683">
        <ele>309.763300</ele>
        <time>2021-11-13T17:21:56.885Z</time>
      </trkpt>
      <trkpt lat="47.557846" lon="7.843756">
        <ele>309.812154</ele>
        <time>2021-11-13T17:21:58.728Z</time>
      </trkpt>
      <trkpt lat="47.557759" lon="7.843839">
        <ele>309.850846</ele>
        <time>2021-11-13T17:22:00.504Z</time>
      </trkpt>
      <trkpt lat="47.557715" lon="7.843940">
        <ele>309.881184</ele>
        <time>2021-11-13T17:22:01.734Z</time>
      </trkpt>
      <trkpt lat="47.557560" lon="7.844433">
        <ele>310.018435</ele>
        <time>2021-11-13T17:22:07.686Z</time>
      </trkpt>
      <trkpt lat="47.557282" lon="7.844832">
        <ele>310.163161</ele>
        <time>2021-11-13T17:22:14.069Z</time>
      </trkpt>
      <trkpt lat="47.557134" lon="7.845095">
        <ele>310.249579</ele>
        <time>2021-11-13T17:22:17.817Z</time>
      </trkpt>
      <trkpt lat="47.556636" lon="7.845928">
        <ele>310.689131</ele>
        <time>2021-11-13T17:22:30.674Z</time>
      </trkpt>
      <trkpt lat="47.556206" lon="7.846622">
        <ele>311.319451</ele>
        <time>2021-11-13T17:22:42.556Z</time>
      </trkpt>
      <trkpt lat="47.556060" lon="7.846859">
        <ele>311.534140</ele>
        <time>2021-11-13T17:22:46.814Z</time>
      </trkpt>
      <trkpt lat="47.555990" lon="7.846965">
        <ele>311.633363</ele>
        <time>2021-11-13T17:22:48.787Z</time>
      </trkpt>
      <trkpt lat="47.555966" lon="7.846932">
        <ele>311.665821</ele>
        <time>2021-11-13T17:22:49.365Z</time>
      </trkpt>
      <trkpt lat="47.555892" lon="7.846856">
        <ele>311.755080</ele>
        <time>2021-11-13T17:22:50.928Z</time>
      </trkpt>
      <trkpt lat="47.555855" lon="7.846815">
        <ele>311.800883</ele>
        <time>2021-11-13T17:22:51.843Z</time>
      </trkpt>
      <trkpt lat="47.555727" lon="7.846715">
        <ele>311.944335</ele>
        <time>2021-11-13T17:22:54.856Z</time>
      </trkpt>
      <trkpt lat="47.555199" lon="7.846687">
        <ele>312.572961</ele>
        <time>2021-11-13T17:23:04.807Z</time>
      </trkpt>
      <trkpt lat="47.555068" lon="7.846672">
        <ele>312.757692</ele>
        <time>2021-11-13T17:23:07.696Z</time>
      </trkpt>
      <trkpt lat="47.554995" lon="7.846915">
        <ele>313.010077</ele>
        <time>2021-11-13T17:23:11.419Z</time>
      </trkpt>
      <trkpt lat="47.554892" lon="7.847148">
        <ele>313.274368</ele>
        <time>2021-11-13T17:23:15.441Z</time>
      </trkpt>
      <trkpt lat="47.554863" lon="7.847200">
        <ele>313.338376</ele>
        <time>2021-11-13T17:23:16.477Z</time>
      </trkpt>
      <trkpt lat="47.554759" lon="7.847388">
        <ele>313.569032</ele>
        <time>2021-11-13T17:23:19.761Z</time>
      </trkpt>
      <trkpt lat="47.554618" lon="7.847626">
        <ele>313.869530</ele>
        <time>2021-11-13T17:23:24.333Z</time>
      </trkpt>
      <trkpt lat="47.554465" lon="7.847858">
        <ele>314.177320</ele>
        <time>2021-11-13T17:23:28.956Z</time>
      </trkpt>
      <trkpt lat="47.554351" lon="7.848049">
        <ele>314.419261</ele>
        <time>2021-11-13T17:23:32.426Z</time>
      </trkpt>
      <trkpt lat="47.554269" lon="7.848188">
        <ele>314.594440</ele>
        <time>2021-11-13T17:23:34.949Z</time>
      </trkpt>
      <trkpt lat="47.554209" lon="7.848300">
        <ele>314.730125</ele>
        <time>2021-11-13T17:23:37.031Z</time>
      </trkpt>
      <trkpt lat="47.554055" lon="7.848586">
        <ele>315.107461</ele>
        <time>2021-11-13T17:23:41.899Z</time>
      </trkpt>
      <trkpt lat="47.553725" lon="7.849291">
        <ele>315.995752</ele>
        <time>2021-11-13T17:23:53.266Z</time>
      </trkpt>
      <trkpt lat="47.553605" lon="7.849629">
        <ele>316.391166</ele>
        <time>2021-11-13T17:23:58.721Z</time>
      </trkpt>
      <trkpt lat="47.553537" lon="7.849904">
        <ele>316.694395</ele>
        <time>2021-11-13T17:24:02.911Z</time>
      </trkpt>
      <trkpt lat="47.553380" lon="7.850453">
        <ele>317.311724</ele>
        <time>2021-11-13T17:24:11.763Z</time>
      </trkpt>
      <trkpt lat="47.553344" lon="7.850525">
        <ele>317.404498</ele>
        <time>2021-11-13T17:24:13.029Z</time>
      </trkpt>
      <trkpt lat="47.553283" lon="7.850634">
        <ele>317.585722</ele>
        <time>2021-11-13T17:24:15.083Z</time>
      </trkpt>
      <trkpt lat="47.552876" lon="7.851300">
        <ele>319.221949</ele>
        <time>2021-11-13T17:24:28.916Z</time>
      </trkpt>
      <trkpt lat="47.552678" lon="7.851709">
        <ele>320.138610</ele>
        <time>2021-11-13T17:24:37.597Z</time>
      </trkpt>
      <trkpt lat="47.552449" lon="7.852231">
        <ele>321.272444</ele>
        <time>2021-11-13T17:24:48.897Z</time>
      </trkpt>
      <trkpt lat="47.552272" lon="7.852167">
        <ele>321.764074</ele>
        <time>2021-11-13T17:24:54.297Z</time>
      </trkpt>
      <trkpt lat="47.552097" lon="7.852063">
        <ele>322.272859</ele>
        <time>2021-11-13T17:24:59.545Z</time>
      </trkpt>
      <trkpt lat="47.552042" lon="7.852007">
        <ele>322.469209</ele>
        <time>2021-11-13T17:25:01.944Z</time>
      </trkpt>
      <trkpt lat="47.551925" lon="7.851845">
        <ele>322.976118</ele>
        <time>2021-11-13T17:25:06.210Z</time>
      </trkpt>
      <trkpt lat="47.551830" lon="7.851603">
        <ele>323.574236</ele>
        <time>2021-11-13T17:25:12.032Z</time>
      </trkpt>
      <trkpt lat="47.551660" lon="7.851725">
        <ele>324.172169</ele>
        <time>2021-11-13T17:25:17.266Z</time>
      </trkpt>
      <trkpt lat="47.551516" lon="7.851950">
        <ele>324.834632</ele>
        <time>2021-11-13T17:25:23.824Z</time>
      </trkpt>
      <trkpt lat="47.550221" lon="7.853833">
        <ele>329.365235</ele>
        <time>2021-11-13T17:26:11.116Z</time>
      </trkpt>
      <trkpt lat="47.549883" lon="7.854434">
        <ele>330.233933</ele>
        <time>2021-11-13T17:26:21.236Z</time>
      </trkpt>
      <trkpt lat="47.549566" lon="7.855225">
        <ele>331.011602</ele>
        <time>2021-11-13T17:26:35.095Z</time>
      </trkpt>
      <trkpt lat="47.549362" lon="7.855774">
        <ele>331.011325</ele>
        <time>2021-11-13T17:26:43.584Z</time>
      </trkpt>
      <trkpt lat="47.548887" lon="7.857308">
        <ele>331.010579</ele>
        <time>2021-11-13T17:27:05.692Z</time>
      </trkpt>
      <trkpt lat="47.548743" lon="7.857692">
        <ele>331.132701</ele>
        <time>2021-11-13T17:27:11.663Z</time>
      </trkpt>
      <trkpt lat="47.548701" lon="7.857893">
        <ele>331.216058</ele>
        <time>2021-11-13T17:27:14.635Z</time>
      </trkpt>
      <trkpt lat="47.548686" lon="7.857973">
        <ele>331.248951</ele>
        <time>2021-11-13T17:27:15.758Z</time>
      </trkpt>
      <trkpt lat="47.548611" lon="7.858381">
        <ele>331.416473</ele>
        <time>2021-11-13T17:27:21.972Z</time>
      </trkpt>
      <trkpt lat="47.548334" lon="7.859801">
        <ele>332.002050</ele>
        <time>2021-11-13T17:27:45.009Z</time>
      </trkpt>
      <trkpt lat="47.548049" lon="7.860929">
        <ele>333.194014</ele>
        <time>2021-11-13T17:28:06.028Z</time>
      </trkpt>
      <trkpt lat="47.547930" lon="7.861711">
        <ele>334.061261</ele>
        <time>2021-11-13T17:28:20.791Z</time>
      </trkpt>
      <trkpt lat="47.547568" lon="7.863151">
        <ele>335.438006</ele>
        <time>2021-11-13T17:28:49.919Z</time>
      </trkpt>
      <trkpt lat="47.547320" lon="7.863864">
        <ele>335.985723</ele>
        <time>2021-11-13T17:29:03.859Z</time>
      </trkpt>
      <trkpt lat="47.546974" lon="7.864423">
        <ele>336.503634</ele>
        <time>2021-11-13T17:29:14.683Z</time>
      </trkpt>
      <trkpt lat="47.546885" lon="7.864500">
        <ele>336.607901</ele>
        <time>2021-11-13T17:29:17.768Z</time>
      </trkpt>
      <trkpt lat="47.546894" lon="7.864837">
        <ele>336.715855</ele>
        <time>2021-11-13T17:29:21.651Z</time>
      </trkpt>
      <trkpt lat="47.546889" lon="7.865225">
        <ele>336.514129</ele>
        <time>2021-11-13T17:29:27.076Z</time>
      </trkpt>
      <trkpt lat="47.546819" lon="7.865489">
        <ele>336.366689</ele>
        <time>2021-11-13T17:29:31.021Z</time>
      </trkpt>
      <trkpt lat="47.546510" lon="7.865766">
        <ele>336.088551</ele>
        <time>2021-11-13T17:29:37.655Z</time>
      </trkpt>
      <trkpt lat="47.546327" lon="7.865959">
        <ele>335.915557</ele>
        <time>2021-11-13T17:29:41.170Z</time>
      </trkpt>
      <trkpt lat="47.546096" lon="7.866147">
        <ele>335.712585</ele>
        <time>2021-11-13T17:29:45.726Z</time>
      </trkpt>
      <trkpt lat="47.545240" lon="7.866887">
        <ele>335.526981</ele>
        <time>2021-11-13T17:30:02.400Z</time>
      </trkpt>
      <trkpt lat="47.545160" lon="7.866985">
        <ele>335.553383</ele>
        <time>2021-11-13T17:30:04.355Z</time>
      </trkpt>
      <trkpt lat="47.545003" lon="7.867278">
        <ele>335.617607</ele>
        <time>2021-11-13T17:30:10.024Z</time>
      </trkpt>
      <trkpt lat="47.544568" lon="7.867693">
        <ele>335.749197</ele>
        <time>2021-11-13T17:30:22.814Z</time>
      </trkpt>
      <trkpt lat="47.544469" lon="7.867776">
        <ele>335.778129</ele>
        <time>2021-11-13T17:30:25.677Z</time>
      </trkpt>
      <trkpt lat="47.544410" lon="7.867825">
        <ele>335.795331</ele>
        <time>2021-11-13T17:30:27.765Z</time>
      </trkpt>
      <trkpt lat="47.544246" lon="7.867967">
        <ele>335.856027</ele>
        <time>2021-11-13T17:30:32.449Z</time>
      </trkpt>
      <trkpt lat="47.544214" lon="7.867988">
        <ele>335.907072</ele>
        <time>2021-11-13T17:30:33.296Z</time>
      </trkpt>
      <trkpt lat="47.543801" lon="7.868269">
        <ele>336.569915</ele>
        <time>2021-11-13T17:30:44.900Z</time>
      </trkpt>
      <trkpt lat="47.543657" lon="7.868359">
        <ele>336.797862</ele>
        <time>2021-11-13T17:30:49.249Z</time>
      </trkpt>
      <trkpt lat="47.543201" lon="7.868657">
        <ele>337.524766</ele>
        <time>2021-11-13T17:30:59.449Z</time>
      </trkpt>
      <trkpt lat="47.543105" lon="7.868711">
        <ele>337.674534</ele>
        <time>2021-11-13T17:31:02.033Z</time>
      </trkpt>
      <trkpt lat="47.543049" lon="7.868759">
        <ele>337.768895</ele>
        <time>2021-11-13T17:31:03.410Z</time>
      </trkpt>
      <trkpt lat="47.542722" lon="7.869201">
        <ele>338.414511</ele>
        <time>2021-11-13T17:31:13.242Z</time>
      </trkpt>
      <trkpt lat="47.542696" lon="7.869257">
        <ele>338.464311</ele>
        <time>2021-11-13T17:31:14.072Z</time>
      </trkpt>
      <trkpt lat="47.542657" lon="7.869354">
        <ele>338.464311</ele>
        <time>2021-11-13T17:31:15.508Z</time>
      </trkpt>
      <trkpt lat="47.542372" lon="7.869746">
        <ele>338.464311</ele>
        <time>2021-11-13T17:31:22.584Z</time>
      </trkpt>
      <trkpt lat="47.542329" lon="7.869820">
        <ele>338.464311</ele>
        <time>2021-11-13T17:31:23.766Z</time>
      </trkpt>
      <trkpt lat="47.542348" lon="7.869983">
        <ele>338.464311</ele>
        <time>2021-11-13T17:31:25.320Z</time>
      </trkpt>
      <trkpt lat="47.542317" lon="7.870012">
        <ele>338.464311</ele>
        <time>2021-11-13T17:31:26.011Z</time>
      </trkpt>
      <trkpt lat="47.542181" lon="7.870131">
        <ele>338.464311</ele>
        <time>2021-11-13T17:31:28.513Z</time>
      </trkpt>
      <trkpt lat="47.542118" lon="7.870135">
        <ele>338.464311</ele>
        <time>2021-11-13T17:31:29.517Z</time>
      </trkpt>
      <trkpt lat="47.542014" lon="7.870126">
        <ele>338.464311</ele>
        <time>2021-11-13T17:31:30.884Z</time>
      </trkpt>
      <trkpt lat="47.541910" lon="7.870106">
        <ele>338.464311</ele>
        <time>2021-11-13T17:31:32.510Z</time>
      </trkpt>
      <trkpt lat="47.541606" lon="7.870424">
        <ele>338.464311</ele>
        <time>2021-11-13T17:31:37.725Z</time>
      </trkpt>
      <trkpt lat="47.541521" lon="7.870517">
        <ele>338.464311</ele>
        <time>2021-11-13T17:31:39.153Z</time>
      </trkpt>
      <trkpt lat="47.541550" lon="7.870601">
        <ele>338.464311</ele>
        <time>2021-11-13T17:31:40.013Z</time>
      </trkpt>
      <trkpt lat="47.541576" lon="7.870664">
        <ele>338.464311</ele>
        <time>2021-11-13T17:31:40.685Z</time>
      </trkpt>
      <trkpt lat="47.541460" lon="7.870752">
        <ele>338.464311</ele>
        <time>2021-11-13T17:31:42.951Z</time>
      </trkpt>
    </trkseg>
  </trk>
</gpx>